Provisional Data: North Branch Muddy Creek near Muddy Creek Forks, PA


Please select a monitoring station.
Please select start date.
Please select start date.

Toggle Unit: C/F Toggle Unit: C/F
Sample Time Temperature (C) Temperature (F) Specific Conductivity (mS/cm) pH   Turbidity (NTU+) DO (mg/L)
12/11/2021 12:00:00 AM 5.71 42.278 0.177 7.01 -0.21 11.82
12/11/2021 12:15:00 AM 5.73 42.314 0.176 7.01 0.12 11.8
12/11/2021 12:30:00 AM 5.74 42.332 0.176 7.01 -0.1 11.78
12/11/2021 12:45:00 AM 5.76 42.368 0.176 7 -0.11 11.78
12/11/2021 1:00:00 AM 5.77 42.386 0.176 7 -0.2 11.74
12/11/2021 1:15:00 AM 5.8 42.44 0.176 7 -0.15 11.74
12/11/2021 1:30:00 AM 5.81 42.458 0.176 7 0.1 11.73
12/11/2021 1:45:00 AM 5.83 42.494 0.176 7 0 11.72
12/11/2021 2:00:00 AM 5.85 42.53 0.176 7 -0.01 11.71
12/11/2021 2:15:00 AM 5.87 42.566 0.176 7 -0.15 11.71
12/11/2021 2:30:00 AM 5.89 42.602 0.176 7 -0.01 11.68
12/11/2021 2:45:00 AM 5.91 42.638 0.176 7 0.55 11.66
12/11/2021 3:00:00 AM 5.93 42.674 0.176 7 0.08 11.66
12/11/2021 3:15:00 AM 5.94 42.692 0.176 6.99 0.03 11.65
12/11/2021 3:30:00 AM 5.96 42.728 0.176 7 0.17 11.62
12/11/2021 3:45:00 AM 5.98 42.764 0.176 7 -0.05 11.63
12/11/2021 4:00:00 AM 6 42.8 0.176 6.99 -0.2 11.62
12/11/2021 4:15:00 AM 6.01 42.818 0.176 6.99 0.42 11.6
12/11/2021 4:30:00 AM 6.03 42.854 0.176 6.99 -0.2 11.6
12/11/2021 4:45:00 AM 6.05 42.89 0.176 6.99 0.03 11.6
12/11/2021 5:00:00 AM 6.07 42.926 0.176 6.99 0.07 11.59
12/11/2021 5:15:00 AM 6.08 42.944 0.176 6.99 0.32 11.56
12/11/2021 5:30:00 AM 6.1 42.98 0.176 6.98 0.15 11.56
12/11/2021 5:45:00 AM 6.12 43.016 0.17 6.98 -0.09 11.55
12/11/2021 6:00:00 AM 6.14 43.052 0.167 6.98 0.23 11.55
12/11/2021 6:15:00 AM 6.16 43.088 0.164 6.98 -0.02 11.53
12/11/2021 6:30:00 AM 6.17 43.106 0.165 6.98 0.32 11.53
12/11/2021 6:45:00 AM 6.2 43.16 0.169 6.98 -0.04 11.51
12/11/2021 7:00:00 AM 6.21 43.178 0.164 6.98 -0.05 11.46
12/11/2021 7:15:00 AM 6.23 43.214 0.175 6.98 -0.04 11.48
12/11/2021 7:30:00 AM 6.26 43.268 0.175 6.98 -0.22 11.48
12/11/2021 7:45:00 AM 6.29 43.322 0.177 6.98 -0.16 11.49
12/11/2021 8:00:00 AM 6.33 43.394 0.176 6.98 -0.07 11.47
12/11/2021 8:15:00 AM 6.37 43.466 0.176 6.98 -0.14 11.47
12/11/2021 8:30:00 AM 6.42 43.556 0.177 6.98 -0.26 11.49
12/11/2021 8:45:00 AM 6.46 43.628 0.176 6.99 -0.11 11.51
12/11/2021 9:00:00 AM 6.51 43.718 0.177 6.99 -0.02 11.54
12/11/2021 9:15:00 AM 6.56 43.808 0.178 6.99 -0.11 11.58
12/11/2021 9:30:00 AM 6.62 43.916 0.176 7 -0.17 11.61
12/11/2021 9:45:00 AM 6.71 44.078 0.179 7.01 0.03 11.61
12/11/2021 10:00:00 AM 6.79 44.222 0.179 7.01 -0.04 11.66
12/11/2021 10:15:00 AM 6.87 44.366 0.179 7.01 -0.04 11.69
12/11/2021 10:30:00 AM 6.95 44.51 0.178 7.02 -0.25 11.71
12/11/2021 10:45:00 AM 7.06 44.708 0.179 7.02 0.03 11.75
12/11/2021 11:00:00 AM 7.15 44.87 0.179 7.03 0.1 11.78
12/11/2021 11:15:00 AM 7.24 45.032 0.179 7.04 0.01 11.81
12/11/2021 11:30:00 AM 7.35 45.23 0.179 7.05 0 11.84
12/11/2021 11:45:00 AM 7.45 45.41 0.179 7.06 0.03 11.89
12/11/2021 12:00:00 PM 7.59 45.662 0.179 7.06 0.09 11.93
12/11/2021 12:15:00 PM 7.7 45.86 0.179 7.07 0.1 11.96
12/11/2021 12:30:00 PM 7.81 46.058 0.179 7.08 -0.1 11.99
12/11/2021 12:45:00 PM 7.93 46.274 0.179 7.09 0.05 12.02
12/11/2021 1:00:00 PM 8.04 46.472 0.177 7.1 0.09 12.01
12/11/2021 1:15:00 PM 8.18 46.724 0.178 7.11 -0.03 12.01
12/11/2021 1:30:00 PM 8.28 46.904 0.178 7.11 0.12 11.98
12/11/2021 1:45:00 PM 8.39 47.102 0.178 7.12 0.17 11.95
12/11/2021 2:00:00 PM 8.47 47.246 0.178 7.13 0.15 11.91
12/11/2021 2:15:00 PM 8.57 47.426 0.177 7.14 1.75 11.86
12/11/2021 2:30:00 PM 8.66 47.588 0.179 7.14 0.47 11.76
12/11/2021 2:45:00 PM 8.74 47.732 0.179 7.15 0.01 11.7
12/11/2021 3:00:00 PM 8.8 47.84 0.178 7.14 -0.18 11.6
12/11/2021 3:15:00 PM 8.84 47.912 0.179 7.14 0.23 11.52
12/11/2021 3:30:00 PM 8.94 48.092 0.178 7.14 0 11.47
12/11/2021 3:45:00 PM 9.01 48.218 0.178 7.14 0.17 11.43
12/11/2021 4:00:00 PM 9.07 48.326 0.179 7.14 0.13 11.38
12/11/2021 4:15:00 PM 9.12 48.416 0.178 7.14 0.06 11.34
12/11/2021 4:30:00 PM 9.16 48.488 0.178 7.14 -0.03 11.26
12/11/2021 4:45:00 PM 9.19 48.542 0.178 7.14 0.05 11.17
12/11/2021 5:00:00 PM 9.22 48.596 0.178 7.13 0.01 11.08
12/11/2021 5:15:00 PM 9.27 48.686 0.177 7.12 0.35 10.99
12/11/2021 5:30:00 PM 9.29 48.722 0.179 7.12 0.15 10.92
12/11/2021 5:45:00 PM 9.33 48.794 0.179 7.11 0.18 10.85
12/11/2021 6:00:00 PM 9.38 48.884 0.176 7.1 0.43 10.8
12/11/2021 6:15:00 PM 9.41 48.938 0.176 7.1 0.16 10.75
12/11/2021 6:30:00 PM 9.43 48.974 0.173 7.09 0.04 10.69
12/11/2021 6:45:00 PM 9.44 48.992 0.174 7.08 0.06 10.65
12/11/2021 7:00:00 PM 9.45 49.01 0.176 7.07 0.1 10.62
12/11/2021 7:15:00 PM 9.46 49.028 0.176 7.07 0.32 10.56
12/11/2021 7:30:00 PM 9.47 49.046 0.176 7.06 0.09 10.55
12/11/2021 7:45:00 PM 9.48 49.064 0.176 7.06 0.17 10.53
12/11/2021 8:00:00 PM 9.49 49.082 0.176 7.05 0.1 10.49
12/11/2021 8:15:00 PM 9.49 49.082 0.176 7.05 0.19 10.46
12/11/2021 8:30:00 PM 9.54 49.172 0.173 7.04 0.76 10.45
12/11/2021 8:45:00 PM 9.54 49.172 0.159 7.04 0.53 10.42
12/11/2021 9:00:00 PM 9.52 49.136 0.164 7.04 1.31 10.41
12/11/2021 9:15:00 PM 9.51 49.118 0.175 7.03 0.53 10.39
12/11/2021 9:30:00 PM 9.48 49.064 0.175 7.03 0.49 10.36
12/11/2021 9:45:00 PM 9.44 48.992 0.175 7.02 0.78 10.35
12/11/2021 10:00:00 PM 9.37 48.866 0.175 7.02 0.17 10.37
12/11/2021 10:15:00 PM 9.33 48.794 0.175 7.02 0.1 10.38
12/11/2021 10:30:00 PM 9.28 48.704 0.167 7.02 0.45 10.36
12/11/2021 10:45:00 PM 9.22 48.596 0.161 7.02 0.12 10.37
12/11/2021 11:00:00 PM 9.14 48.452 0.171 7.01 0.23 10.38
12/11/2021 11:15:00 PM 9.08 48.344 0.166 7.01 0.3 10.41
12/11/2021 11:30:00 PM 9.02 48.236 0.166 7.01 0.53 10.41
12/11/2021 11:45:00 PM 8.93 48.074 0.164 7 0.88 10.43
12/12/2021 12:00:00 AM 8.88 47.984 0.164 7.01 1.58 10.44
12/12/2021 12:15:00 AM 8.81 47.858 0.164 7 0.28 10.45
12/12/2021 12:30:00 AM 8.76 47.768 0.162 7 0.15 10.47
12/12/2021 12:45:00 AM 8.67 47.606 0.175 7 0.12 10.47
12/12/2021 1:00:00 AM 8.6 47.48 0.163 7 0.33 10.52
12/12/2021 1:15:00 AM 8.54 47.372 0.161 7 1.15 10.51
12/12/2021 1:30:00 AM 8.49 47.282 0.161 6.99 1.02 10.54
12/12/2021 1:45:00 AM 8.42 47.156 0.162 6.99 0.41 10.55
12/12/2021 2:00:00 AM 8.36 47.048 0.163 6.99 0.42 10.58
12/12/2021 2:15:00 AM 8.31 46.958 0.162 6.99 -0.02 10.6
12/12/2021 2:30:00 AM 8.26 46.868 0.163 6.99 -0.01 10.63
12/12/2021 2:45:00 AM 8.2 46.76 0.163 6.99 2.66 10.64
12/12/2021 3:00:00 AM 8.13 46.634 0.163 6.99 0.75 10.68
12/12/2021 3:15:00 AM 8.08 46.544 0.163 6.99 0.2 10.69
12/12/2021 3:30:00 AM 8.02 46.436 0.164 6.99 0.34 10.71
12/12/2021 3:45:00 AM 7.99 46.382 0.165 6.99 0.59 10.72
12/12/2021 4:00:00 AM 7.92 46.256 0.167 6.98 0.53 10.75
12/12/2021 4:15:00 AM 7.85 46.13 0.167 6.98 0.13 10.77
12/12/2021 4:30:00 AM 7.79 46.022 0.175 6.98 0.24 10.79
12/12/2021 4:45:00 AM 7.72 45.896 0.171 6.98 0.25 10.82
12/12/2021 5:00:00 AM 7.68 45.824 0.163 6.98 0.33 10.84
12/12/2021 5:15:00 AM 7.63 45.734 0.163 6.98 0.78 10.84
12/12/2021 5:30:00 AM 7.56 45.608 0.163 6.97 0.59 10.87
12/12/2021 5:45:00 AM 7.5 45.5 0.163 6.98 0.87 10.88
12/12/2021 6:00:00 AM 7.44 45.392 0.163 6.98 0.26 10.91
12/12/2021 6:15:00 AM 7.37 45.266 0.163 6.97 0.43 10.95
12/12/2021 6:30:00 AM 7.31 45.158 0.164 6.98 0.07 10.95
12/12/2021 6:45:00 AM 7.24 45.032 0.164 6.98 0.39 11
12/12/2021 7:00:00 AM 7.19 44.942 0.169 6.98 0.35 11.02
12/12/2021 7:15:00 AM 7.14 44.852 0.171 6.97 -0.02 11.04
12/12/2021 7:30:00 AM 7.06 44.708 0.174 6.98 0.19 11.07
12/12/2021 7:45:00 AM 7.02 44.636 0.175 6.97 0.2 11.09
12/12/2021 8:00:00 AM 6.96 44.528 0.175 6.97 0.09 11.15
12/12/2021 8:15:00 AM 6.9 44.42 0.175 6.97 0.23 11.19
12/12/2021 8:30:00 AM 6.85 44.33 0.174 6.98 0.02 11.27
12/12/2021 8:45:00 AM 6.81 44.258 0.175 6.98 0.03 11.35
12/12/2021 9:00:00 AM 6.76 44.168 0.177 6.98 0.04 11.42
12/12/2021 9:15:00 AM 6.72 44.096 0.178 6.99 0.05 11.45
12/12/2021 9:30:00 AM 6.67 44.006 0.18 6.99 0.5 11.55
12/12/2021 9:45:00 AM 6.65 43.97 0.18 7 0.02 11.62
12/12/2021 10:00:00 AM 6.62 43.916 0.18 7 -0.01 11.69
12/12/2021 10:15:00 AM 6.61 43.898 0.18 7.01 0.1 11.77
12/12/2021 10:30:00 AM 6.61 43.898 0.18 7.01 0.25 11.84
12/12/2021 10:45:00 AM 6.63 43.934 0.18 7.02 0.01 11.91
12/12/2021 11:00:00 AM 6.7 44.06 0.179 7.02 0.22 12
12/12/2021 11:15:00 AM 6.77 44.186 0.179 7.04 0.11 12.05
12/12/2021 11:30:00 AM 6.83 44.294 0.179 7.04 -0.04 12.12
12/12/2021 11:45:00 AM 6.92 44.456 0.179 7.05 -0.06 12.15
12/12/2021 12:00:00 PM 6.98 44.564 0.179 7.06 0.11 12.17
12/12/2021 12:15:00 PM 7.04 44.672 0.179 7.07 0.04 12.21
12/12/2021 12:30:00 PM 7.13 44.834 0.179 7.08 0.34 12.21
12/12/2021 12:45:00 PM 7.25 45.05 0.179 7.09 0.13 12.25
12/12/2021 1:00:00 PM 7.37 45.266 0.179 7.09 0.39 12.27
12/12/2021 1:15:00 PM 7.47 45.446 0.179 7.1 0.13 12.28
12/12/2021 1:30:00 PM 7.49 45.482 0.179 7.11 0 12.29
12/12/2021 1:45:00 PM 7.54 45.572 0.179 7.12 0.18 12.3
12/12/2021 2:00:00 PM 7.52 45.536 0.179 7.12 0.17 12.28
12/12/2021 2:15:00 PM 7.48 45.464 0.179 7.13 0.26 12.27
12/12/2021 2:30:00 PM 7.46 45.428 0.178 7.13 -0.03 12.24
12/12/2021 2:45:00 PM 7.43 45.374 0.179 7.13 0.08 12.22
12/12/2021 3:00:00 PM 7.39 45.302 0.179 7.13 0.1 12.18
12/12/2021 3:15:00 PM 7.35 45.23 0.179 7.14 -0.06 12.15
12/12/2021 3:30:00 PM 7.29 45.122 0.179 7.13 -0.01 12.12
12/12/2021 3:45:00 PM 7.22 44.996 0.179 7.13 0.18 12.1
12/12/2021 4:00:00 PM 7.16 44.888 0.179 7.13 0.08 12.07
12/12/2021 4:15:00 PM 7.08 44.744 0.179 7.13 0.15 12.02
12/12/2021 4:30:00 PM 7 44.6 0.179 7.13 0.1 12
12/12/2021 4:45:00 PM 6.92 44.456 0.179 7.12 0.16 11.96
12/12/2021 5:00:00 PM 6.83 44.294 0.179 7.12 0.14 11.93
12/12/2021 5:15:00 PM 6.75 44.15 0.177 7.11 -0.03 11.89
12/12/2021 5:30:00 PM 6.66 43.988 0.177 7.1 0 11.85
12/12/2021 5:45:00 PM 6.57 43.826 0.161 7.09 0.08 11.82
12/12/2021 6:00:00 PM 6.48 43.664 0.161 7.09 -0.02 11.8
12/12/2021 6:15:00 PM 6.4 43.52 0.162 7.08 0.11 11.78
12/12/2021 6:30:00 PM 6.3 43.34 0.162 7.07 0.13 11.79
12/12/2021 6:45:00 PM 6.2 43.16 0.176 7.06 0.22 11.79
12/12/2021 7:00:00 PM 6.1 42.98 0.176 7.06 0.11 11.78
12/12/2021 7:15:00 PM 6 42.8 0.177 7.05 0 11.81
12/12/2021 7:30:00 PM 5.91 42.638 0.176 7.04 0.05 11.79
12/12/2021 7:45:00 PM 5.82 42.476 0.177 7.04 0.06 11.81
12/12/2021 8:00:00 PM 5.74 42.332 0.177 7.03 -0.02 11.82
12/12/2021 8:15:00 PM 5.65 42.17 0.171 7.03 0.01 11.84
12/12/2021 8:30:00 PM 5.56 42.008 0.167 7.02 0.09 11.86
12/12/2021 8:45:00 PM 5.49 41.882 0.177 7.02 -0.15 11.87
12/12/2021 9:00:00 PM 5.4 41.72 0.171 7.01 0.21 11.89
12/12/2021 9:15:00 PM 5.32 41.576 0.177 7.01 0.06 11.9
12/12/2021 9:30:00 PM 5.26 41.468 0.177 7 -0.13 11.92
12/12/2021 9:45:00 PM 5.17 41.306 0.177 7 0.29 11.95
12/12/2021 10:00:00 PM 5.1 41.18 0.177 7 0.09 11.96
12/12/2021 10:15:00 PM 5.04 41.072 0.177 6.99 0.07 11.97
12/12/2021 10:30:00 PM 4.96 40.928 0.177 6.99 -0.15 12
12/12/2021 10:45:00 PM 4.9 40.82 0.177 6.98 0.16 12.02
12/12/2021 11:00:00 PM 4.84 40.712 0.177 6.98 -0.2 12
12/12/2021 11:15:00 PM 4.76 40.568 0.177 6.98 0.2 12.07
12/12/2021 11:30:00 PM 4.7 40.46 0.177 6.97 -0.03 12.08
12/12/2021 11:45:00 PM 4.63 40.334 0.177 6.97 0 12.1
12/13/2021 12:00:00 AM 4.57 40.226 0.177 6.97 -0.26 12.12
12/13/2021 12:15:00 AM 4.51 40.118 0.177 6.97 -0.15 12.14
12/13/2021 12:30:00 AM 4.46 40.028 0.177 6.97 -0.1 12.15
12/13/2021 12:45:00 AM 4.39 39.902 0.177 6.97 -0.11 12.19
12/13/2021 1:00:00 AM 4.33 39.794 0.177 6.96 0.22 12.21
12/13/2021 1:15:00 AM 4.27 39.686 0.178 6.96 0.38 12.23
12/13/2021 1:30:00 AM 4.19 39.542 0.177 6.96 0 12.26
12/13/2021 1:45:00 AM 4.15 39.47 0.177 6.96 -0.24 12.28
12/13/2021 2:00:00 AM 4.11 39.398 0.177 6.96 0.13 12.3
12/13/2021 2:15:00 AM 4.03 39.254 0.177 6.95 0.06 12.3
12/13/2021 2:30:00 AM 3.98 39.164 0.177 6.95 -0.07 12.33
12/13/2021 2:45:00 AM 3.93 39.074 0.178 6.95 -0.12 12.36
12/13/2021 3:00:00 AM 3.88 38.984 0.177 6.95 -0.07 12.38
12/13/2021 3:15:00 AM 3.82 38.876 0.178 6.95 -0.26 12.39
12/13/2021 3:30:00 AM 3.76 38.768 0.178 6.94 -0.09 12.44
12/13/2021 3:45:00 AM 3.73 38.714 0.178 6.94 -0.23 12.44
12/13/2021 4:00:00 AM 3.68 38.624 0.178 6.94 -0.28 12.45
12/13/2021 4:15:00 AM 3.66 38.588 0.178 6.93 -0.08 12.49
12/13/2021 4:30:00 AM 3.59 38.462 0.178 6.93 -0.18 12.51
12/13/2021 4:45:00 AM 3.53 38.354 0.178 6.94 -0.13 12.54
12/13/2021 5:00:00 AM 3.5 38.3 0.178 6.93 0 12.55
12/13/2021 5:15:00 AM 3.44 38.192 0.178 6.94 0.16 12.57
12/13/2021 5:30:00 AM 3.41 38.138 0.178 6.94 -0.26 12.59
12/13/2021 5:45:00 AM 3.37 38.066 0.178 6.93 -0.3 12.61
12/13/2021 6:00:00 AM 3.31 37.958 0.178 6.94 -0.04 12.63
12/13/2021 6:15:00 AM 3.28 37.904 0.178 6.93 -0.2 12.64
12/13/2021 6:30:00 AM 3.24 37.832 0.178 6.93 0.01 12.67
12/13/2021 6:45:00 AM 3.19 37.742 0.178 6.93 -0.16 12.71
12/13/2021 7:00:00 AM 3.14 37.652 0.178 6.93 -0.25 12.71
12/13/2021 7:15:00 AM 3.11 37.598 0.178 6.93 0.08 12.73
12/13/2021 7:30:00 AM 3.05 37.49 0.179 6.93 -0.28 12.74
12/13/2021 7:45:00 AM 3.01 37.418 0.179 6.93 -0.28 12.77
12/13/2021 8:00:00 AM 2.97 37.346 0.179 6.93 -0.2 12.84
12/13/2021 8:15:00 AM 2.93 37.274 0.179 6.93 -0.29 12.89
12/13/2021 8:30:00 AM 2.9 37.22 0.179 6.93 -0.28 12.93
12/13/2021 8:45:00 AM 2.87 37.166 0.179 6.93 -0.42 13
12/13/2021 9:00:00 AM 2.84 37.112 0.179 6.94 -0.28 13.06
12/13/2021 9:15:00 AM 2.82 37.076 0.179 6.94 -0.25 13.12
12/13/2021 9:30:00 AM 2.82 37.076 0.179 6.95 -0.1 13.17
12/13/2021 9:45:00 AM 2.82 37.076 0.179 6.94 -0.17 13.23
12/13/2021 10:00:00 AM 2.85 37.13 0.179 6.95 -0.29 13.24
12/13/2021 10:15:00 AM 2.88 37.184 0.179 6.95 -0.33 13.32
12/13/2021 10:30:00 AM 2.93 37.274 0.179 6.95 -0.25 13.34
12/13/2021 10:45:00 AM 3.02 37.436 0.178 6.96 -0.16 13.41
12/13/2021 11:00:00 AM 3.16 37.688 0.178 6.96 -0.31 13.44
12/13/2021 11:15:00 AM 3.29 37.922 0.178 6.97 -0.15 13.47
12/13/2021 11:30:00 AM 3.42 38.156 0.178 6.97 0.01 13.51
12/13/2021 11:45:00 AM 3.57 38.426 0.178 6.98 -0.2 13.5
12/13/2021 12:00:00 PM 3.72 38.696 0.178 6.99 -0.07 13.5
12/13/2021 12:15:00 PM 3.84 38.912 0.178 7 -0.04 13.5
12/13/2021 12:30:00 PM 4.01 39.218 0.178 7 -0.1 13.48
12/13/2021 12:45:00 PM 4.19 39.542 0.177 7.01 -0.04 13.48
12/13/2021 1:00:00 PM 4.36 39.848 0.177 7.02 -0.06 13.47
12/13/2021 1:15:00 PM 4.54 40.172 0.177 7.03 0.07 13.43
12/13/2021 1:30:00 PM 4.7 40.46 0.177 7.03 0.09 13.41
12/13/2021 1:45:00 PM 4.76 40.568 0.177 7.04 -0.11 13.41
12/13/2021 2:00:00 PM 4.83 40.694 0.177 7.05 0.07 13.35
12/13/2021 2:15:00 PM 4.8 40.64 0.177 7.05 -0.05 13.34
12/13/2021 2:30:00 PM 4.83 40.694 0.177 7.06 -0.13 13.28
12/13/2021 2:45:00 PM 4.86 40.748 0.177 7.06 -0.13 13.25
12/13/2021 3:00:00 PM 4.86 40.748 0.177 7.06 -0.24 13.19
12/13/2021 3:15:00 PM 4.86 40.748 0.177 7.06 0.01 13.12
12/13/2021 3:30:00 PM 4.86 40.748 0.177 7.07 -0.22 13.07
12/13/2021 3:45:00 PM 4.84 40.712 0.177 7.07 -0.31 13.03
12/13/2021 4:00:00 PM 4.81 40.658 0.177 7.07 -0.17 12.98
12/13/2021 4:15:00 PM 4.77 40.586 0.177 7.07 -0.08 12.95
12/13/2021 4:30:00 PM 4.72 40.496 0.177 7.07 -0.26 12.91
12/13/2021 4:45:00 PM 4.68 40.424 0.177 7.06 0 12.87
12/13/2021 5:00:00 PM 4.62 40.316 0.177 7.06 -0.35 12.83
12/13/2021 5:15:00 PM 4.58 40.244 0.177 7.06 0.04 12.78
12/13/2021 5:30:00 PM 4.51 40.118 0.177 7.05 0.26 12.75
12/13/2021 5:45:00 PM 4.45 40.01 0.177 7.05 -0.21 12.71
12/13/2021 6:00:00 PM 4.38 39.884 0.177 7.04 -0.04 12.71
12/13/2021 6:15:00 PM 4.31 39.758 0.177 7.04 0.33 12.68
12/13/2021 6:30:00 PM 4.23 39.614 0.177 7.03 0.04 12.66
12/13/2021 6:45:00 PM 4.16 39.488 0.177 7.02 -0.21 12.68
12/13/2021 7:00:00 PM 4.09 39.362 0.178 7.02 -0.16 12.66
12/13/2021 7:15:00 PM 4.02 39.236 0.178 7.01 -0.12 12.67
12/13/2021 7:30:00 PM 3.96 39.128 0.178 7.01 -0.27 12.67
12/13/2021 7:45:00 PM 3.88 38.984 0.178 7 -0.16 12.68
12/13/2021 8:00:00 PM 3.82 38.876 0.178 6.99 -0.18 12.68
12/13/2021 8:15:00 PM 3.76 38.768 0.178 6.99 -0.08 12.69
12/13/2021 8:30:00 PM 3.69 38.642 0.178 6.99 -0.24 12.7
12/13/2021 8:45:00 PM 3.64 38.552 0.178 6.98 -0.14 12.71
12/13/2021 9:00:00 PM 3.59 38.462 0.178 6.98 0.13 12.7
12/13/2021 9:15:00 PM 3.54 38.372 0.178 6.98 -0.2 12.72
12/13/2021 9:30:00 PM 3.49 38.282 0.178 6.97 -0.29 12.73
12/13/2021 9:45:00 PM 3.44 38.192 0.178 6.97 0.01 12.73
12/13/2021 10:00:00 PM 3.42 38.156 0.178 6.96 -0.13 12.74
12/13/2021 10:15:00 PM 3.34 38.012 0.178 6.96 -0.34 12.76
12/13/2021 10:30:00 PM 3.31 37.958 0.178 6.96 -0.35 12.76
12/13/2021 10:45:00 PM 3.27 37.886 0.178 6.96 0.08 12.78
12/13/2021 11:00:00 PM 3.23 37.814 0.178 6.95 -0.09 12.77
12/13/2021 11:15:00 PM 3.19 37.742 0.178 6.95 -0.22 12.79
12/13/2021 11:30:00 PM 3.15 37.67 0.178 6.95 -0.26 12.79
12/13/2021 11:45:00 PM 3.11 37.598 0.178 6.95 -0.05 12.81
12/14/2021 12:00:00 AM 3.08 37.544 0.178 6.95 -0.14 12.81
12/14/2021 12:15:00 AM 3.05 37.49 0.178 6.95 -0.29 12.83
12/14/2021 12:30:00 AM 3.01 37.418 0.178 6.94 -0.1 12.85
12/14/2021 12:45:00 AM 2.98 37.364 0.178 6.94 -0.17 12.85
12/14/2021 1:00:00 AM 2.94 37.292 0.178 6.94 -0.27 12.86
12/14/2021 1:15:00 AM 2.92 37.256 0.178 6.94 0.09 12.87
12/14/2021 1:30:00 AM 2.89 37.202 0.178 6.93 -0.2 12.89
12/14/2021 1:45:00 AM 2.85 37.13 0.178 6.93 -0.13 12.91
12/14/2021 2:00:00 AM 2.81 37.058 0.178 6.93 -0.24 12.93
12/14/2021 2:15:00 AM 2.77 36.986 0.178 6.93 -0.27 12.94
12/14/2021 2:30:00 AM 2.75 36.95 0.178 6.93 -0.41 12.95
12/14/2021 2:45:00 AM 2.72 36.896 0.178 6.93 -0.24 12.95
12/14/2021 3:00:00 AM 2.68 36.824 0.178 6.93 -0.56 12.98
12/14/2021 3:15:00 AM 2.66 36.788 0.178 6.93 -0.2 13
12/14/2021 3:30:00 AM 2.64 36.752 0.178 6.93 -0.18 13
12/14/2021 3:45:00 AM 2.62 36.716 0.178 6.92 -0.12 13
12/14/2021 4:00:00 AM 2.58 36.644 0.178 6.92 -0.31 13.02
12/14/2021 4:15:00 AM 2.56 36.608 0.178 6.92 -0.39 13.03
12/14/2021 4:30:00 AM 2.53 36.554 0.178 6.92 -0.28 13.05
12/14/2021 4:45:00 AM 2.51 36.518 0.178 6.92 -0.24 13.06
12/14/2021 5:00:00 AM 2.48 36.464 0.178 6.92 -0.38 13.07
12/14/2021 5:15:00 AM 2.46 36.428 0.178 6.92 -0.48 13.07
12/14/2021 5:30:00 AM 2.43 36.374 0.178 6.91 0.01 13.1
12/14/2021 5:45:00 AM 2.42 36.356 0.178 6.92 -0.49 13.1
12/14/2021 6:00:00 AM 2.4 36.32 0.178 6.91 0.95 13.11
12/14/2021 6:15:00 AM 2.38 36.284 0.178 6.92 0.01 13.13
12/14/2021 6:30:00 AM 2.36 36.248 0.178 6.91 -0.31 13.14
12/14/2021 6:45:00 AM 2.33 36.194 0.178 6.91 0 13.15
12/14/2021 7:00:00 AM 2.3 36.14 0.178 6.91 0.06 13.14
12/14/2021 7:15:00 AM 2.28 36.104 0.179 6.91 -0.36 13.19
12/14/2021 7:30:00 AM 2.26 36.068 0.179 6.91 1.72 13.17
12/14/2021 7:45:00 AM 2.24 36.032 0.179 6.91 2.65 13.19
12/14/2021 8:00:00 AM 2.22 35.996 0.179 6.91 0.31 13.22
12/14/2021 8:15:00 AM 2.19 35.942 0.179 6.91 0.25 13.27
12/14/2021 8:30:00 AM 2.18 35.924 0.179 6.91 -0.09 13.34
12/14/2021 8:45:00 AM 2.16 35.888 0.179 6.91 -0.4 13.38
12/14/2021 9:00:00 AM 2.17 35.906 0.179 6.92 -0.25 13.44
12/14/2021 9:15:00 AM 2.16 35.888 0.179 6.91 -0.29 13.48
12/14/2021 9:30:00 AM 2.17 35.906 0.178 6.92 -0.32 13.54
12/14/2021 9:45:00 AM 2.2 35.96 0.178 6.92 -0.44 13.58
12/14/2021 10:00:00 AM 2.23 36.014 0.178 6.93 -0.44 13.62
12/14/2021 10:15:00 AM 2.29 36.122 0.178 6.93 -0.08 13.66
12/14/2021 10:30:00 AM 2.36 36.248 0.178 6.93 -0.39 13.66
12/14/2021 10:45:00 AM 2.48 36.464 0.178 6.94 -0.32 13.72
12/14/2021 11:00:00 AM 2.67 36.806 0.178 6.94 -0.47 13.75
12/14/2021 11:15:00 AM 2.81 37.058 0.178 6.94 -0.4 13.76
12/14/2021 11:30:00 AM 2.94 37.292 0.178 6.95 -0.27 13.79
12/14/2021 11:45:00 AM 3.12 37.616 0.177 6.96 -0.03 13.77
12/14/2021 12:00:00 PM 3.26 37.868 0.177 6.97 -0.27 13.77
12/14/2021 12:15:00 PM 3.38 38.084 0.177 6.97 -0.11 13.78
12/14/2021 12:30:00 PM 3.57 38.426 0.177 6.98 -0.14 13.71
12/14/2021 12:45:00 PM 3.74 38.732 0.177 6.99 -0.09 13.73
12/14/2021 1:00:00 PM 3.94 39.092 0.177 6.99 -0.1 13.71
12/14/2021 1:15:00 PM 4.11 39.398 0.177 7.01 -0.33 13.64
12/14/2021 1:30:00 PM 4.27 39.686 0.176 7.01 -0.19 13.63
12/14/2021 1:45:00 PM 4.37 39.866 0.176 7.02 0.03 13.61
12/14/2021 2:00:00 PM 4.41 39.938 0.176 7.03 -0.11 13.6
12/14/2021 2:15:00 PM 4.42 39.956 0.176 7.04 -0.38 13.55
12/14/2021 2:30:00 PM 4.46 40.028 0.176 7.04 -0.35 13.5
12/14/2021 2:45:00 PM 4.5 40.1 0.176 7.04 -0.33 13.46
12/14/2021 3:00:00 PM 4.52 40.136 0.176 7.04 0.06 13.41
12/14/2021 3:15:00 PM 4.53 40.154 0.176 7.04 -0.15 13.34
12/14/2021 3:30:00 PM 4.54 40.172 0.176 7.05 -0.02 13.3
12/14/2021 3:45:00 PM 4.52 40.136 0.176 7.05 0.19 13.24
12/14/2021 4:00:00 PM 4.5 40.1 0.176 7.05 -0.19 13.21
12/14/2021 4:15:00 PM 4.46 40.028 0.176 7.05 -0.36 13.18
12/14/2021 4:30:00 PM 4.43 39.974 0.176 7.05 -0.08 13.13
12/14/2021 4:45:00 PM 4.38 39.884 0.177 7.05 -0.26 13.1
12/14/2021 5:00:00 PM 4.34 39.812 0.177 7.05 -0.28 13.03
12/14/2021 5:15:00 PM 4.29 39.722 0.177 7.05 -0.24 12.97
12/14/2021 5:30:00 PM 4.25 39.65 0.177 7.04 0 12.95
12/14/2021 5:45:00 PM 4.19 39.542 0.177 7.04 -0.12 12.92
12/14/2021 6:00:00 PM 4.13 39.434 0.177 7.03 -0.26 12.88
12/14/2021 6:15:00 PM 4.07 39.326 0.177 7.03 -0.22 12.88
12/14/2021 6:30:00 PM 3.99 39.182 0.177 7.02 -0.08 12.87
12/14/2021 6:45:00 PM 3.93 39.074 0.177 7.01 -0.29 12.87
12/14/2021 7:00:00 PM 3.87 38.966 0.177 7 -0.21 12.86
12/14/2021 7:15:00 PM 3.8 38.84 0.177 7 -0.22 12.87
12/14/2021 7:30:00 PM 3.73 38.714 0.177 7 -0.13 12.86
12/14/2021 7:45:00 PM 3.68 38.624 0.177 6.99 -0.25 12.86
12/14/2021 8:00:00 PM 3.62 38.516 0.177 6.98 -0.35 12.87
12/14/2021 8:15:00 PM 3.56 38.408 0.178 6.98 -0.29 12.88
12/14/2021 8:30:00 PM 3.5 38.3 0.177 6.97 -0.38 12.87
12/14/2021 8:45:00 PM 3.44 38.192 0.178 6.97 -0.17 12.89
12/14/2021 9:00:00 PM 3.39 38.102 0.178 6.96 -0.32 12.89
12/14/2021 9:15:00 PM 3.35 38.03 0.178 6.96 0.22 12.92
12/14/2021 9:30:00 PM 3.31 37.958 0.178 6.96 -0.27 12.91
12/14/2021 9:45:00 PM 3.26 37.868 0.178 6.96 -0.31 12.93
12/14/2021 10:00:00 PM 3.21 37.778 0.178 6.96 -0.07 12.93
12/14/2021 10:15:00 PM 3.16 37.688 0.178 6.95 -0.33 12.97
12/14/2021 10:30:00 PM 3.13 37.634 0.178 6.95 -0.11 12.94
12/14/2021 10:45:00 PM 3.09 37.562 0.178 6.95 -0.09 12.96
12/14/2021 11:00:00 PM 3.05 37.49 0.178 6.94 -0.37 12.97
12/14/2021 11:15:00 PM 3.01 37.418 0.178 6.94 -0.22 12.98
12/14/2021 11:30:00 PM 2.97 37.346 0.178 6.94 -0.32 13.01
12/14/2021 11:45:00 PM 2.93 37.274 0.178 6.94 -0.26 13.02
12/15/2021 12:00:00 AM 2.9 37.22 0.178 6.93 0.08 12.99
12/15/2021 12:15:00 AM 2.85 37.13 0.178 6.93 -0.14 13.03
12/15/2021 12:30:00 AM 2.81 37.058 0.178 6.93 -0.23 13.05
12/15/2021 12:45:00 AM 2.79 37.022 0.178 6.93 -0.22 13.06
12/15/2021 1:00:00 AM 2.75 36.95 0.178 6.92 -0.37 13.06
12/15/2021 1:15:00 AM 2.72 36.896 0.178 6.92 -0.29 13.08
12/15/2021 1:30:00 AM 2.68 36.824 0.178 6.92 -0.26 13.1
12/15/2021 1:45:00 AM 2.65 36.77 0.178 6.92 -0.05 13.11
12/15/2021 2:00:00 AM 2.61 36.698 0.178 6.92 -0.25 13.11
12/15/2021 2:15:00 AM 2.58 36.644 0.178 6.92 -0.2 13.14
12/15/2021 2:30:00 AM 2.55 36.59 0.178 6.91 -0.29 13.13
12/15/2021 2:45:00 AM 2.51 36.518 0.178 6.92 -0.34 13.15
12/15/2021 3:00:00 AM 2.47 36.446 0.178 6.92 -0.33 13.17
12/15/2021 3:15:00 AM 2.44 36.392 0.178 6.91 -0.36 13.19
12/15/2021 3:30:00 AM 2.41 36.338 0.178 6.91 -0.24 13.19
12/15/2021 3:45:00 AM 2.4 36.32 0.178 6.91 1.12 13.2
12/15/2021 4:00:00 AM 2.36 36.248 0.178 6.91 0.14 13.22
12/15/2021 4:15:00 AM 2.34 36.212 0.178 6.91 0.79 13.19
12/15/2021 4:30:00 AM 2.32 36.176 0.178 6.91 -0.06 13.23
12/15/2021 4:45:00 AM 2.28 36.104 0.178 6.91 -0.23 13.24
12/15/2021 5:00:00 AM 2.27 36.086 0.178 6.91 -0.32 13.25
12/15/2021 5:15:00 AM 2.24 36.032 0.178 6.9 -0.25 13.26
12/15/2021 5:30:00 AM 2.23 36.014 0.178 6.9 0.03 13.28
12/15/2021 5:45:00 AM 2.24 36.032 0.178 6.9 -0.33 13.28
12/15/2021 6:00:00 AM 2.23 36.014 0.178 6.9 -0.26 13.28
12/15/2021 6:15:00 AM 2.23 36.014 0.178 6.9 0 13.29
12/15/2021 6:30:00 AM 2.23 36.014 0.178 6.9 -0.38 13.29
12/15/2021 6:45:00 AM 2.24 36.032 0.178 6.9 -0.12 13.31
12/15/2021 7:00:00 AM 2.24 36.032 0.178 6.9 -0.5 13.31
12/15/2021 7:15:00 AM 2.22 35.996 0.178 6.9 -0.11 13.32
12/15/2021 7:30:00 AM 2.21 35.978 0.179 6.9 -0.34 13.33
12/15/2021 7:45:00 AM 2.2 35.96 0.179 6.9 -0.23 13.36
12/15/2021 8:00:00 AM 2.23 36.014 0.179 6.9 -0.32 13.35
12/15/2021 8:15:00 AM 2.24 36.032 0.179 6.9 -0.42 13.4
12/15/2021 8:30:00 AM 2.27 36.086 0.179 6.9 -0.23 13.44
12/15/2021 8:45:00 AM 2.32 36.176 0.179 6.9 -0.24 13.52
12/15/2021 9:00:00 AM 2.37 36.266 0.178 6.91 0.04 13.59
12/15/2021 9:15:00 AM 2.41 36.338 0.178 6.91 -0.33 13.67
12/15/2021 9:30:00 AM 2.45 36.41 0.178 6.91 -0.23 13.7
12/15/2021 9:45:00 AM 2.48 36.464 0.178 6.92 -0.4 13.72
12/15/2021 10:00:00 AM 2.53 36.554 0.178 6.91 -0.29 13.73
12/15/2021 10:15:00 AM 2.59 36.662 0.178 6.93 -0.4 13.74
12/15/2021 10:30:00 AM 2.72 36.896 0.178 6.93 -0.39 13.77
12/15/2021 10:45:00 AM 2.87 37.166 0.178 6.93 -0.39 13.78
12/15/2021 11:00:00 AM 3 37.4 0.178 6.93 -0.24 13.83
12/15/2021 11:15:00 AM 3.19 37.742 0.177 6.95 -0.36 13.83
12/15/2021 11:30:00 AM 3.32 37.976 0.177 6.95 -0.3 13.81
12/15/2021 11:45:00 AM 3.54 38.372 0.177 6.96 -0.2 13.81
12/15/2021 12:00:00 PM 3.67 38.606 0.177 6.97 -0.25 13.81
12/15/2021 12:15:00 PM 3.84 38.912 0.177 6.98 -0.01 13.77
12/15/2021 12:30:00 PM 4.01 39.218 0.177 6.98 -0.28 13.75
12/15/2021 12:45:00 PM 4.19 39.542 0.176 6.99 -0.07 13.72
12/15/2021 1:00:00 PM 4.33 39.794 0.176 7 -0.21 13.7
12/15/2021 1:15:00 PM 4.49 40.082 0.176 7.01 -0.14 13.65
12/15/2021 1:30:00 PM 4.67 40.406 0.176 7.01 -0.2 13.6
12/15/2021 1:45:00 PM 4.8 40.64 0.176 7.02 -0.14 13.57
12/15/2021 2:00:00 PM 4.88 40.784 0.176 7.02 -0.3 13.53
12/15/2021 2:15:00 PM 4.93 40.874 0.176 7.03 -0.04 13.48
12/15/2021 2:30:00 PM 5.03 41.054 0.176 7.04 -0.35 13.42
12/15/2021 2:45:00 PM 5.1 41.18 0.176 7.04 -0.17 13.38
12/15/2021 3:00:00 PM 5.17 41.306 0.176 7.04 -0.18 13.33
12/15/2021 3:15:00 PM 5.22 41.396 0.176 7.05 -0.13 13.29
12/15/2021 3:30:00 PM 5.25 41.45 0.176 7.06 0 13.25
12/15/2021 3:45:00 PM 5.28 41.504 0.176 7.06 -0.1 13.17
12/15/2021 4:00:00 PM 5.3 41.54 0.176 7.06 -0.18 13.11
12/15/2021 4:15:00 PM 5.31 41.558 0.176 7.06 -0.12 13.02
12/15/2021 4:30:00 PM 5.32 41.576 0.176 7.06 -0.04 12.93
12/15/2021 4:45:00 PM 5.32 41.576 0.176 7.06 -0.21 12.82
12/15/2021 5:00:00 PM 5.32 41.576 0.176 7.05 -0.17 12.75
12/15/2021 5:15:00 PM 5.32 41.576 0.176 7.05 -0.13 12.68
12/15/2021 5:30:00 PM 5.33 41.594 0.176 7.05 -0.25 12.61
12/15/2021 5:45:00 PM 5.33 41.594 0.176 7.04 -0.09 12.57
12/15/2021 6:00:00 PM 5.33 41.594 0.176 7.03 -0.26 12.53
12/15/2021 6:15:00 PM 5.33 41.594 0.176 7.03 -0.08 12.49
12/15/2021 6:30:00 PM 5.33 41.594 0.176 7.02 -0.18 12.44
12/15/2021 6:45:00 PM 5.32 41.576 0.177 7.01 -0.28 12.41
12/15/2021 7:00:00 PM 5.33 41.594 0.176 7.01 -0.16 12.39
12/15/2021 7:15:00 PM 5.33 41.594 0.176 7.01 0.1 12.36
12/15/2021 7:30:00 PM 5.33 41.594 0.176 7 -0.01 12.32
12/15/2021 7:45:00 PM 5.34 41.612 0.176 7 -0.14 12.31
12/15/2021 8:00:00 PM 5.34 41.612 0.176 6.99 -0.23 12.27
12/15/2021 8:15:00 PM 5.34 41.612 0.177 6.99 -0.1 12.27
12/15/2021 8:30:00 PM 5.35 41.63 0.176 6.99 0.04 12.24
12/15/2021 8:45:00 PM 5.36 41.648 0.176 6.98 0 12.22
12/15/2021 9:00:00 PM 5.36 41.648 0.176 6.98 -0.04 12.2
12/15/2021 9:15:00 PM 5.37 41.666 0.176 6.98 -0.15 12.17
12/15/2021 9:30:00 PM 5.37 41.666 0.176 6.97 -0.11 12.17
12/15/2021 9:45:00 PM 5.36 41.648 0.176 6.97 -0.12 12.14
12/15/2021 10:00:00 PM 5.36 41.648 0.176 6.97 -0.17 12.14
12/15/2021 10:15:00 PM 5.36 41.648 0.176 6.97 -0.19 12.1
12/15/2021 10:30:00 PM 5.37 41.666 0.176 6.96 -0.17 12.09
12/15/2021 10:45:00 PM 5.37 41.666 0.176 6.96 -0.01 12.07
12/15/2021 11:00:00 PM 5.37 41.666 0.176 6.96 0.01 12.08
12/15/2021 11:15:00 PM 5.37 41.666 0.176 6.96 -0.14 12.05
12/15/2021 11:30:00 PM 5.36 41.648 0.176 6.96 -0.19 12.05
12/15/2021 11:45:00 PM 5.36 41.648 0.176 6.95 -0.22 12.04
12/16/2021 12:00:00 AM 5.35 41.63 0.176 6.95 0.02 12.03
12/16/2021 12:15:00 AM 5.34 41.612 0.176 6.95 0.29 12.03
12/16/2021 12:30:00 AM 5.32 41.576 0.176 6.95 -0.09 12
12/16/2021 12:45:00 AM 5.3 41.54 0.176 6.94 -0.24 12.02
12/16/2021 1:00:00 AM 5.29 41.522 0.176 6.94 0.07 12
12/16/2021 1:15:00 AM 5.28 41.504 0.176 6.94 -0.14 12
12/16/2021 1:30:00 AM 5.28 41.504 0.176 6.94 -0.01 11.99
12/16/2021 1:45:00 AM 5.27 41.486 0.176 6.94 1.19 11.99
12/16/2021 2:00:00 AM 5.27 41.486 0.176 6.94 -0.07 11.98
12/16/2021 2:15:00 AM 5.27 41.486 0.176 6.94 -0.01 11.98
12/16/2021 2:30:00 AM 5.28 41.504 0.176 6.93 4.29 11.97
12/16/2021 2:45:00 AM 5.28 41.504 0.176 6.93 0.31 11.97
12/16/2021 3:00:00 AM 5.29 41.522 0.176 6.93 -0.09 11.96
12/16/2021 3:15:00 AM 5.29 41.522 0.176 6.93 -0.07 11.95
12/16/2021 3:30:00 AM 5.28 41.504 0.176 6.93 -0.1 11.96
12/16/2021 3:45:00 AM 5.28 41.504 0.176 6.93 -0.01 11.96
12/16/2021 4:00:00 AM 5.28 41.504 0.177 6.92 0.1 11.94
12/16/2021 4:15:00 AM 5.27 41.486 0.177 6.92 -0.15 11.94
12/16/2021 4:30:00 AM 5.27 41.486 0.177 6.92 -0.13 11.94
12/16/2021 4:45:00 AM 5.27 41.486 0.177 6.93 -0.15 11.94
12/16/2021 5:00:00 AM 5.26 41.468 0.177 6.93 -0.14 11.92
12/16/2021 5:15:00 AM 5.26 41.468 0.177 6.92 -0.01 11.91
12/16/2021 5:30:00 AM 5.27 41.486 0.177 6.92 0.06 11.93
12/16/2021 5:45:00 AM 5.26 41.468 0.177 6.92 -0.17 11.92
12/16/2021 6:00:00 AM 5.25 41.45 0.177 6.93 -0.18 11.93
12/16/2021 6:15:00 AM 5.24 41.432 0.177 6.92 0.07 11.93
12/16/2021 6:30:00 AM 5.22 41.396 0.177 6.93 -0.09 11.91
12/16/2021 6:45:00 AM 5.2 41.36 0.177 6.92 -0.03 11.92
12/16/2021 7:00:00 AM 5.18 41.324 0.177 6.92 0.05 11.94
12/16/2021 7:15:00 AM 5.15 41.27 0.177 6.93 -0.04 11.92
12/16/2021 7:30:00 AM 5.13 41.234 0.177 6.93 -0.06 11.93
12/16/2021 7:45:00 AM 5.12 41.216 0.177 6.92 0.08 11.94
12/16/2021 8:00:00 AM 5.11 41.198 0.177 6.93 -0.08 11.97
12/16/2021 8:15:00 AM 5.1 41.18 0.177 6.93 -0.16 12.02
12/16/2021 8:30:00 AM 5.11 41.198 0.177 6.93 0.03 12.1
12/16/2021 8:45:00 AM 5.14 41.252 0.177 6.93 0.08 12.14
12/16/2021 9:00:00 AM 5.18 41.324 0.177 6.93 0.37 12.23
12/16/2021 9:15:00 AM 5.22 41.396 0.177 6.94 -0.04 12.3
12/16/2021 9:30:00 AM 5.28 41.504 0.177 6.95 -0.02 12.34
12/16/2021 9:45:00 AM 5.35 41.63 0.177 6.95 -0.08 12.38
12/16/2021 10:00:00 AM 5.45 41.81 0.177 6.95 -0.16 12.45
12/16/2021 10:15:00 AM 5.51 41.918 0.176 6.96 -0.03 12.5
12/16/2021 10:30:00 AM 5.57 42.026 0.176 6.97 -0.15 12.53
12/16/2021 10:45:00 AM 5.65 42.17 0.176 6.98 -0.08 12.54
12/16/2021 11:00:00 AM 5.75 42.35 0.176 6.99 -0.04 12.56
12/16/2021 11:15:00 AM 5.87 42.566 0.176 7 -0.05 12.57
12/16/2021 11:30:00 AM 5.96 42.728 0.176 7.01 -0.16 12.56
12/16/2021 11:45:00 AM 6.06 42.908 0.176 7.01 -0.01 12.56
12/16/2021 12:00:00 PM 6.16 43.088 0.176 7.02 -0.11 12.55
12/16/2021 12:15:00 PM 6.27 43.286 0.176 7.03 0.06 12.55
12/16/2021 12:30:00 PM 6.42 43.556 0.176 7.03 -0.04 12.52
12/16/2021 12:45:00 PM 6.61 43.898 0.176 7.03 -0.02 12.52
12/16/2021 1:00:00 PM 6.8 44.24 0.176 7.04 -0.26 12.5
12/16/2021 1:15:00 PM 6.96 44.528 0.176 7.05 1.08 12.48
12/16/2021 1:30:00 PM 7.11 44.798 0.176 7.05 0.15 12.44
12/16/2021 1:45:00 PM 7.25 45.05 0.176 7.06 -0.03 12.4
12/16/2021 2:00:00 PM 7.29 45.122 0.176 7.07 0.13 12.36
12/16/2021 2:15:00 PM 7.32 45.176 0.176 7.07 0.12 12.34
12/16/2021 2:30:00 PM 7.35 45.23 0.176 7.08 -0.03 12.27
12/16/2021 2:45:00 PM 7.41 45.338 0.176 7.08 -0.13 12.24
12/16/2021 3:00:00 PM 7.45 45.41 0.176 7.08 -0.08 12.2
12/16/2021 3:15:00 PM 7.48 45.464 0.176 7.09 -0.16 12.15
12/16/2021 3:30:00 PM 7.51 45.518 0.176 7.08 0.06 12.12
12/16/2021 3:45:00 PM 7.52 45.536 0.176 7.09 0 12.07
12/16/2021 4:00:00 PM 7.51 45.518 0.176 7.09 -0.08 12.02
12/16/2021 4:15:00 PM 7.5 45.5 0.176 7.09 -0.01 11.98
12/16/2021 4:30:00 PM 7.48 45.464 0.176 7.09 0.06 11.88
12/16/2021 4:45:00 PM 7.45 45.41 0.176 7.09 0.21 11.82
12/16/2021 5:00:00 PM 7.41 45.338 0.176 7.08 -0.02 11.76
12/16/2021 5:15:00 PM 7.38 45.284 0.176 7.08 -0.03 11.68
12/16/2021 5:30:00 PM 7.34 45.212 0.176 7.07 0.23 11.61
12/16/2021 5:45:00 PM 7.3 45.14 0.177 7.06 0.24 11.56
12/16/2021 6:00:00 PM 7.26 45.068 0.177 7.06 0.2 11.52
12/16/2021 6:15:00 PM 7.22 44.996 0.177 7.05 0.14 11.5
12/16/2021 6:30:00 PM 7.19 44.942 0.177 7.04 0.01 11.46
12/16/2021 6:45:00 PM 7.15 44.87 0.177 7.04 0.11 11.43
12/16/2021 7:00:00 PM 7.11 44.798 0.177 7.03 0.24 11.43
12/16/2021 7:15:00 PM 7.07 44.726 0.177 7.02 0.76 11.39
12/16/2021 7:30:00 PM 7.04 44.672 0.177 7.01 0.04 11.39
12/16/2021 7:45:00 PM 7.01 44.618 0.177 7.01 -0.04 11.38
12/16/2021 8:00:00 PM 6.98 44.564 0.177 7 0.09 11.38
12/16/2021 8:15:00 PM 6.96 44.528 0.177 6.99 0.23 11.38
12/16/2021 8:30:00 PM 6.94 44.492 0.177 6.99 0.02 11.35
12/16/2021 8:45:00 PM 6.92 44.456 0.177 6.99 -0.08 11.37
12/16/2021 9:00:00 PM 6.91 44.438 0.177 6.98 -0.04 11.34
12/16/2021 9:15:00 PM 6.91 44.438 0.177 6.98 0.16 11.35
12/16/2021 9:30:00 PM 6.92 44.456 0.177 6.98 0.29 11.31
12/16/2021 9:45:00 PM 6.92 44.456 0.177 6.98 0.04 11.33
12/16/2021 10:00:00 PM 6.94 44.492 0.177 6.97 -0.13 11.3
12/16/2021 10:15:00 PM 6.96 44.528 0.177 6.97 0.02 11.33
12/16/2021 10:30:00 PM 6.98 44.564 0.177 6.97 0.16 11.3
12/16/2021 10:45:00 PM 7.01 44.618 0.177 6.97 0.1 11.28
12/16/2021 11:00:00 PM 7.03 44.654 0.177 6.97 0.19 11.28
12/16/2021 11:15:00 PM 7.06 44.708 0.177 6.97 0.17 11.27
12/16/2021 11:30:00 PM 7.08 44.744 0.177 6.97 0.24 11.24
12/16/2021 11:45:00 PM 7.1 44.78 0.177 6.97 0.1 11.25
12/17/2021 12:00:00 AM 7.1 44.78 0.177 6.96 0.31 11.24
12/17/2021 12:15:00 AM 7.11 44.798 0.177 6.96 0.19 11.23
12/17/2021 12:30:00 AM 7.12 44.816 0.177 6.96 0.12 11.24
12/17/2021 12:45:00 AM 7.12 44.816 0.177 6.96 -0.06 11.22
12/17/2021 1:00:00 AM 7.12 44.816 0.177 6.96 0.02 11.2
12/17/2021 1:15:00 AM 7.12 44.816 0.177 6.96 -0.1 11.2
12/17/2021 1:30:00 AM 7.13 44.834 0.177 6.96 -0.01 11.19
12/17/2021 1:45:00 AM 7.13 44.834 0.177 6.96 0.16 11.2
12/17/2021 2:00:00 AM 7.13 44.834 0.177 6.96 0.19 11.18
12/17/2021 2:15:00 AM 7.13 44.834 0.177 6.96 0 11.18
12/17/2021 2:30:00 AM 7.13 44.834 0.177 6.96 0.04 11.16
12/17/2021 2:45:00 AM 7.12 44.816 0.177 6.96 0.1 11.17
12/17/2021 3:00:00 AM 7.11 44.798 0.177 6.96 0.06 11.15
12/17/2021 3:15:00 AM 7.1 44.78 0.177 6.96 0 11.16
12/17/2021 3:30:00 AM 7.09 44.762 0.177 6.96 -0.02 11.16
12/17/2021 3:45:00 AM 7.08 44.744 0.177 6.95 -0.17 11.16
12/17/2021 4:00:00 AM 7.06 44.708 0.177 6.95 0.01 11.16
12/17/2021 4:15:00 AM 7.04 44.672 0.176 6.96 0.01 11.14
12/17/2021 4:30:00 AM 7.02 44.636 0.176 6.95 0.09 11.16
12/17/2021 4:45:00 AM 7 44.6 0.176 6.95 0.23 11.15
12/17/2021 5:00:00 AM 6.98 44.564 0.176 6.95 1.45 11.15
12/17/2021 5:15:00 AM 6.96 44.528 0.176 6.95 0.04 11.16
12/17/2021 5:30:00 AM 6.94 44.492 0.177 6.95 -0.06 11.18
12/17/2021 5:45:00 AM 6.92 44.456 0.177 6.94 -0.07 11.19
12/17/2021 6:00:00 AM 6.9 44.42 0.177 6.94 -0.04 11.19
12/17/2021 6:15:00 AM 6.88 44.384 0.177 6.94 0.17 11.21
12/17/2021 6:30:00 AM 6.86 44.348 0.177 6.94 0.05 11.21
12/17/2021 6:45:00 AM 6.83 44.294 0.177 6.94 0.11 11.23
12/17/2021 7:00:00 AM 6.82 44.276 0.177 6.95 -0.04 11.23
12/17/2021 7:15:00 AM 6.8 44.24 0.177 6.94 0.12 11.23
12/17/2021 7:30:00 AM 6.78 44.204 0.177 6.94 0.04 11.26
12/17/2021 7:45:00 AM 6.77 44.186 0.177 6.94 0.11 11.27
12/17/2021 8:00:00 AM 6.77 44.186 0.177 6.94 0 11.31
12/17/2021 8:15:00 AM 6.77 44.186 0.177 6.95 0.38 11.34
12/17/2021 8:30:00 AM 6.78 44.204 0.177 6.95 -0.11 11.41
12/17/2021 8:45:00 AM 6.8 44.24 0.177 6.95 0.03 11.49
12/17/2021 9:00:00 AM 6.82 44.276 0.177 6.96 0.05 11.56
12/17/2021 9:15:00 AM 6.85 44.33 0.177 6.96 0 11.67
12/17/2021 9:30:00 AM 6.9 44.42 0.177 6.97 0 11.73
12/17/2021 9:45:00 AM 6.95 44.51 0.177 6.97 -0.04 11.82
12/17/2021 10:00:00 AM 7.02 44.636 0.177 6.99 0.01 11.9
12/17/2021 10:15:00 AM 7.08 44.744 0.177 7 -0.06 11.94
12/17/2021 10:30:00 AM 7.14 44.852 0.177 7 0.16 11.98
12/17/2021 10:45:00 AM 7.21 44.978 0.177 7.01 0.01 12
12/17/2021 11:00:00 AM 7.31 45.158 0.176 7.03 -0.01 12.04
12/17/2021 11:15:00 AM 7.4 45.32 0.176 7.03 -0.08 12.08
12/17/2021 11:30:00 AM 7.48 45.464 0.176 7.04 1.52 12.09
12/17/2021 11:45:00 AM 7.56 45.608 0.176 7.05 0.03 12.12
12/17/2021 12:00:00 PM 7.64 45.752 0.176 7.06 0 12.12
12/17/2021 12:15:00 PM 7.72 45.896 0.176 7.07 -0.04 12.13
12/17/2021 12:30:00 PM 7.8 46.04 0.176 7.07 -0.03 12.13
12/17/2021 12:45:00 PM 7.92 46.256 0.176 7.08 0.27 12.13
12/17/2021 1:00:00 PM 8 46.4 0.176 7.09 0.11 12.11
12/17/2021 1:15:00 PM 8.07 46.526 0.176 7.1 0.14 12.12
12/17/2021 1:30:00 PM 8.11 46.598 0.176 7.1 0 12.09
12/17/2021 1:45:00 PM 8.13 46.634 0.176 7.11 -0.02 12.09
12/17/2021 2:00:00 PM 8.16 46.688 0.176 7.11 0.15 12.06
12/17/2021 2:15:00 PM 8.2 46.76 0.176 7.12 0.01 12.03
12/17/2021 2:30:00 PM 8.21 46.778 0.176 7.12 0.03 12
12/17/2021 2:45:00 PM 8.23 46.814 0.176 7.12 -0.12 11.98
12/17/2021 3:00:00 PM 8.25 46.85 0.176 7.13 0.26 11.93
12/17/2021 3:15:00 PM 8.27 46.886 0.176 7.13 0.03 11.9
12/17/2021 3:30:00 PM 8.27 46.886 0.176 7.13 0.09 11.84
12/17/2021 3:45:00 PM 8.27 46.886 0.176 7.13 0.16 11.8
12/17/2021 4:00:00 PM 8.26 46.868 0.176 7.13 0 11.76
12/17/2021 4:15:00 PM 8.25 46.85 0.176 7.13 -0.1 11.7
12/17/2021 4:30:00 PM 8.23 46.814 0.176 7.12 0.12 11.65
12/17/2021 4:45:00 PM 8.21 46.778 0.176 7.12 -0.01 11.57
12/17/2021 5:00:00 PM 8.17 46.706 0.176 7.11 0.2 11.5
12/17/2021 5:15:00 PM 8.13 46.634 0.176 7.11 0.07 11.43
12/17/2021 5:30:00 PM 8.09 46.562 0.176 7.1 0.2 11.36
12/17/2021 5:45:00 PM 8.06 46.508 0.176 7.09 0.81 11.32
12/17/2021 6:00:00 PM 8.02 46.436 0.177 7.08 0.14 11.27
12/17/2021 6:15:00 PM 7.98 46.364 0.177 7.07 0.07 11.26
12/17/2021 6:30:00 PM 7.94 46.292 0.177 7.07 0.12 11.23
12/17/2021 6:45:00 PM 7.91 46.238 0.177 7.06 0.31 11.21
12/17/2021 7:00:00 PM 7.87 46.166 0.176 7.05 0.13 11.2
12/17/2021 7:15:00 PM 7.83 46.094 0.168 7.04 0.09 11.18
12/17/2021 7:30:00 PM 7.8 46.04 0.174 7.04 0 11.17
12/17/2021 7:45:00 PM 7.76 45.968 0.177 7.03 0.22 11.16
12/17/2021 8:00:00 PM 7.71 45.878 0.177 7.03 0.26 11.14
12/17/2021 8:15:00 PM 7.67 45.806 0.177 7.02 -0.1 11.16
12/17/2021 8:30:00 PM 7.63 45.734 0.177 7.02 0.5 11.16
12/17/2021 8:45:00 PM 7.59 45.662 0.177 7.01 0.01 11.13
12/17/2021 9:00:00 PM 7.56 45.608 0.177 7 -0.01 11.13
12/17/2021 9:15:00 PM 7.54 45.572 0.177 7 2.09 11.13
12/17/2021 9:30:00 PM 7.51 45.518 0.177 6.99 0.37 11.13
12/17/2021 9:45:00 PM 7.5 45.5 0.177 6.99 0.21 11.13
12/17/2021 10:00:00 PM 7.49 45.482 0.177 6.99 0.2 11.14
12/17/2021 10:15:00 PM 7.48 45.464 0.177 6.98 0 11.13
12/17/2021 10:30:00 PM 7.47 45.446 0.177 6.98 0.16 11.14
12/17/2021 10:45:00 PM 7.47 45.446 0.177 6.98 0.26 11.15
12/17/2021 11:00:00 PM 7.46 45.428 0.177 6.98 0.33 11.14
12/17/2021 11:15:00 PM 7.46 45.428 0.177 6.98 0.5 11.13
12/17/2021 11:30:00 PM 7.46 45.428 0.177 6.97 0.24 11.15
12/17/2021 11:45:00 PM 7.46 45.428 0.177 6.97 0.26 11.14
12/18/2021 12:00:00 AM 7.45 45.41 0.177 6.97 0.32 11.12
12/18/2021 12:15:00 AM 7.45 45.41 0.177 6.97 -0.06 11.12
12/18/2021 12:30:00 AM 7.44 45.392 0.177 6.97 0.31 11.13
12/18/2021 12:45:00 AM 7.44 45.392 0.177 6.97 0.21 11.14
12/18/2021 1:00:00 AM 7.45 45.41 0.177 6.97 0.43 11.15
12/18/2021 1:15:00 AM 7.45 45.41 0.177 6.97 0.62 11.12
12/18/2021 1:30:00 AM 7.45 45.41 0.177 6.97 -0.11 11.14
12/18/2021 1:45:00 AM 7.45 45.41 0.177 6.96 0.12 11.14
12/18/2021 2:00:00 AM 7.45 45.41 0.177 6.96 0.21 11.11
12/18/2021 2:15:00 AM 7.45 45.41 0.176 6.96 0 11.12
12/18/2021 2:30:00 AM 7.44 45.392 0.177 6.96 0.11 11.13
12/18/2021 2:45:00 AM 7.44 45.392 0.177 6.96 0.21 11.13
12/18/2021 3:00:00 AM 7.43 45.374 0.177 6.96 0.26 11.13
12/18/2021 3:15:00 AM 7.43 45.374 0.176 6.96 0.23 11.1
12/18/2021 3:30:00 AM 7.43 45.374 0.163 6.96 0.03 11.13
12/18/2021 3:45:00 AM 7.42 45.356 0.173 6.96 0.08 11.12
12/18/2021 4:00:00 AM 7.42 45.356 0.176 6.96 0.27 11.12
12/18/2021 4:15:00 AM 7.41 45.338 0.176 6.96 0.04 11.13
12/18/2021 4:30:00 AM 7.39 45.302 0.175 6.96 0.45 11.13
12/18/2021 4:45:00 AM 7.37 45.266 0.171 6.96 0.38 11.14
12/18/2021 5:00:00 AM 7.36 45.248 0.159 6.96 0.1 11.14
12/18/2021 5:15:00 AM 7.35 45.23 0.173 6.96 0.05 11.12
12/18/2021 5:30:00 AM 7.34 45.212 0.175 6.95 0.27 11.11
12/18/2021 5:45:00 AM 7.33 45.194 0.175 6.96 0.06 11.15
12/18/2021 6:00:00 AM 7.32 45.176 0.175 6.95 0.1 11.13
12/18/2021 6:15:00 AM 7.31 45.158 0.175 6.95 0.17 11.14
12/18/2021 6:30:00 AM 7.3 45.14 0.175 6.95 0.17 11.13
12/18/2021 6:45:00 AM 7.29 45.122 0.175 6.95 0.26 11.15
12/18/2021 7:00:00 AM 7.27 45.086 0.175 6.95 0.26 11.15
12/18/2021 7:15:00 AM 7.25 45.05 0.175 6.96 0.43 11.14
12/18/2021 7:30:00 AM 7.24 45.032 0.176 6.95 0.13 11.16
12/18/2021 7:45:00 AM 7.22 44.996 0.176 6.95 0.19 11.18
12/18/2021 8:00:00 AM 7.21 44.978 0.175 6.95 0.14 11.18
12/18/2021 8:15:00 AM 7.2 44.96 0.175 6.95 0.04 11.21
12/18/2021 8:30:00 AM 7.19 44.942 0.175 6.95 0.09 11.25
12/18/2021 8:45:00 AM 7.19 44.942 0.175 6.96 0.43 11.27
12/18/2021 9:00:00 AM 7.19 44.942 0.175 6.96 0.03 11.29
12/18/2021 9:15:00 AM 7.2 44.96 0.175 6.96 0.4 11.35
12/18/2021 9:30:00 AM 7.21 44.978 0.175 6.96 0.32 11.41
12/18/2021 9:45:00 AM 7.23 45.014 0.175 6.97 0.14 11.48
12/18/2021 10:00:00 AM 7.24 45.032 0.175 6.97 0.18 11.52
12/18/2021 10:15:00 AM 7.26 45.068 0.175 6.98 0.02 11.6
12/18/2021 10:30:00 AM 7.28 45.104 0.175 6.99 0.05 11.63
12/18/2021 10:45:00 AM 7.31 45.158 0.175 6.99 0.06 11.68
12/18/2021 11:00:00 AM 7.34 45.212 0.175 7 -0.05 11.73
12/18/2021 11:15:00 AM 7.37 45.266 0.175 7.01 0.19 11.79
12/18/2021 11:30:00 AM 7.41 45.338 0.175 7.01 0.05 11.82
12/18/2021 11:45:00 AM 7.46 45.428 0.175 7.02 0.02 11.85
12/18/2021 12:00:00 PM 7.49 45.482 0.175 7.03 0.17 11.88
12/18/2021 12:15:00 PM 7.51 45.518 0.175 7.03 0.15 11.88
12/18/2021 12:30:00 PM 7.53 45.554 0.175 7.04 0.11 11.9
12/18/2021 12:45:00 PM 7.56 45.608 0.175 7.05 -0.08 11.9
12/18/2021 1:00:00 PM 7.58 45.644 0.175 7.05 0.28 11.87
12/18/2021 1:15:00 PM 7.61 45.698 0.175 7.06 0.11 11.89
12/18/2021 1:30:00 PM 7.64 45.752 0.175 7.06 0.87 11.89
12/18/2021 1:45:00 PM 7.67 45.806 0.175 7.07 0.13 11.91
12/18/2021 2:00:00 PM 7.7 45.86 0.175 7.08 0.07 11.91
12/18/2021 2:15:00 PM 7.72 45.896 0.175 7.08 0.02 11.87
12/18/2021 2:30:00 PM 7.73 45.914 0.175 7.08 0.07 11.89
12/18/2021 2:45:00 PM 7.74 45.932 0.175 7.09 0.12 11.85
12/18/2021 3:00:00 PM 7.75 45.95 0.175 7.09 0.05 11.84
12/18/2021 3:15:00 PM 7.76 45.968 0.175 7.09 -0.03 11.82
12/18/2021 3:30:00 PM 7.75 45.95 0.175 7.09 0.19 11.78
12/18/2021 3:45:00 PM 7.74 45.932 0.175 7.09 0.15 11.72
12/18/2021 4:00:00 PM 7.74 45.932 0.175 7.09 0.06 11.68
12/18/2021 4:15:00 PM 7.73 45.914 0.175 7.08 0.16 11.6
12/18/2021 4:30:00 PM 7.72 45.896 0.175 7.08 0.2 11.56
12/18/2021 4:45:00 PM 7.71 45.878 0.176 7.08 0.56 11.52
12/18/2021 5:00:00 PM 7.7 45.86 0.176 7.07 0.55 11.44
12/18/2021 5:15:00 PM 7.68 45.824 0.175 7.07 0.12 11.41
12/18/2021 5:30:00 PM 7.67 45.806 0.176 7.07 0.53 11.36
12/18/2021 5:45:00 PM 7.65 45.77 0.175 7.05 0.32 11.32
12/18/2021 6:00:00 PM 7.63 45.734 0.176 7.05 0.5 11.28
12/18/2021 6:15:00 PM 7.61 45.698 0.176 7.05 0.53 11.25
12/18/2021 6:30:00 PM 7.58 45.644 0.176 7.04 0.26 11.23
12/18/2021 6:45:00 PM 7.56 45.608 0.176 7.04 0.13 11.22
12/18/2021 7:00:00 PM 7.55 45.59 0.176 7.03 0.45 11.22
12/18/2021 7:15:00 PM 7.53 45.554 0.175 7.02 0.41 11.19
12/18/2021 7:30:00 PM 7.53 45.554 0.175 7.02 0.02 11.18
12/18/2021 7:45:00 PM 7.52 45.536 0.175 7.01 0.12 11.13
12/18/2021 8:00:00 PM 7.5 45.5 0.175 7.01 0.11 11.14
12/18/2021 8:15:00 PM 7.49 45.482 0.175 7.01 0 11.14
12/18/2021 8:30:00 PM 7.48 45.464 0.175 7.01 0.22 11.13
12/18/2021 8:45:00 PM 7.46 45.428 0.173 7 0.31 11.11
12/18/2021 9:00:00 PM 7.43 45.374 0.172 7 0.09 11.11
12/18/2021 9:15:00 PM 7.4 45.32 0.172 7 0 11.11
12/18/2021 9:30:00 PM 7.38 45.284 0.174 7 0 11.11
12/18/2021 9:45:00 PM 7.36 45.248 0.174 6.99 0.05 11.09
12/18/2021 10:00:00 PM 7.35 45.23 0.174 6.99 0.1 11.08
12/18/2021 10:15:00 PM 7.34 45.212 0.174 6.99 -0.01 11.1
12/18/2021 10:30:00 PM 7.33 45.194 0.174 6.98 -0.02 11.08
12/18/2021 10:45:00 PM 7.33 45.194 0.174 6.98 0.1 11.08
12/18/2021 11:00:00 PM 7.33 45.194 0.174 6.98 0 11.07
12/18/2021 11:15:00 PM 7.32 45.176 0.175 6.98 -0.01 11.08
12/18/2021 11:30:00 PM 7.32 45.176 0.166 6.98 -0.05 11.08
12/18/2021 11:45:00 PM 7.32 45.176 0.175 6.98 0.01 11.07
12/19/2021 12:00:00 AM 7.32 45.176 0.169 6.98 0.13 11.08
12/19/2021 12:15:00 AM 7.31 45.158 0.168 6.98 0.67 11.09
12/19/2021 12:30:00 AM 7.31 45.158 0.168 6.97 0.06 11.07
12/19/2021 12:45:00 AM 7.31 45.158 0.168 6.97 0.03 11.08
12/19/2021 1:00:00 AM 7.32 45.176 0.164 6.97 0.33 11.08
12/19/2021 1:15:00 AM 7.32 45.176 0.164 6.97 0.37 11.07
12/19/2021 1:30:00 AM 7.32 45.176 0.174 6.97 0.01 11.07
12/19/2021 1:45:00 AM 7.32 45.176 0.173 6.96 0.17 11.06
12/19/2021 2:00:00 AM 7.32 45.176 0.172 6.97 0.05 11.06
12/19/2021 2:15:00 AM 7.32 45.176 0.172 6.97 0 11.07
12/19/2021 2:30:00 AM 7.33 45.194 0.172 6.97 -0.08 11.08
12/19/2021 2:45:00 AM 7.33 45.194 0.172 6.97 0.04 11.09
12/19/2021 3:00:00 AM 7.33 45.194 0.172 6.97 -0.15 11.08
12/19/2021 3:15:00 AM 7.34 45.212 0.171 6.97 0.05 11.08
12/19/2021 3:30:00 AM 7.34 45.212 0.172 6.97 0.16 11.09
12/19/2021 3:45:00 AM 7.33 45.194 0.164 6.96 0.11 11.09
12/19/2021 4:00:00 AM 7.32 45.176 0.176 6.97 0.38 11.1
12/19/2021 4:15:00 AM 7.31 45.158 0.176 6.96 0.49 11.09
12/19/2021 4:30:00 AM 7.29 45.122 0.176 6.97 -0.16 11.11
12/19/2021 4:45:00 AM 7.27 45.086 0.176 6.97 0.09 11.1
12/19/2021 5:00:00 AM 7.25 45.05 0.176 6.97 0.2 11.11
12/19/2021 5:15:00 AM 7.22 44.996 0.176 6.97 0.05 11.12
12/19/2021 5:30:00 AM 7.2 44.96 0.176 6.97 0.12 11.13
12/19/2021 5:45:00 AM 7.17 44.906 0.176 6.96 0.01 11.14
12/19/2021 6:00:00 AM 7.14 44.852 0.176 6.96 0.03 11.14
12/19/2021 6:15:00 AM 7.11 44.798 0.176 6.96 -0.03 11.16
12/19/2021 6:30:00 AM 7.09 44.762 0.176 6.97 0.46 11.17
12/19/2021 6:45:00 AM 7.07 44.726 0.176 6.96 0.84 11.17
12/19/2021 7:00:00 AM 7.04 44.672 0.176 6.97 0.33 11.18
12/19/2021 7:15:00 AM 7 44.6 0.176 6.96 0.29 11.2
12/19/2021 7:30:00 AM 6.96 44.528 0.176 6.97 -0.05 11.21
12/19/2021 7:45:00 AM 6.92 44.456 0.176 6.96 0.24 11.23
12/19/2021 8:00:00 AM 6.88 44.384 0.176 6.96 0.06 11.25
12/19/2021 8:15:00 AM 6.87 44.366 0.176 6.96 0.68 11.29
12/19/2021 8:30:00 AM 6.82 44.276 0.176 6.96 0.5 11.36
12/19/2021 8:45:00 AM 6.81 44.258 0.176 6.97 0.08 11.43
12/19/2021 9:00:00 AM 6.79 44.222 0.176 6.97 -0.06 11.5
12/19/2021 9:15:00 AM 6.78 44.204 0.176 6.98 0.15 11.59
12/19/2021 9:30:00 AM 6.78 44.204 0.176 6.99 0.15 11.68
12/19/2021 9:45:00 AM 6.78 44.204 0.176 7 0.49 11.76
12/19/2021 10:00:00 AM 6.77 44.186 0.176 7 0.15 11.8
12/19/2021 10:15:00 AM 6.75 44.15 0.176 7.01 0.13 11.85
12/19/2021 10:30:00 AM 6.75 44.15 0.176 7.01 0.17 11.9
12/19/2021 10:45:00 AM 6.75 44.15 0.176 7.02 -0.06 11.94
12/19/2021 11:00:00 AM 6.75 44.15 0.176 7.03 0.03 11.94
12/19/2021 11:15:00 AM 6.75 44.15 0.176 7.03 0 11.98
12/19/2021 11:30:00 AM 6.76 44.168 0.176 7.03 0.17 12.01
12/19/2021 11:45:00 AM 6.78 44.204 0.176 7.04 0 12.07
12/19/2021 12:00:00 PM 6.79 44.222 0.176 7.04 0.12 12.13
12/19/2021 12:15:00 PM 6.8 44.24 0.176 7.05 0 12.13
12/19/2021 12:30:00 PM 6.85 44.33 0.176 7.06 0.1 12.18
12/19/2021 12:45:00 PM 6.88 44.384 0.176 7.06 -0.13 12.22
12/19/2021 1:00:00 PM 6.91 44.438 0.176 7.07 0.03 12.24
12/19/2021 1:15:00 PM 6.99 44.582 0.176 7.08 -0.03 12.25
12/19/2021 1:30:00 PM 7 44.6 0.176 7.09 0.01 12.28
12/19/2021 1:45:00 PM 6.99 44.582 0.176 7.09 -0.09 12.27
12/19/2021 2:00:00 PM 6.99 44.582 0.176 7.1 -0.02 12.28
12/19/2021 2:15:00 PM 6.97 44.546 0.176 7.1 -0.14 12.27
12/19/2021 2:30:00 PM 6.93 44.474 0.176 7.1 0.01 12.26
12/19/2021 2:45:00 PM 6.91 44.438 0.176 7.11 -0.04 12.25
12/19/2021 3:00:00 PM 6.86 44.348 0.176 7.11 -0.01 12.21
12/19/2021 3:15:00 PM 6.79 44.222 0.176 7.11 0.01 12.17
12/19/2021 3:30:00 PM 6.72 44.096 0.176 7.11 0.23 12.11
12/19/2021 3:45:00 PM 6.66 43.988 0.176 7.1 0.08 12.09
12/19/2021 4:00:00 PM 6.6 43.88 0.176 7.1 -0.05 12.04
12/19/2021 4:15:00 PM 6.53 43.754 0.176 7.1 0.07 12.03
12/19/2021 4:30:00 PM 6.45 43.61 0.176 7.1 0.12 12.01
12/19/2021 4:45:00 PM 6.38 43.484 0.176 7.09 0 11.97
12/19/2021 5:00:00 PM 6.31 43.358 0.176 7.09 0.1 11.95
12/19/2021 5:15:00 PM 6.23 43.214 0.176 7.08 -0.2 11.91
12/19/2021 5:30:00 PM 6.16 43.088 0.176 7.08 -0.09 11.89
12/19/2021 5:45:00 PM 6.08 42.944 0.176 7.07 -0.11 11.86
12/19/2021 6:00:00 PM 6.02 42.836 0.176 7.06 0.03 11.86
12/19/2021 6:15:00 PM 5.92 42.656 0.176 7.06 0.05 11.83
12/19/2021 6:30:00 PM 5.84 42.512 0.177 7.05 -0.05 11.85
12/19/2021 6:45:00 PM 5.76 42.368 0.177 7.04 0.26 11.86
12/19/2021 7:00:00 PM 5.68 42.224 0.177 7.04 -0.1 11.86
12/19/2021 7:15:00 PM 5.59 42.062 0.177 7.03 0.14 11.87
12/19/2021 7:30:00 PM 5.53 41.954 0.177 7.03 0.03 11.88
12/19/2021 7:45:00 PM 5.43 41.774 0.177 7.02 0.02 11.89
12/19/2021 8:00:00 PM 5.34 41.612 0.177 7.01 0.06 11.91
12/19/2021 8:15:00 PM 5.29 41.522 0.177 7.01 0.28 11.92
12/19/2021 8:30:00 PM 5.21 41.378 0.177 7.01 0 11.94
12/19/2021 8:45:00 PM 5.14 41.252 0.177 7 0.05 11.96
12/19/2021 9:00:00 PM 5.07 41.126 0.177 7 0.06 11.99
12/19/2021 9:15:00 PM 5 41 0.177 7 0.08 11.99
12/19/2021 9:30:00 PM 4.93 40.874 0.177 6.99 0.29 12.01
12/19/2021 9:45:00 PM 4.83 40.694 0.177 6.99 0.29 12.04
12/19/2021 10:00:00 PM 4.77 40.586 0.177 6.98 0.05 12.05
12/19/2021 10:15:00 PM 4.72 40.496 0.177 6.98 -0.04 12.09
12/19/2021 10:30:00 PM 4.64 40.352 0.177 6.98 0.35 12.11
12/19/2021 10:45:00 PM 4.57 40.226 0.177 6.98 0.05 12.14
12/19/2021 11:00:00 PM 4.49 40.082 0.177 6.97 0.03 12.14
12/19/2021 11:15:00 PM 4.42 39.956 0.177 6.98 -0.07 12.18
12/19/2021 11:30:00 PM 4.36 39.848 0.177 6.97 0.12 12.2
12/19/2021 11:45:00 PM 4.29 39.722 0.177 6.96 -0.15 12.23
12/20/2021 12:00:00 AM 4.22 39.596 0.177 6.96 -0.21 12.25
12/20/2021 12:15:00 AM 4.16 39.488 0.177 6.97 -0.08 12.27
12/20/2021 12:30:00 AM 4.08 39.344 0.177 6.96 -0.18 12.31
12/20/2021 12:45:00 AM 4.02 39.236 0.177 6.96 0.13 12.34
12/20/2021 1:00:00 AM 3.96 39.128 0.177 6.95 -0.05 12.36
12/20/2021 1:15:00 AM 3.91 39.038 0.177 6.95 0.77 12.37
12/20/2021 1:30:00 AM 3.88 38.984 0.177 6.95 0 12.4
12/20/2021 1:45:00 AM 3.81 38.858 0.177 6.95 -0.11 12.43
12/20/2021 2:00:00 AM 3.74 38.732 0.177 6.94 -0.15 12.44
12/20/2021 2:15:00 AM 3.67 38.606 0.177 6.94 -0.21 12.47
12/20/2021 2:30:00 AM 3.62 38.516 0.177 6.95 0.03 12.49
12/20/2021 2:45:00 AM 3.56 38.408 0.177 6.94 0.19 12.52
12/20/2021 3:00:00 AM 3.5 38.3 0.177 6.95 -0.22 12.52
12/20/2021 3:15:00 AM 3.43 38.174 0.177 6.94 -0.3 12.55
12/20/2021 3:30:00 AM 3.38 38.084 0.177 6.95 0.03 12.61
12/20/2021 3:45:00 AM 3.32 37.976 0.177 6.94 -0.22 12.63
12/20/2021 4:00:00 AM 3.28 37.904 0.177 6.94 -0.1 12.62
12/20/2021 4:15:00 AM 3.2 37.76 0.178 6.94 -0.1 12.66
12/20/2021 4:30:00 AM 3.15 37.67 0.178 6.94 0.52 12.69
12/20/2021 4:45:00 AM 3.09 37.562 0.178 6.94 0.02 12.72
12/20/2021 5:00:00 AM 3.03 37.454 0.178 6.94 0.07 12.75
12/20/2021 5:15:00 AM 2.95 37.31 0.178 6.93 -0.23 12.77
12/20/2021 5:30:00 AM 2.92 37.256 0.178 6.93 0.03 12.78
12/20/2021 5:45:00 AM 2.84 37.112 0.178 6.93 0.08 12.82
12/20/2021 6:00:00 AM 2.79 37.022 0.178 6.93 -0.11 12.84
12/20/2021 6:15:00 AM 2.73 36.914 0.178 6.93 0.01 12.88
12/20/2021 6:30:00 AM 2.66 36.788 0.178 6.93 1.14 12.89
12/20/2021 6:45:00 AM 2.62 36.716 0.178 6.93 0.1 12.93
12/20/2021 7:00:00 AM 2.55 36.59 0.178 6.93 -0.31 12.96
12/20/2021 7:15:00 AM 2.5 36.5 0.178 6.93 -0.09 12.97
12/20/2021 7:30:00 AM 2.45 36.41 0.178 6.92 0.19 13.02
12/20/2021 7:45:00 AM 2.39 36.302 0.178 6.93 -0.04 13.05
12/20/2021 8:00:00 AM 2.33 36.194 0.178 6.92 -0.26 13.07
12/20/2021 8:15:00 AM 2.31 36.158 0.178 6.92 -0.09 13.13
12/20/2021 8:30:00 AM 2.23 36.014 0.178 6.93 -0.08 13.19
12/20/2021 8:45:00 AM 2.21 35.978 0.178 6.93 -0.16 13.24
12/20/2021 9:00:00 AM 2.18 35.924 0.178 6.92 -0.1 13.31
12/20/2021 9:15:00 AM 2.15 35.87 0.178 6.93 0.11 13.34
12/20/2021 9:30:00 AM 2.14 35.852 0.178 6.93 -0.24 13.4
12/20/2021 9:45:00 AM 2.12 35.816 0.178 6.93 -0.28 13.45
12/20/2021 10:00:00 AM 2.14 35.852 0.178 6.94 -0.43 13.49
12/20/2021 10:15:00 AM 2.16 35.888 0.178 6.94 -0.3 13.54
12/20/2021 10:30:00 AM 2.2 35.96 0.178 6.94 -0.32 13.57
12/20/2021 10:45:00 AM 2.27 36.086 0.178 6.94 -0.51 13.62
12/20/2021 11:00:00 AM 2.37 36.266 0.178 6.94 -0.38 13.64
12/20/2021 11:15:00 AM 2.47 36.446 0.178 6.94 -0.4 13.69
12/20/2021 11:30:00 AM 2.56 36.608 0.178 6.95 -0.35 13.71
12/20/2021 11:45:00 AM 2.65 36.77 0.178 6.95 -0.26 13.72
12/20/2021 12:00:00 PM 2.77 36.986 0.178 6.96 -0.3 13.71
12/20/2021 12:15:00 PM 2.86 37.148 0.178 6.96 -0.29 13.71
12/20/2021 12:30:00 PM 2.97 37.346 0.177 6.96 -0.24 13.71
12/20/2021 12:45:00 PM 3.14 37.652 0.177 6.97 -0.41 13.68
12/20/2021 1:00:00 PM 3.27 37.886 0.177 6.98 -0.08 13.68
12/20/2021 1:15:00 PM 3.43 38.174 0.177 6.98 -0.41 13.66
12/20/2021 1:30:00 PM 3.53 38.354 0.177 6.99 -0.35 13.64
12/20/2021 1:45:00 PM 3.63 38.534 0.177 6.99 -0.36 13.62
12/20/2021 2:00:00 PM 3.65 38.57 0.177 6.99 -0.25 13.6
12/20/2021 2:15:00 PM 3.65 38.57 0.177 6.99 -0.11 13.56
12/20/2021 2:30:00 PM 3.63 38.534 0.177 7 -0.2 13.53
12/20/2021 2:45:00 PM 3.64 38.552 0.177 7 -0.34 13.5
12/20/2021 3:00:00 PM 3.62 38.516 0.177 7 -0.29 13.45
12/20/2021 3:15:00 PM 3.6 38.48 0.177 7 -0.08 13.4
12/20/2021 3:30:00 PM 3.58 38.444 0.177 7 -0.49 13.36
12/20/2021 3:45:00 PM 3.54 38.372 0.177 7.01 -0.07 13.32
12/20/2021 4:00:00 PM 3.49 38.282 0.177 7.01 -0.03 13.32
12/20/2021 4:15:00 PM 3.44 38.192 0.177 7.01 -0.11 13.27
12/20/2021 4:30:00 PM 3.38 38.084 0.177 7.01 -0.46 13.26
12/20/2021 4:45:00 PM 3.32 37.976 0.177 7.01 -0.24 13.23
12/20/2021 5:00:00 PM 3.26 37.868 0.178 7.01 -0.21 13.21
12/20/2021 5:15:00 PM 3.2 37.76 0.178 7.01 -0.31 13.19
12/20/2021 5:30:00 PM 3.13 37.634 0.178 7 -0.27 13.15
12/20/2021 5:45:00 PM 3.07 37.526 0.178 6.99 -0.32 13.14
12/20/2021 6:00:00 PM 3 37.4 0.178 6.99 -0.35 13.13
12/20/2021 6:15:00 PM 2.92 37.256 0.178 6.99 -0.25 13.13
12/20/2021 6:30:00 PM 2.85 37.13 0.178 6.98 -0.19 13.14
12/20/2021 6:45:00 PM 2.79 37.022 0.178 6.98 -0.39 13.12
12/20/2021 7:00:00 PM 2.72 36.896 0.178 6.98 -0.29 13.15
12/20/2021 7:15:00 PM 2.64 36.752 0.178 6.97 -0.13 13.15
12/20/2021 7:30:00 PM 2.58 36.644 0.178 6.96 -0.12 13.17
12/20/2021 7:45:00 PM 2.51 36.518 0.178 6.96 -0.28 13.17
12/20/2021 8:00:00 PM 2.45 36.41 0.178 6.96 -0.17 13.19
12/20/2021 8:15:00 PM 2.4 36.32 0.178 6.96 -0.3 13.19
12/20/2021 8:30:00 PM 2.32 36.176 0.178 6.95 -0.1 13.23
12/20/2021 8:45:00 PM 2.25 36.05 0.178 6.95 -0.11 13.23
12/20/2021 9:00:00 PM 2.2 35.96 0.178 6.95 -0.12 13.26
12/20/2021 9:15:00 PM 2.14 35.852 0.178 6.94 -0.18 13.27
12/20/2021 9:30:00 PM 2.06 35.708 0.178 6.93 -0.28 13.28
12/20/2021 9:45:00 PM 2.02 35.636 0.178 6.94 -0.02 13.29
12/20/2021 10:00:00 PM 1.96 35.528 0.178 6.93 0.09 13.32
12/20/2021 10:15:00 PM 1.9 35.42 0.178 6.93 -0.1 13.34
12/20/2021 10:30:00 PM 1.85 35.33 0.178 6.93 -0.41 13.32
12/20/2021 10:45:00 PM 1.8 35.24 0.178 6.92 -0.4 13.34
12/20/2021 11:00:00 PM 1.74 35.132 0.178 6.93 -0.26 13.39
12/20/2021 11:15:00 PM 1.72 35.096 0.178 6.92 -0.24 13.38
12/20/2021 11:30:00 PM 1.66 34.988 0.178 6.92 -0.36 13.39
12/20/2021 11:45:00 PM 1.61 34.898 0.178 6.92 -0.2 13.42
12/21/2021 12:00:00 AM 1.59 34.862 0.178 6.91 -0.17 13.43
12/21/2021 12:15:00 AM 1.54 34.772 0.178 6.91 -0.36 13.43
12/21/2021 12:30:00 AM 1.51 34.718 0.178 6.91 -0.27 13.45
12/21/2021 12:45:00 AM 1.46 34.628 0.178 6.91 -0.44 13.47
12/21/2021 1:00:00 AM 1.43 34.574 0.178 6.91 -0.18 13.49
12/21/2021 1:15:00 AM 1.39 34.502 0.178 6.91 -0.41 13.5
12/21/2021 1:30:00 AM 1.37 34.466 0.178 6.91 -0.16 13.51
12/21/2021 1:45:00 AM 1.34 34.412 0.179 6.91 -0.57 13.52
12/21/2021 2:00:00 AM 1.3 34.34 0.179 6.91 0.16 13.53
12/21/2021 2:15:00 AM 1.28 34.304 0.179 6.9 -0.23 13.52
12/21/2021 2:30:00 AM 1.25 34.25 0.179 6.9 -0.46 13.56
12/21/2021 2:45:00 AM 1.2 34.16 0.179 6.9 -0.58 13.56
12/21/2021 3:00:00 AM 1.19 34.142 0.179 6.89 0 13.56
12/21/2021 3:15:00 AM 1.16 34.088 0.179 6.89 -0.18 13.58
12/21/2021 3:30:00 AM 1.14 34.052 0.179 6.9 -0.29 13.6
12/21/2021 3:45:00 AM 1.12 34.016 0.179 6.9 -0.3 13.57
12/21/2021 4:00:00 AM 1.08 33.944 0.179 6.89 0.03 13.61
12/21/2021 4:15:00 AM 1.07 33.926 0.179 6.89 -0.28 13.63
12/21/2021 4:30:00 AM 1.03 33.854 0.179 6.87 -0.26 13.61
12/21/2021 4:45:00 AM 1.01 33.818 0.179 6.89 -0.47 13.63
12/21/2021 5:00:00 AM 0.97 33.746 0.179 6.89 -0.56 13.66
12/21/2021 5:15:00 AM 0.95 33.71 0.179 6.89 -0.17 13.66
12/21/2021 5:30:00 AM 0.93 33.674 0.179 6.89 4.17 13.68
12/21/2021 5:45:00 AM 0.9 33.62 0.179 6.89 0.49 13.68
12/21/2021 6:00:00 AM 0.88 33.584 0.179 6.89 -0.32 13.7
12/21/2021 6:15:00 AM 0.86 33.548 0.179 6.89 0 13.72
12/21/2021 6:30:00 AM 0.86 33.548 0.179 6.89 -0.25 13.72
12/21/2021 6:45:00 AM 0.82 33.476 0.179 6.89 -0.38 13.72
12/21/2021 7:00:00 AM 0.79 33.422 0.179 6.89 0.2 13.73
12/21/2021 7:15:00 AM 0.77 33.386 0.179 6.88 -0.43 13.74
12/21/2021 7:30:00 AM 0.76 33.368 0.179 6.89 -0.39 13.74
12/21/2021 7:45:00 AM 0.73 33.314 0.179 6.89 -0.35 13.76
12/21/2021 8:00:00 AM 0.72 33.296 0.179 6.89 -0.46 13.79
12/21/2021 8:15:00 AM 0.72 33.296 0.179 6.89 -0.4 13.83
12/21/2021 8:30:00 AM 0.74 33.332 0.179 6.89 -0.55 13.88
12/21/2021 8:45:00 AM 0.75 33.35 0.179 6.89 -0.6 13.92
12/21/2021 9:00:00 AM 0.78 33.404 0.179 6.89 -0.44 14
12/21/2021 9:15:00 AM 0.82 33.476 0.179 6.9 0 14.03
12/21/2021 9:30:00 AM 0.87 33.566 0.178 6.9 -0.37 14.08
12/21/2021 9:45:00 AM 0.91 33.638 0.178 6.9 -0.47 14.13
12/21/2021 10:00:00 AM 0.98 33.764 0.178 6.9 -0.47 14.17
12/21/2021 10:15:00 AM 1.05 33.89 0.178 6.91 -0.37 14.19
12/21/2021 10:30:00 AM 1.13 34.034 0.178 6.91 -0.46 14.2
12/21/2021 10:45:00 AM 1.21 34.178 0.178 6.92 -0.41 14.2
12/21/2021 11:00:00 AM 1.3 34.34 0.178 6.92 -0.37 14.21
12/21/2021 11:15:00 AM 1.39 34.502 0.178 6.93 -0.5 14.22
12/21/2021 11:30:00 AM 1.5 34.7 0.178 6.93 -0.35 14.21
12/21/2021 11:45:00 AM 1.62 34.916 0.178 6.94 -0.53 14.22
12/21/2021 12:00:00 PM 1.74 35.132 0.177 6.94 -0.41 14.2
12/21/2021 12:15:00 PM 1.85 35.33 0.177 6.95 -0.47 14.17
12/21/2021 12:30:00 PM 1.95 35.51 0.177 6.96 -0.43 14.18
12/21/2021 12:45:00 PM 2.06 35.708 0.177 6.96 -0.52 14.14
12/21/2021 1:00:00 PM 2.16 35.888 0.177 6.97 -0.4 14.11
12/21/2021 1:15:00 PM 2.26 36.068 0.177 6.97 -0.39 14.09
12/21/2021 1:30:00 PM 2.35 36.23 0.177 6.97 -0.15 14.04
12/21/2021 1:45:00 PM 2.41 36.338 0.177 6.97 -0.38 14.05
12/21/2021 2:00:00 PM 2.48 36.464 0.177 6.98 -0.32 13.99
12/21/2021 2:15:00 PM 2.54 36.572 0.177 6.98 -0.23 13.95
12/21/2021 2:30:00 PM 2.59 36.662 0.177 6.98 -0.26 13.88
12/21/2021 2:45:00 PM 2.65 36.77 0.177 6.98 -0.22 13.85
12/21/2021 3:00:00 PM 2.71 36.878 0.177 6.98 -0.39 13.83
12/21/2021 3:15:00 PM 2.75 36.95 0.177 6.99 -0.18 13.8
12/21/2021 3:30:00 PM 2.79 37.022 0.177 6.99 -0.41 13.74
12/21/2021 3:45:00 PM 2.81 37.058 0.177 6.99 -0.34 13.71
12/21/2021 4:00:00 PM 2.83 37.094 0.177 6.99 -0.36 13.66
12/21/2021 4:15:00 PM 2.84 37.112 0.177 7 -0.24 13.6
12/21/2021 4:30:00 PM 2.85 37.13 0.177 6.99 -0.38 13.53
12/21/2021 4:45:00 PM 2.84 37.112 0.177 7 -0.28 13.5
12/21/2021 5:00:00 PM 2.85 37.13 0.177 6.99 -0.26 13.41
12/21/2021 5:15:00 PM 2.85 37.13 0.177 6.99 -0.38 13.36
12/21/2021 5:30:00 PM 2.86 37.148 0.177 6.99 -0.43 13.3
12/21/2021 5:45:00 PM 2.87 37.166 0.177 6.99 -0.15 13.22
12/21/2021 6:00:00 PM 2.87 37.166 0.177 6.98 -0.29 13.21
12/21/2021 6:15:00 PM 2.88 37.184 0.177 6.98 -0.12 13.19
12/21/2021 6:30:00 PM 2.89 37.202 0.177 6.97 -0.23 13.14
12/21/2021 6:45:00 PM 2.89 37.202 0.177 6.97 -0.35 13.13
12/21/2021 7:00:00 PM 2.89 37.202 0.177 6.97 -0.27 13.12
12/21/2021 7:15:00 PM 2.89 37.202 0.177 6.96 -0.31 13.08
12/21/2021 7:30:00 PM 2.89 37.202 0.177 6.96 -0.15 13.07
12/21/2021 7:45:00 PM 2.89 37.202 0.177 6.95 -0.2 13.06
12/21/2021 8:00:00 PM 2.89 37.202 0.177 6.95 -0.35 13.04
12/21/2021 8:15:00 PM 2.88 37.184 0.177 6.95 -0.25 13.01
12/21/2021 8:30:00 PM 2.88 37.184 0.177 6.95 -0.11 13.01
12/21/2021 8:45:00 PM 2.88 37.184 0.176 6.95 -0.02 13.01
12/21/2021 9:00:00 PM 2.88 37.184 0.176 6.94 0.03 12.99
12/21/2021 9:15:00 PM 2.88 37.184 0.176 6.94 -0.3 12.97
12/21/2021 9:30:00 PM 2.89 37.202 0.176 6.94 -0.25 12.96
12/21/2021 9:45:00 PM 2.89 37.202 0.176 6.94 -0.23 12.95
12/21/2021 10:00:00 PM 2.9 37.22 0.176 6.93 -0.17 12.93
12/21/2021 10:15:00 PM 2.9 37.22 0.176 6.93 -0.26 12.92
12/21/2021 10:30:00 PM 2.91 37.238 0.176 6.93 -0.19 12.9
12/21/2021 10:45:00 PM 2.92 37.256 0.176 6.93 -0.37 12.89
12/21/2021 11:00:00 PM 2.93 37.274 0.176 6.93 -0.02 12.88
12/21/2021 11:15:00 PM 2.94 37.292 0.176 6.92 0.39 12.85
12/21/2021 11:30:00 PM 2.95 37.31 0.176 6.92 -0.34 12.86
12/21/2021 11:45:00 PM 2.96 37.328 0.176 6.92 -0.17 12.85
12/22/2021 12:00:00 AM 2.98 37.364 0.176 6.92 -0.08 12.83
12/22/2021 12:15:00 AM 2.99 37.382 0.176 6.92 -0.35 12.8
12/22/2021 12:30:00 AM 3.01 37.418 0.176 6.92 -0.2 12.8
12/22/2021 12:45:00 AM 3.02 37.436 0.176 6.91 -0.23 12.78
12/22/2021 1:00:00 AM 3.04 37.472 0.176 6.9 -0.33 12.78
12/22/2021 1:15:00 AM 3.05 37.49 0.176 6.89 -0.14 12.76
12/22/2021 1:30:00 AM 3.07 37.526 0.176 6.89 -0.16 12.75
12/22/2021 1:45:00 AM 3.08 37.544 0.176 6.89 -0.07 12.73
12/22/2021 2:00:00 AM 3.1 37.58 0.176 6.89 -0.26 12.72
12/22/2021 2:15:00 AM 3.12 37.616 0.176 6.9 -0.23 12.71
12/22/2021 2:30:00 AM 3.13 37.634 0.176 6.9 -0.18 12.7
12/22/2021 2:45:00 AM 3.15 37.67 0.176 6.9 -0.11 12.69
12/22/2021 3:00:00 AM 3.17 37.706 0.176 6.9 -0.1 12.68
12/22/2021 3:15:00 AM 3.19 37.742 0.176 6.9 -0.24 12.68
12/22/2021 3:30:00 AM 3.2 37.76 0.176 6.9 0 12.63
12/22/2021 3:45:00 AM 3.22 37.796 0.176 6.91 -0.08 12.64
12/22/2021 4:00:00 AM 3.23 37.814 0.176 6.9 -0.21 12.64
12/22/2021 4:15:00 AM 3.24 37.832 0.176 6.91 -0.33 12.63
12/22/2021 4:30:00 AM 3.24 37.832 0.176 6.91 -0.13 12.6
12/22/2021 4:45:00 AM 3.23 37.814 0.176 6.91 -0.09 12.61
12/22/2021 5:00:00 AM 3.23 37.814 0.176 6.91 -0.16 12.58
12/22/2021 5:15:00 AM 3.21 37.778 0.176 6.91 0 12.58
12/22/2021 5:30:00 AM 3.2 37.76 0.176 6.91 0.08 12.59
12/22/2021 5:45:00 AM 3.18 37.724 0.176 6.91 -0.18 12.57
12/22/2021 6:00:00 AM 3.16 37.688 0.176 6.91 -0.1 12.59
12/22/2021 6:15:00 AM 3.15 37.67 0.176 6.91 -0.17 12.58
12/22/2021 6:30:00 AM 3.12 37.616 0.176 6.91 -0.24 12.58
12/22/2021 6:45:00 AM 3.1 37.58 0.176 6.91 -0.14 12.59
12/22/2021 7:00:00 AM 3.08 37.544 0.176 6.91 -0.01 12.57
12/22/2021 7:15:00 AM 3.05 37.49 0.176 6.91 -0.32 12.59
12/22/2021 7:30:00 AM 3.03 37.454 0.176 6.91 -0.28 12.59
12/22/2021 7:45:00 AM 3.01 37.418 0.176 6.91 -0.35 12.59
12/22/2021 8:00:00 AM 2.98 37.364 0.176 6.9 -0.15 12.62
12/22/2021 8:15:00 AM 2.97 37.346 0.176 6.9 -0.29 12.64
12/22/2021 8:30:00 AM 2.96 37.328 0.176 6.9 -0.22 12.67
12/22/2021 8:45:00 AM 2.95 37.31 0.176 6.91 -0.49 12.72
12/22/2021 9:00:00 AM 2.94 37.292 0.176 6.91 -0.28 12.75
12/22/2021 9:15:00 AM 2.95 37.31 0.176 6.91 -0.28 12.81
12/22/2021 9:30:00 AM 2.99 37.382 0.176 6.91 -0.13 12.86
12/22/2021 9:45:00 AM 3.05 37.49 0.176 6.92 -0.19 12.93
12/22/2021 10:00:00 AM 3.1 37.58 0.176 6.92 -0.18 12.97
12/22/2021 10:15:00 AM 3.14 37.652 0.176 6.92 -0.37 13
12/22/2021 10:30:00 AM 3.22 37.796 0.176 6.93 -0.32 13.04
12/22/2021 10:45:00 AM 3.32 37.976 0.175 6.93 -0.14 13.08
12/22/2021 11:00:00 AM 3.42 38.156 0.175 6.94 -0.22 13.1
12/22/2021 11:15:00 AM 3.56 38.408 0.175 6.95 -0.3 13.1
12/22/2021 11:30:00 AM 3.64 38.552 0.175 6.96 -0.28 13.11
12/22/2021 11:45:00 AM 3.73 38.714 0.175 6.97 -0.18 13.11
12/22/2021 12:00:00 PM 3.79 38.822 0.175 6.97 0.02 13.1
12/22/2021 12:15:00 PM 3.88 38.984 0.175 6.97 -0.18 13.08
12/22/2021 12:30:00 PM 3.97 39.146 0.175 6.98 -0.21 13.04
12/22/2021 12:45:00 PM 4.14 39.452 0.175 6.98 -0.16 13.04
12/22/2021 1:00:00 PM 4.28 39.704 0.175 6.99 -0.02 13.02
12/22/2021 1:15:00 PM 4.41 39.938 0.175 6.99 -0.09 13
12/22/2021 1:30:00 PM 4.5 40.1 0.175 7 0.5 12.98
12/22/2021 1:45:00 PM 4.54 40.172 0.175 7.01 -0.09 12.96
12/22/2021 2:00:00 PM 4.54 40.172 0.175 7.02 -0.12 12.92
12/22/2021 2:15:00 PM 4.53 40.154 0.175 7.02 -0.29 12.89
12/22/2021 2:30:00 PM 4.52 40.136 0.175 7.02 -0.21 12.88
12/22/2021 2:45:00 PM 4.53 40.154 0.175 7.02 0.01 12.86
12/22/2021 3:00:00 PM 4.5 40.1 0.175 7.02 -0.1 12.82
12/22/2021 3:15:00 PM 4.47 40.046 0.175 7.02 0.11 12.77
12/22/2021 3:30:00 PM 4.44 39.992 0.175 7.02 -0.08 12.74
12/22/2021 3:45:00 PM 4.4 39.92 0.175 7.02 -0.3 12.72
12/22/2021 4:00:00 PM 4.35 39.83 0.175 7.03 0 12.71
12/22/2021 4:15:00 PM 4.28 39.704 0.176 7.03 0.07 12.7
12/22/2021 4:30:00 PM 4.21 39.578 0.176 7.03 0.02 12.65
12/22/2021 4:45:00 PM 4.14 39.452 0.176 7.02 -0.19 12.65
12/22/2021 5:00:00 PM 4.05 39.29 0.176 7.02 -0.17 12.61
12/22/2021 5:15:00 PM 3.98 39.164 0.176 7.02 -0.16 12.59
12/22/2021 5:30:00 PM 3.91 39.038 0.176 7.01 -0.37 12.55
12/22/2021 5:45:00 PM 3.85 38.93 0.176 7.01 -0.15 12.56
12/22/2021 6:00:00 PM 3.78 38.804 0.176 7 -0.26 12.55
12/22/2021 6:15:00 PM 3.71 38.678 0.176 7 -0.26 12.55
12/22/2021 6:30:00 PM 3.63 38.534 0.176 6.99 -0.19 12.56
12/22/2021 6:45:00 PM 3.55 38.39 0.176 6.99 -0.14 12.58
12/22/2021 7:00:00 PM 3.48 38.264 0.176 6.98 -0.1 12.56
12/22/2021 7:15:00 PM 3.41 38.138 0.176 6.97 -0.19 12.59
12/22/2021 7:30:00 PM 3.35 38.03 0.176 6.97 -0.29 12.6
12/22/2021 7:45:00 PM 3.26 37.868 0.176 6.97 -0.05 12.61
12/22/2021 8:00:00 PM 3.18 37.724 0.176 6.97 -0.2 12.64
12/22/2021 8:15:00 PM 3.14 37.652 0.176 6.96 0.03 12.66
12/22/2021 8:30:00 PM 3.06 37.508 0.176 6.96 -0.17 12.67
12/22/2021 8:45:00 PM 2.99 37.382 0.176 6.96 -0.22 12.71
12/22/2021 9:00:00 PM 2.94 37.292 0.176 6.95 -0.04 12.71
12/22/2021 9:15:00 PM 2.87 37.166 0.176 6.95 -0.12 12.74
12/22/2021 9:30:00 PM 2.79 37.022 0.176 6.95 -0.12 12.77
12/22/2021 9:45:00 PM 2.75 36.95 0.176 6.95 -0.07 12.79
12/22/2021 10:00:00 PM 2.67 36.806 0.176 6.93 0.35 12.8
12/22/2021 10:15:00 PM 2.64 36.752 0.177 6.94 -0.41 12.84
12/22/2021 10:30:00 PM 2.6 36.68 0.177 6.93 -0.36 12.83
12/22/2021 10:45:00 PM 2.55 36.59 0.177 6.92 -0.18 12.84
12/22/2021 11:00:00 PM 2.49 36.482 0.177 6.92 -0.23 12.88
12/22/2021 11:15:00 PM 2.46 36.428 0.177 6.92 -0.09 12.89
12/22/2021 11:30:00 PM 2.42 36.356 0.177 6.92 -0.19 12.89
12/22/2021 11:45:00 PM 2.37 36.266 0.177 6.91 -0.3 12.92
12/23/2021 12:00:00 AM 2.35 36.23 0.177 6.92 -0.06 12.94
12/23/2021 12:15:00 AM 2.31 36.158 0.177 6.91 0.23 12.97
12/23/2021 12:30:00 AM 2.28 36.104 0.177 6.91 -0.05 12.99
12/23/2021 12:45:00 AM 2.23 36.014 0.177 6.91 0.18 12.98
12/23/2021 1:00:00 AM 2.2 35.96 0.177 6.91 -0.12 13.01
12/23/2021 1:15:00 AM 2.16 35.888 0.177 6.91 -0.09 13.03
12/23/2021 1:30:00 AM 2.12 35.816 0.177 6.91 -0.05 13.04
12/23/2021 1:45:00 AM 2.08 35.744 0.177 6.9 -0.04 13.06
12/23/2021 2:00:00 AM 2.03 35.654 0.177 6.9 -0.3 13.1
12/23/2021 2:15:00 AM 1.99 35.582 0.177 6.9 -0.23 13.11
12/23/2021 2:30:00 AM 1.94 35.492 0.177 6.9 -0.02 13.14
12/23/2021 2:45:00 AM 1.91 35.438 0.177 6.9 0.31 13.13
12/23/2021 3:00:00 AM 1.85 35.33 0.177 6.9 -0.01 13.15
12/23/2021 3:15:00 AM 1.82 35.276 0.177 6.9 -0.03 13.19
12/23/2021 3:30:00 AM 1.77 35.186 0.177 6.9 0.48 13.21
12/23/2021 3:45:00 AM 1.73 35.114 0.177 6.9 -0.21 13.22
12/23/2021 4:00:00 AM 1.69 35.042 0.177 6.89 -0.35 13.24
12/23/2021 4:15:00 AM 1.66 34.988 0.177 6.89 -0.33 13.27
12/23/2021 4:30:00 AM 1.62 34.916 0.177 6.89 -0.02 13.28
12/23/2021 4:45:00 AM 1.59 34.862 0.177 6.9 -0.23 13.29
12/23/2021 5:00:00 AM 1.55 34.79 0.177 6.89 -0.24 13.33
12/23/2021 5:15:00 AM 1.51 34.718 0.177 6.89 -0.18 13.34
12/23/2021 5:30:00 AM 1.47 34.646 0.177 6.89 -0.33 13.35
12/23/2021 5:45:00 AM 1.42 34.556 0.177 6.89 -0.48 13.39
12/23/2021 6:00:00 AM 1.39 34.502 0.177 6.88 -0.44 13.39
12/23/2021 6:15:00 AM 1.34 34.412 0.178 6.89 -0.39 13.41
12/23/2021 6:30:00 AM 1.3 34.34 0.177 6.89 -0.34 13.45
12/23/2021 6:45:00 AM 1.25 34.25 0.178 6.88 -0.34 13.46
12/23/2021 7:00:00 AM 1.22 34.196 0.178 6.88 -0.3 13.48
12/23/2021 7:15:00 AM 1.18 34.124 0.178 6.88 -0.26 13.49
12/23/2021 7:30:00 AM 1.15 34.07 0.178 6.88 0.01 13.51
12/23/2021 7:45:00 AM 1.1 33.98 0.178 6.88 0.27 13.54
12/23/2021 8:00:00 AM 1.07 33.926 0.178 6.88 -0.48 13.59
12/23/2021 8:15:00 AM 1.04 33.872 0.178 6.88 -0.23 13.63
12/23/2021 8:30:00 AM 1 33.8 0.178 6.87 -0.42 13.69
12/23/2021 8:45:00 AM 0.97 33.746 0.178 6.87 -0.34 13.74
12/23/2021 9:00:00 AM 0.96 33.728 0.178 6.87 -0.21 13.79
12/23/2021 9:15:00 AM 0.94 33.692 0.178 6.87 -0.43 13.82
12/23/2021 9:30:00 AM 0.93 33.674 0.178 6.88 -0.46 13.86
12/23/2021 9:45:00 AM 0.92 33.656 0.178 6.88 -0.52 13.93
12/23/2021 10:00:00 AM 0.94 33.692 0.178 6.88 -0.48 13.96
12/23/2021 10:15:00 AM 0.96 33.728 0.178 6.88 -0.3 14
12/23/2021 10:30:00 AM 1.02 33.836 0.178 6.88 -0.36 13.99
12/23/2021 10:45:00 AM 1.07 33.926 0.178 6.88 -0.4 14.05
12/23/2021 11:00:00 AM 1.16 34.088 0.177 6.88 -0.52 14.09
12/23/2021 11:15:00 AM 1.29 34.322 0.177 6.89 -0.59 14.12
12/23/2021 11:30:00 AM 1.37 34.466 0.177 6.9 -0.4 14.14
12/23/2021 11:45:00 AM 1.49 34.682 0.177 6.91 -0.3 14.12
12/23/2021 12:00:00 PM 1.63 34.934 0.177 6.92 -0.26 14.13
12/23/2021 12:15:00 PM 1.78 35.204 0.177 6.92 -0.23 14.11
12/23/2021 12:30:00 PM 1.9 35.42 0.177 6.93 -0.29 14.11
12/23/2021 12:45:00 PM 2.04 35.672 0.177 6.95 -0.18 14.08
12/23/2021 1:00:00 PM 2.21 35.978 0.176 6.95 -0.26 14.07
12/23/2021 1:15:00 PM 2.41 36.338 0.176 6.95 -0.4 14.04
12/23/2021 1:30:00 PM 2.48 36.464 0.176 6.95 -0.4 14.03
12/23/2021 1:45:00 PM 2.55 36.59 0.176 6.96 -0.3 14
12/23/2021 2:00:00 PM 2.57 36.626 0.176 6.95 -0.29 13.97
12/23/2021 2:15:00 PM 2.61 36.698 0.176 6.97 -0.27 13.94
12/23/2021 2:30:00 PM 2.66 36.788 0.176 6.97 -0.29 13.91
12/23/2021 2:45:00 PM 2.71 36.878 0.176 6.97 -0.27 13.89
12/23/2021 3:00:00 PM 2.74 36.932 0.176 6.97 -0.38 13.85
12/23/2021 3:15:00 PM 2.75 36.95 0.176 6.97 -0.3 13.82
12/23/2021 3:30:00 PM 2.77 36.986 0.176 6.97 -0.31 13.77
12/23/2021 3:45:00 PM 2.77 36.986 0.176 6.97 -0.47 13.74
12/23/2021 4:00:00 PM 2.75 36.95 0.176 6.98 -0.44 13.68
12/23/2021 4:15:00 PM 2.71 36.878 0.177 6.98 -0.33 13.64
12/23/2021 4:30:00 PM 2.66 36.788 0.177 6.98 -0.3 13.6
12/23/2021 4:45:00 PM 2.61 36.698 0.177 6.99 -0.28 13.58
12/23/2021 5:00:00 PM 2.55 36.59 0.177 7 -0.25 13.53
12/23/2021 5:15:00 PM 2.5 36.5 0.177 6.99 -0.31 13.5
12/23/2021 5:30:00 PM 2.45 36.41 0.177 6.99 -0.13 13.46
12/23/2021 5:45:00 PM 2.38 36.284 0.177 6.99 -0.29 13.41
12/23/2021 6:00:00 PM 2.33 36.194 0.177 6.98 -0.43 13.42
12/23/2021 6:15:00 PM 2.26 36.068 0.177 6.97 -0.33 13.41
12/23/2021 6:30:00 PM 2.22 35.996 0.177 6.97 -0.56 13.4
12/23/2021 6:45:00 PM 2.16 35.888 0.177 6.95 -0.25 13.41
12/23/2021 7:00:00 PM 2.13 35.834 0.177 6.95 -0.15 13.4
12/23/2021 7:15:00 PM 2.1 35.78 0.177 6.95 -0.14 13.41
12/23/2021 7:30:00 PM 2.04 35.672 0.177 6.94 -0.29 13.4
12/23/2021 7:45:00 PM 2 35.6 0.177 6.94 -0.45 13.42
12/23/2021 8:00:00 PM 1.96 35.528 0.177 6.94 -0.37 13.42
12/23/2021 8:15:00 PM 1.9 35.42 0.177 6.93 -0.31 13.42
12/23/2021 8:30:00 PM 1.85 35.33 0.177 6.92 -0.46 13.42
12/23/2021 8:45:00 PM 1.81 35.258 0.177 6.91 -0.23 13.46
12/23/2021 9:00:00 PM 1.77 35.186 0.177 6.91 -0.09 13.46
12/23/2021 9:15:00 PM 1.74 35.132 0.177 6.9 0 13.46
12/23/2021 9:30:00 PM 1.71 35.078 0.177 6.9 -0.32 13.47
12/23/2021 9:45:00 PM 1.68 35.024 0.177 6.89 -0.49 13.49
12/23/2021 10:00:00 PM 1.64 34.952 0.177 6.9 -0.45 13.49
12/23/2021 10:15:00 PM 1.63 34.934 0.177 6.89 -0.28 13.49
12/23/2021 10:30:00 PM 1.59 34.862 0.177 6.89 -0.38 13.5
12/23/2021 10:45:00 PM 1.58 34.844 0.177 6.88 -0.27 13.51
12/23/2021 11:00:00 PM 1.56 34.808 0.177 6.88 -0.24 13.51
12/23/2021 11:15:00 PM 1.54 34.772 0.177 6.89 -0.3 13.5
12/23/2021 11:30:00 PM 1.55 34.79 0.177 6.88 -0.29 13.51
12/23/2021 11:45:00 PM 1.56 34.808 0.177 6.89 -0.48 13.5
12/24/2021 12:00:00 AM 1.57 34.826 0.177 6.88 -0.33 13.5
12/24/2021 12:15:00 AM 1.59 34.862 0.177 6.88 -0.39 13.5
12/24/2021 12:30:00 AM 1.6 34.88 0.177 6.87 -0.28 13.49
12/24/2021 12:45:00 AM 1.62 34.916 0.177 6.87 -0.38 13.49
12/24/2021 1:00:00 AM 1.64 34.952 0.177 6.87 -0.37 13.48
12/24/2021 1:15:00 AM 1.66 34.988 0.177 6.87 -0.48 13.47
12/24/2021 1:30:00 AM 1.69 35.042 0.177 6.88 -0.28 13.44
12/24/2021 1:45:00 AM 1.7 35.06 0.177 6.87 -0.35 13.43
12/24/2021 2:00:00 AM 1.73 35.114 0.177 6.87 -0.33 13.44
12/24/2021 2:15:00 AM 1.74 35.132 0.177 6.87 -0.11 13.44
12/24/2021 2:30:00 AM 1.76 35.168 0.177 6.87 -0.23 13.42
12/24/2021 2:45:00 AM 1.78 35.204 0.177 6.87 -0.42 13.42
12/24/2021 3:00:00 AM 1.8 35.24 0.177 6.87 -0.4 13.4
12/24/2021 3:15:00 AM 1.82 35.276 0.177 6.87 -0.26 13.39
12/24/2021 3:30:00 AM 1.85 35.33 0.177 6.87 -0.21 13.39
12/24/2021 3:45:00 AM 1.86 35.348 0.177 6.87 -0.43 13.37
12/24/2021 4:00:00 AM 1.87 35.366 0.177 6.86 -0.31 13.38
12/24/2021 4:15:00 AM 1.87 35.366 0.177 6.87 -0.57 13.36
12/24/2021 4:30:00 AM 1.85 35.33 0.177 6.87 -0.08 13.35
12/24/2021 4:45:00 AM 1.85 35.33 0.177 6.87 -0.25 13.33
12/24/2021 5:00:00 AM 1.87 35.366 0.177 6.87 -0.02 13.31
12/24/2021 5:15:00 AM 1.87 35.366 0.177 6.87 -0.36 13.32
12/24/2021 5:30:00 AM 1.9 35.42 0.177 6.87 -0.05 13.32
12/24/2021 5:45:00 AM 1.91 35.438 0.177 6.87 -0.12 13.32
12/24/2021 6:00:00 AM 1.93 35.474 0.177 6.86 -0.21 13.31
12/24/2021 6:15:00 AM 1.95 35.51 0.177 6.87 -0.09 13.31
12/24/2021 6:30:00 AM 1.95 35.51 0.177 6.87 -0.44 13.3
12/24/2021 6:45:00 AM 1.94 35.492 0.177 6.87 -0.42 13.29
12/24/2021 7:00:00 AM 1.91 35.438 0.177 6.88 -0.15 13.28
12/24/2021 7:15:00 AM 1.89 35.402 0.177 6.87 -0.22 13.28
12/24/2021 7:30:00 AM 1.85 35.33 0.177 6.89 -0.36 13.3
12/24/2021 7:45:00 AM 1.83 35.294 0.177 6.89 -0.14 13.3
12/24/2021 8:00:00 AM 1.82 35.276 0.177 6.89 -0.45 13.32
12/24/2021 8:15:00 AM 1.8 35.24 0.177 6.89 -0.31 13.31
12/24/2021 8:30:00 AM 1.78 35.204 0.177 6.89 -0.17 13.38
12/24/2021 8:45:00 AM 1.76 35.168 0.177 6.89 -0.35 13.41
12/24/2021 9:00:00 AM 1.77 35.186 0.177 6.88 -0.47 13.43
12/24/2021 9:15:00 AM 1.76 35.168 0.177 6.88 0.06 13.49
12/24/2021 9:30:00 AM 1.76 35.168 0.177 6.88 -0.37 13.5
12/24/2021 9:45:00 AM 1.78 35.204 0.177 6.89 -0.39 13.55
12/24/2021 10:00:00 AM 1.79 35.222 0.177 6.89 -0.27 13.58
12/24/2021 10:15:00 AM 1.82 35.276 0.177 6.88 -0.41 13.6
12/24/2021 10:30:00 AM 1.87 35.366 0.177 6.89 -0.18 13.63
12/24/2021 10:45:00 AM 1.94 35.492 0.177 6.89 -0.5 13.66
12/24/2021 11:00:00 AM 2.05 35.69 0.177 6.89 -0.2 13.7
12/24/2021 11:15:00 AM 2.16 35.888 0.177 6.9 -0.32 13.72
12/24/2021 11:30:00 AM 2.28 36.104 0.177 6.9 -0.35 13.71
12/24/2021 11:45:00 AM 2.4 36.32 0.177 6.89 -0.29 13.72
12/24/2021 12:00:00 PM 2.54 36.572 0.176 6.9 -0.31 13.71
12/24/2021 12:15:00 PM 2.67 36.806 0.176 6.9 -0.33 13.68
12/24/2021 12:30:00 PM 2.79 37.022 0.176 6.91 -0.43 13.68
12/24/2021 12:45:00 PM 2.96 37.328 0.176 6.92 -0.4 13.66
12/24/2021 1:00:00 PM 3.13 37.634 0.176 6.92 0.15 13.62
12/24/2021 1:15:00 PM 3.24 37.832 0.176 6.92 -0.03 13.59
12/24/2021 1:30:00 PM 3.35 38.03 0.176 6.93 -0.1 13.56
12/24/2021 1:45:00 PM 3.48 38.264 0.176 6.94 0.08 13.54
12/24/2021 2:00:00 PM 3.58 38.444 0.176 6.96 -0.13 13.5
12/24/2021 2:15:00 PM 3.66 38.588 0.176 6.96 -0.24 13.46
12/24/2021 2:30:00 PM 3.71 38.678 0.176 6.97 -0.32 13.43
12/24/2021 2:45:00 PM 3.76 38.768 0.176 6.96 -0.26 13.4
12/24/2021 3:00:00 PM 3.79 38.822 0.176 6.97 -0.29 13.33
12/24/2021 3:15:00 PM 3.82 38.876 0.176 6.97 -0.12 13.3
12/24/2021 3:30:00 PM 3.83 38.894 0.176 6.97 0.1 13.24
12/24/2021 3:45:00 PM 3.85 38.93 0.176 6.97 -0.22 13.19
12/24/2021 4:00:00 PM 3.86 38.948 0.176 6.97 -0.12 13.16
12/24/2021 4:15:00 PM 3.87 38.966 0.176 6.98 -0.16 13.11
12/24/2021 4:30:00 PM 3.86 38.948 0.176 6.98 -0.14 13.04
12/24/2021 4:45:00 PM 3.86 38.948 0.176 6.98 -0.07 13.02
12/24/2021 5:00:00 PM 3.85 38.93 0.176 6.98 0.09 12.95
12/24/2021 5:15:00 PM 3.84 38.912 0.176 6.97 -0.08 12.91
12/24/2021 5:30:00 PM 3.84 38.912 0.176 6.97 -0.33 12.86
12/24/2021 5:45:00 PM 3.83 38.894 0.176 6.97 -0.19 12.82
12/24/2021 6:00:00 PM 3.82 38.876 0.176 6.96 -0.22 12.78
12/24/2021 6:15:00 PM 3.8 38.84 0.176 6.95 -0.27 12.77
12/24/2021 6:30:00 PM 3.78 38.804 0.176 6.95 -0.26 12.75
12/24/2021 6:45:00 PM 3.77 38.786 0.176 6.94 -0.31 12.71
12/24/2021 7:00:00 PM 3.74 38.732 0.176 6.94 -0.3 12.7
12/24/2021 7:15:00 PM 3.71 38.678 0.176 6.93 -0.23 12.68
12/24/2021 7:30:00 PM 3.69 38.642 0.176 6.93 -0.09 12.68
12/24/2021 7:45:00 PM 3.67 38.606 0.176 6.94 -0.14 12.65
12/24/2021 8:00:00 PM 3.63 38.534 0.176 6.94 -0.05 12.65
12/24/2021 8:15:00 PM 3.6 38.48 0.176 6.94 -0.13 12.65
12/24/2021 8:30:00 PM 3.56 38.408 0.176 6.93 -0.34 12.66
12/24/2021 8:45:00 PM 3.53 38.354 0.176 6.93 -0.29 12.65
12/24/2021 9:00:00 PM 3.51 38.318 0.176 6.93 0.04 12.64
12/24/2021 9:15:00 PM 3.49 38.282 0.176 6.92 -0.01 12.64
12/24/2021 9:30:00 PM 3.49 38.282 0.176 6.92 -0.04 12.64
12/24/2021 9:45:00 PM 3.48 38.264 0.176 6.91 -0.26 12.63
12/24/2021 10:00:00 PM 3.47 38.246 0.176 6.92 -0.21 12.63
12/24/2021 10:15:00 PM 3.47 38.246 0.176 6.9 -0.14 12.61
12/24/2021 10:30:00 PM 3.46 38.228 0.176 6.89 -0.13 12.63
12/24/2021 10:45:00 PM 3.45 38.21 0.176 6.9 -0.21 12.59
12/24/2021 11:00:00 PM 3.45 38.21 0.176 6.89 0.91 12.61
12/24/2021 11:15:00 PM 3.45 38.21 0.176 6.89 -0.15 12.61
12/24/2021 11:30:00 PM 3.45 38.21 0.176 6.89 -0.15 12.58
12/24/2021 11:45:00 PM 3.46 38.228 0.176 6.88 -0.22 12.6
12/25/2021 12:00:00 AM 3.46 38.228 0.176 6.88 -0.22 12.58
12/25/2021 12:15:00 AM 3.47 38.246 0.176 6.88 -0.3 12.57
12/25/2021 12:30:00 AM 3.48 38.264 0.176 6.89 -0.33 12.57
12/25/2021 12:45:00 AM 3.49 38.282 0.176 6.89 -0.04 12.56
12/25/2021 1:00:00 AM 3.5 38.3 0.176 6.9 -0.03 12.54
12/25/2021 1:15:00 AM 3.51 38.318 0.176 6.9 0.12 12.56
12/25/2021 1:30:00 AM 3.52 38.336 0.176 6.9 -0.16 12.53
12/25/2021 1:45:00 AM 3.53 38.354 0.176 6.89 -0.02 12.55
12/25/2021 2:00:00 AM 3.55 38.39 0.176 6.89 -0.16 12.51
12/25/2021 2:15:00 AM 3.57 38.426 0.176 6.9 -0.26 12.5
12/25/2021 2:30:00 AM 3.59 38.462 0.176 6.89 -0.34 12.5
12/25/2021 2:45:00 AM 3.61 38.498 0.176 6.89 -0.34 12.5
12/25/2021 3:00:00 AM 3.63 38.534 0.176 6.89 -0.25 12.48
12/25/2021 3:15:00 AM 3.65 38.57 0.176 6.89 -0.2 12.48
12/25/2021 3:30:00 AM 3.68 38.624 0.176 6.89 -0.16 12.45
12/25/2021 3:45:00 AM 3.7 38.66 0.176 6.89 -0.03 12.45
12/25/2021 4:00:00 AM 3.72 38.696 0.176 6.88 -0.3 12.44
12/25/2021 4:15:00 AM 3.75 38.75 0.176 6.88 -0.14 12.39
12/25/2021 4:30:00 AM 3.77 38.786 0.176 6.88 -0.2 12.41
12/25/2021 4:45:00 AM 3.8 38.84 0.176 6.88 -0.11 12.41
12/25/2021 5:00:00 AM 3.83 38.894 0.176 6.88 -0.09 12.39
12/25/2021 5:15:00 AM 3.85 38.93 0.176 6.89 0.31 12.37
12/25/2021 5:30:00 AM 3.88 38.984 0.176 6.89 -0.06 12.37
12/25/2021 5:45:00 AM 3.9 39.02 0.176 6.89 -0.15 12.35
12/25/2021 6:00:00 AM 3.92 39.056 0.176 6.89 -0.04 12.32
12/25/2021 6:15:00 AM 3.95 39.11 0.176 6.9 -0.28 12.32
12/25/2021 6:30:00 AM 3.97 39.146 0.176 6.89 -0.2 12.31
12/25/2021 6:45:00 AM 4 39.2 0.176 6.89 -0.08 12.29
12/25/2021 7:00:00 AM 4.02 39.236 0.176 6.89 -0.16 12.28
12/25/2021 7:15:00 AM 4.05 39.29 0.176 6.89 -0.08 12.26
12/25/2021 7:30:00 AM 4.08 39.344 0.176 6.88 -0.12 12.26
12/25/2021 7:45:00 AM 4.1 39.38 0.176 6.88 -0.13 12.26
12/25/2021 8:00:00 AM 4.13 39.434 0.176 6.88 -0.01 12.24
12/25/2021 8:15:00 AM 4.16 39.488 0.176 6.89 -0.11 12.23
12/25/2021 8:30:00 AM 4.2 39.56 0.176 6.88 -0.2 12.25
12/25/2021 8:45:00 AM 4.23 39.614 0.176 6.88 -0.04 12.27
12/25/2021 9:00:00 AM 4.26 39.668 0.176 6.89 -0.17 12.28
12/25/2021 9:15:00 AM 4.3 39.74 0.176 6.89 -0.05 12.3
12/25/2021 9:30:00 AM 4.34 39.812 0.176 6.89 -0.28 12.32
12/25/2021 9:45:00 AM 4.38 39.884 0.176 6.89 -0.25 12.32
12/25/2021 10:00:00 AM 4.43 39.974 0.176 6.9 -0.27 12.35
12/25/2021 10:15:00 AM 4.5 40.1 0.176 6.9 -0.33 12.36
12/25/2021 10:30:00 AM 4.58 40.244 0.176 6.91 -0.16 12.42
12/25/2021 10:45:00 AM 4.65 40.37 0.176 6.92 -0.14 12.46
12/25/2021 11:00:00 AM 4.71 40.478 0.176 6.92 -0.01 12.42
12/25/2021 11:15:00 AM 4.77 40.586 0.176 6.93 -0.09 12.41
12/25/2021 11:30:00 AM 4.85 40.73 0.176 6.92 -0.2 12.39
12/25/2021 11:45:00 AM 4.91 40.838 0.176 6.93 -0.26 12.39
12/25/2021 12:00:00 PM 4.98 40.964 0.176 6.93 -0.15 12.4
12/25/2021 12:15:00 PM 5.06 41.108 0.176 6.94 -0.21 12.38
12/25/2021 12:30:00 PM 5.13 41.234 0.176 6.95 -0.09 12.39
12/25/2021 12:45:00 PM 5.23 41.414 0.176 6.95 0.11 12.4
12/25/2021 1:00:00 PM 5.34 41.612 0.176 6.96 0.1 12.41
12/25/2021 1:15:00 PM 5.49 41.882 0.175 6.97 -0.07 12.41
12/25/2021 1:30:00 PM 5.58 42.044 0.175 6.98 -0.26 12.42
12/25/2021 1:45:00 PM 5.79 42.422 0.175 6.98 0.11 12.39
12/25/2021 2:00:00 PM 5.97 42.746 0.176 6.98 0.01 12.37
12/25/2021 2:15:00 PM 5.99 42.782 0.176 6.99 -0.19 12.38
12/25/2021 2:30:00 PM 6.02 42.836 0.176 7 -0.06 12.29
12/25/2021 2:45:00 PM 6.03 42.854 0.176 7.01 -0.17 12.22
12/25/2021 3:00:00 PM 6.05 42.89 0.176 7.01 -0.08 12.15
12/25/2021 3:15:00 PM 6.08 42.944 0.176 7 -0.1 12.08
12/25/2021 3:30:00 PM 6.11 42.998 0.176 7.01 -0.06 12.03
12/25/2021 3:45:00 PM 6.17 43.106 0.176 7.01 -0.08 11.98
12/25/2021 4:00:00 PM 6.19 43.142 0.176 7.01 0.13 11.92
12/25/2021 4:15:00 PM 6.21 43.178 0.176 7 -0.03 11.88
12/25/2021 4:30:00 PM 6.24 43.232 0.176 7 -0.1 11.81
12/25/2021 4:45:00 PM 6.28 43.304 0.176 7 0.03 11.75
12/25/2021 5:00:00 PM 6.29 43.322 0.176 7 0.03 11.7
12/25/2021 5:15:00 PM 6.31 43.358 0.17 6.99 -0.19 11.66
12/25/2021 5:30:00 PM 6.34 43.412 0.175 6.99 0.02 11.64
12/25/2021 5:45:00 PM 6.35 43.43 0.175 6.99 0.14 11.59
12/25/2021 6:00:00 PM 6.36 43.448 0.175 6.99 0.4 11.57
12/25/2021 6:15:00 PM 6.35 43.43 0.171 6.99 -0.02 11.54
12/25/2021 6:30:00 PM 6.38 43.484 0.17 6.98 -0.19 11.52
12/25/2021 6:45:00 PM 6.4 43.52 0.169 6.97 0.07 11.49
12/25/2021 7:00:00 PM 6.4 43.52 0.171 6.96 -0.12 11.47
12/25/2021 7:15:00 PM 6.42 43.556 0.17 6.95 0.21 11.44
12/25/2021 7:30:00 PM 6.44 43.592 0.169 6.96 0.7 11.44
12/25/2021 7:45:00 PM 6.46 43.628 0.168 6.95 0.14 11.39
12/25/2021 8:00:00 PM 6.46 43.628 0.174 6.96 -0.11 11.41
12/25/2021 8:15:00 PM 6.47 43.646 0.174 6.95 0.09 11.41
12/25/2021 8:30:00 PM 6.48 43.664 0.174 6.95 0.27 11.38
12/25/2021 8:45:00 PM 6.47 43.646 0.174 6.95 0.13 11.37
12/25/2021 9:00:00 PM 6.47 43.646 0.174 6.95 0.16 11.36
12/25/2021 9:15:00 PM 6.47 43.646 0.174 6.94 0.18 11.37
12/25/2021 9:30:00 PM 6.45 43.61 0.174 6.94 0.16 11.31
12/25/2021 9:45:00 PM 6.45 43.61 0.174 6.93 1.74 11.34
12/25/2021 10:00:00 PM 6.45 43.61 0.174 6.93 1.31 11.34
12/25/2021 10:15:00 PM 6.44 43.592 0.174 6.93 0.26 11.34
12/25/2021 10:30:00 PM 6.42 43.556 0.174 6.92 -0.05 11.31
12/25/2021 10:45:00 PM 6.41 43.538 0.174 6.92 0.53 11.33
12/25/2021 11:00:00 PM 6.39 43.502 0.174 6.93 0.06 11.32
12/25/2021 11:15:00 PM 6.37 43.466 0.174 6.93 0.33 11.32
12/25/2021 11:30:00 PM 6.35 43.43 0.174 6.93 -0.03 11.32
12/25/2021 11:45:00 PM 6.34 43.412 0.174 6.93 0.05 11.3
12/26/2021 12:00:00 AM 6.32 43.376 0.174 6.92 0.2 11.33
12/26/2021 12:15:00 AM 6.29 43.322 0.174 6.92 -0.14 11.32
12/26/2021 12:30:00 AM 6.26 43.268 0.174 6.91 0.48 11.31
12/26/2021 12:45:00 AM 6.24 43.232 0.174 6.92 0.21 11.32
12/26/2021 1:00:00 AM 6.21 43.178 0.174 6.91 0.04 11.32
12/26/2021 1:15:00 AM 6.18 43.124 0.174 6.91 -0.06 11.34
12/26/2021 1:30:00 AM 6.15 43.07 0.175 6.92 0.04 11.36
12/26/2021 1:45:00 AM 6.12 43.016 0.175 6.91 0.13 11.36
12/26/2021 2:00:00 AM 6.09 42.962 0.175 6.91 -0.03 11.37
12/26/2021 2:15:00 AM 6.05 42.89 0.175 6.9 -0.13 11.39
12/26/2021 2:30:00 AM 6.02 42.836 0.175 6.91 0.16 11.4
12/26/2021 2:45:00 AM 5.99 42.782 0.175 6.91 0.28 11.4
12/26/2021 3:00:00 AM 5.95 42.71 0.175 6.92 0.28 11.42
12/26/2021 3:15:00 AM 5.92 42.656 0.175 6.92 0.23 11.42
12/26/2021 3:30:00 AM 5.88 42.584 0.175 6.91 -0.13 11.44
12/26/2021 3:45:00 AM 5.85 42.53 0.175 6.91 0.14 11.44
12/26/2021 4:00:00 AM 5.81 42.458 0.175 6.91 0.09 11.47
12/26/2021 4:15:00 AM 5.77 42.386 0.175 6.91 0.04 11.48
12/26/2021 4:30:00 AM 5.73 42.314 0.175 6.91 0.26 11.48
12/26/2021 4:45:00 AM 5.69 42.242 0.175 6.9 -0.07 11.5
12/26/2021 5:00:00 AM 5.68 42.224 0.175 6.91 0.01 11.52
12/26/2021 5:15:00 AM 5.66 42.188 0.175 6.91 -0.05 11.55
12/26/2021 5:30:00 AM 5.65 42.17 0.175 6.91 -0.06 11.54
12/26/2021 5:45:00 AM 5.64 42.152 0.175 6.92 -0.09 11.55
12/26/2021 6:00:00 AM 5.62 42.116 0.175 6.92 -0.1 11.58
12/26/2021 6:15:00 AM 5.61 42.098 0.175 6.92 0.17 11.57
12/26/2021 6:30:00 AM 5.59 42.062 0.175 6.92 1.4 11.57
12/26/2021 6:45:00 AM 5.57 42.026 0.175 6.92 -0.13 11.59
12/26/2021 7:00:00 AM 5.53 41.954 0.175 6.92 0.01 11.61
12/26/2021 7:15:00 AM 5.5 41.9 0.175 6.92 -0.01 11.63
12/26/2021 7:30:00 AM 5.47 41.846 0.175 6.92 0.24 11.63
12/26/2021 7:45:00 AM 5.43 41.774 0.175 6.92 0.09 11.67
12/26/2021 8:00:00 AM 5.4 41.72 0.175 6.92 0.05 11.7
12/26/2021 8:15:00 AM 5.37 41.666 0.175 6.92 -0.02 11.73
12/26/2021 8:30:00 AM 5.34 41.612 0.175 6.93 0.11 11.78
12/26/2021 8:45:00 AM 5.31 41.558 0.175 6.92 -0.01 11.81
12/26/2021 9:00:00 AM 5.31 41.558 0.175 6.93 0.04 11.85
12/26/2021 9:15:00 AM 5.3 41.54 0.175 6.91 0.08 11.88
12/26/2021 9:30:00 AM 5.32 41.576 0.175 6.91 1.07 11.92
12/26/2021 9:45:00 AM 5.34 41.612 0.175 6.92 0.06 11.95
12/26/2021 10:00:00 AM 5.37 41.666 0.175 6.92 0.01 11.99
12/26/2021 10:15:00 AM 5.41 41.738 0.175 6.92 0.08 12.04
12/26/2021 10:30:00 AM 5.44 41.792 0.175 6.93 0.13 12.08
12/26/2021 10:45:00 AM 5.52 41.936 0.175 6.93 -0.02 12.09
12/26/2021 11:00:00 AM 5.62 42.116 0.175 6.94 0.12 12.14
12/26/2021 11:15:00 AM 5.76 42.368 0.175 6.96 0.01 12.16
12/26/2021 11:30:00 AM 5.86 42.548 0.175 6.96 -0.01 12.19
12/26/2021 11:45:00 AM 5.97 42.746 0.175 6.97 0.22 12.21
12/26/2021 12:00:00 PM 6.08 42.944 0.175 6.98 0.01 12.23
12/26/2021 12:15:00 PM 6.18 43.124 0.175 6.99 -0.03 12.23
12/26/2021 12:30:00 PM 6.29 43.322 0.175 7 -0.08 12.23
12/26/2021 12:45:00 PM 6.43 43.574 0.175 7.01 0.05 12.21
12/26/2021 1:00:00 PM 6.6 43.88 0.175 7.01 -0.05 12.21
12/26/2021 1:15:00 PM 6.77 44.186 0.175 7.02 -0.07 12.2
12/26/2021 1:30:00 PM 6.87 44.366 0.175 7.02 0.29 12.19
12/26/2021 1:45:00 PM 7.02 44.636 0.174 7.03 0.12 12.17
12/26/2021 2:00:00 PM 7.01 44.618 0.175 7.03 -0.1 12.14
12/26/2021 2:15:00 PM 7.02 44.636 0.175 7.03 0.01 12.13
12/26/2021 2:30:00 PM 7 44.6 0.175 7.03 -0.01 12.09
12/26/2021 2:45:00 PM 7.02 44.636 0.175 7.04 0.15 12.06
12/26/2021 3:00:00 PM 7.01 44.618 0.175 7.04 0.12 11.99
12/26/2021 3:15:00 PM 6.98 44.564 0.175 7.05 -0.1 11.95
12/26/2021 3:30:00 PM 6.97 44.546 0.175 7.05 0.05 11.89
12/26/2021 3:45:00 PM 6.94 44.492 0.175 7.05 0.12 11.86
12/26/2021 4:00:00 PM 6.9 44.42 0.175 7.05 0.03 11.84
12/26/2021 4:15:00 PM 6.85 44.33 0.175 7.04 -0.09 11.82
12/26/2021 4:30:00 PM 6.8 44.24 0.175 7.04 -0.01 11.79
12/26/2021 4:45:00 PM 6.75 44.15 0.175 7.04 0 11.79
12/26/2021 5:00:00 PM 6.69 44.042 0.175 7.04 0.03 11.77
12/26/2021 5:15:00 PM 6.62 43.916 0.175 7.03 -0.09 11.72
12/26/2021 5:30:00 PM 6.54 43.772 0.175 7.02 -0.05 11.71
12/26/2021 5:45:00 PM 6.48 43.664 0.175 7.02 0.1 11.66
12/26/2021 6:00:00 PM 6.41 43.538 0.175 7.02 0.18 11.65
12/26/2021 6:15:00 PM 6.32 43.376 0.175 7.02 0.39 11.63
12/26/2021 6:30:00 PM 6.25 43.25 0.175 7.01 0.09 11.65
12/26/2021 6:45:00 PM 6.14 43.052 0.175 7.01 0.03 11.64
12/26/2021 7:00:00 PM 6.07 42.926 0.175 7 0.16 11.64
12/26/2021 7:15:00 PM 5.98 42.764 0.175 7 0.04 11.65
12/26/2021 7:30:00 PM 5.89 42.602 0.175 7 0.14 11.66
12/26/2021 7:45:00 PM 5.81 42.458 0.175 7 0.22 11.68
12/26/2021 8:00:00 PM 5.72 42.296 0.175 6.99 0.03 11.71
12/26/2021 8:15:00 PM 5.65 42.17 0.175 6.98 0.4 11.72
12/26/2021 8:30:00 PM 5.57 42.026 0.175 6.96 0.04 11.74
12/26/2021 8:45:00 PM 5.51 41.918 0.175 6.95 0.09 11.77
12/26/2021 9:00:00 PM 5.44 41.792 0.175 6.96 -0.15 11.76
12/26/2021 9:15:00 PM 5.36 41.648 0.175 6.95 0.17 11.8
12/26/2021 9:30:00 PM 5.29 41.522 0.175 6.95 0.93 11.83
12/26/2021 9:45:00 PM 5.23 41.414 0.176 6.96 0.63 11.85
12/26/2021 10:00:00 PM 5.16 41.288 0.176 6.95 -0.12 11.85
12/26/2021 10:15:00 PM 5.1 41.18 0.176 6.95 -0.02 11.89
12/26/2021 10:30:00 PM 5.03 41.054 0.176 6.95 0.71 11.9
12/26/2021 10:45:00 PM 4.96 40.928 0.176 6.95 -0.22 11.93
12/26/2021 11:00:00 PM 4.9 40.82 0.176 6.95 0.31 11.96
12/26/2021 11:15:00 PM 4.85 40.73 0.176 6.94 -0.17 11.96
12/26/2021 11:30:00 PM 4.81 40.658 0.175 6.92 0.02 11.96
12/26/2021 11:45:00 PM 4.74 40.532 0.176 6.92 0.03 12
12/27/2021 12:00:00 AM 4.72 40.496 0.174 6.93 -0.06 12
12/27/2021 12:15:00 AM 4.68 40.424 0.168 6.93 0.01 12.03
12/27/2021 12:30:00 AM 4.62 40.316 0.169 6.93 0 12.06
12/27/2021 12:45:00 AM 4.6 40.28 0.163 6.93 0 12.08
12/27/2021 1:00:00 AM 4.54 40.172 0.172 6.93 0.16 12.09
12/27/2021 1:15:00 AM 4.5 40.1 0.176 6.92 0.28 12.1
12/27/2021 1:30:00 AM 4.44 39.992 0.176 6.93 0.21 12.12
12/27/2021 1:45:00 AM 4.39 39.902 0.176 6.93 -0.04 12.14
12/27/2021 2:00:00 AM 4.35 39.83 0.176 6.93 0.05 12.14
12/27/2021 2:15:00 AM 4.29 39.722 0.176 6.93 0.05 12.16
12/27/2021 2:30:00 AM 4.26 39.668 0.176 6.91 -0.05 12.18
12/27/2021 2:45:00 AM 4.21 39.578 0.176 6.91 -0.05 12.19
12/27/2021 3:00:00 AM 4.18 39.524 0.176 6.91 -0.12 12.22
12/27/2021 3:15:00 AM 4.15 39.47 0.176 6.91 -0.34 12.24
12/27/2021 3:30:00 AM 4.12 39.416 0.176 6.91 0.06 12.24
12/27/2021 3:45:00 AM 4.09 39.362 0.176 6.91 0.07 12.28
12/27/2021 4:00:00 AM 4.08 39.344 0.176 6.91 -0.16 12.27
12/27/2021 4:15:00 AM 4.03 39.254 0.176 6.9 -0.1 12.28
12/27/2021 4:30:00 AM 4.02 39.236 0.176 6.9 -0.03 12.31
12/27/2021 4:45:00 AM 4 39.2 0.167 6.9 -0.09 12.31
12/27/2021 5:00:00 AM 3.99 39.182 0.176 6.91 -0.08 12.31
12/27/2021 5:15:00 AM 3.97 39.146 0.176 6.9 -0.02 12.33
12/27/2021 5:30:00 AM 3.96 39.128 0.176 6.91 -0.17 12.34
12/27/2021 5:45:00 AM 3.94 39.092 0.177 6.9 0.03 12.35
12/27/2021 6:00:00 AM 3.94 39.092 0.176 6.9 0.5 12.35
12/27/2021 6:15:00 AM 3.93 39.074 0.176 6.9 -0.16 12.34
12/27/2021 6:30:00 AM 3.91 39.038 0.176 6.9 0.46 12.37
12/27/2021 6:45:00 AM 3.93 39.074 0.176 6.9 0.14 12.36
12/27/2021 7:00:00 AM 3.91 39.038 0.176 6.91 0.08 12.36
12/27/2021 7:15:00 AM 3.9 39.02 0.176 6.9 -0.02 12.39
12/27/2021 7:30:00 AM 3.9 39.02 0.176 6.9 -0.16 12.39
12/27/2021 7:45:00 AM 3.89 39.002 0.176 6.9 0.18 12.38
12/27/2021 8:00:00 AM 3.89 39.002 0.176 6.89 -0.22 12.41
12/27/2021 8:15:00 AM 3.89 39.002 0.176 6.89 -0.03 12.41
12/27/2021 8:30:00 AM 3.9 39.02 0.176 6.89 -0.11 12.44
12/27/2021 8:45:00 AM 3.91 39.038 0.176 6.9 -0.09 12.46
12/27/2021 9:00:00 AM 3.93 39.074 0.176 6.9 -0.09 12.49
12/27/2021 9:15:00 AM 3.95 39.11 0.176 6.9 0.06 12.53
12/27/2021 9:30:00 AM 3.97 39.146 0.176 6.9 -0.08 12.55
12/27/2021 9:45:00 AM 4 39.2 0.177 6.9 -0.2 12.58
12/27/2021 10:00:00 AM 4.02 39.236 0.177 6.91 0 12.61
12/27/2021 10:15:00 AM 4.03 39.254 0.177 6.91 -0.08 12.64
12/27/2021 10:30:00 AM 4.04 39.272 0.177 6.92 -0.05 12.66
12/27/2021 10:45:00 AM 4.02 39.236 0.177 6.92 -0.1 12.65
12/27/2021 11:00:00 AM 3.91 39.038 0.177 6.94 -0.04 12.66
12/27/2021 11:15:00 AM 3.76 38.768 0.176 6.95 0.27 12.68
12/27/2021 11:30:00 AM 3.67 38.606 0.176 6.96 -0.07 12.66
12/27/2021 11:45:00 AM 3.51 38.318 0.176 6.96 -0.18 12.7
12/27/2021 12:00:00 PM 3.39 38.102 0.175 6.96 -0.22 12.74
12/27/2021 12:15:00 PM 3.32 37.976 0.175 6.96 -0.14 12.77
12/27/2021 12:30:00 PM 3.29 37.922 0.175 6.95 -0.06 12.83
12/27/2021 12:45:00 PM 3.32 37.976 0.175 6.95 -0.14 12.84
12/27/2021 1:00:00 PM 3.36 38.048 0.174 6.94 -0.2 12.89
12/27/2021 1:15:00 PM 3.41 38.138 0.174 6.94 -0.08 12.91
12/27/2021 1:30:00 PM 3.45 38.21 0.174 6.93 -0.17 12.97
12/27/2021 1:45:00 PM 3.5 38.3 0.174 6.93 -0.27 13
12/27/2021 2:00:00 PM 3.54 38.372 0.174 6.93 -0.12 13.01
12/27/2021 2:15:00 PM 3.57 38.426 0.174 6.94 -0.17 13.01
12/27/2021 2:30:00 PM 3.59 38.462 0.174 6.94 0.04 13.04
12/27/2021 2:45:00 PM 3.6 38.48 0.174 6.95 0.57 13.03
12/27/2021 3:00:00 PM 3.61 38.498 0.174 6.95 -0.19 13.06
12/27/2021 3:15:00 PM 3.61 38.498 0.174 6.97 -0.29 13.03
12/27/2021 3:30:00 PM 3.62 38.516 0.174 6.97 -0.1 13.02
12/27/2021 3:45:00 PM 3.61 38.498 0.174 6.97 -0.07 13.01
12/27/2021 4:00:00 PM 3.61 38.498 0.174 6.97 -0.22 12.97
12/27/2021 4:15:00 PM 3.6 38.48 0.174 6.97 -0.05 12.93
12/27/2021 4:30:00 PM 3.59 38.462 0.174 6.97 -0.16 12.92
12/27/2021 4:45:00 PM 3.6 38.48 0.174 6.97 0.01 12.87
12/27/2021 5:00:00 PM 3.6 38.48 0.174 6.96 -0.17 12.83
12/27/2021 5:15:00 PM 3.6 38.48 0.174 6.95 0.02 12.79
12/27/2021 5:30:00 PM 3.61 38.498 0.174 6.94 -0.12 12.78
12/27/2021 5:45:00 PM 3.61 38.498 0.174 6.94 -0.08 12.76
12/27/2021 6:00:00 PM 3.62 38.516 0.174 6.94 1.54 12.72
12/27/2021 6:15:00 PM 3.64 38.552 0.174 6.94 -0.18 12.7
12/27/2021 6:30:00 PM 3.65 38.57 0.174 6.94 -0.22 12.68
12/27/2021 6:45:00 PM 3.66 38.588 0.174 6.94 -0.19 12.66
12/27/2021 7:00:00 PM 3.66 38.588 0.174 6.94 0.08 12.63
12/27/2021 7:15:00 PM 3.67 38.606 0.174 6.94 0.16 12.62
12/27/2021 7:30:00 PM 3.67 38.606 0.174 6.94 0.02 12.61
12/27/2021 7:45:00 PM 3.67 38.606 0.174 6.94 0.55 12.6
12/27/2021 8:00:00 PM 3.67 38.606 0.174 6.94 -0.08 12.58
12/27/2021 8:15:00 PM 3.67 38.606 0.174 6.93 -0.2 12.58
12/27/2021 8:30:00 PM 3.67 38.606 0.174 6.93 -0.08 12.57
12/27/2021 8:45:00 PM 3.66 38.588 0.174 6.93 -0.13 12.57
12/27/2021 9:00:00 PM 3.65 38.57 0.174 6.92 0.14 12.55
12/27/2021 9:15:00 PM 3.65 38.57 0.175 6.92 0.04 12.56
12/27/2021 9:30:00 PM 3.64 38.552 0.175 6.91 -0.07 12.56
12/27/2021 9:45:00 PM 3.64 38.552 0.175 6.91 0.05 12.54
12/27/2021 10:00:00 PM 3.63 38.534 0.175 6.92 0.11 12.55
12/27/2021 10:15:00 PM 3.62 38.516 0.175 6.92 -0.27 12.55
12/27/2021 10:30:00 PM 3.61 38.498 0.175 6.92 -0.12 12.54
12/27/2021 10:45:00 PM 3.61 38.498 0.175 6.92 -0.18 12.55
12/27/2021 11:00:00 PM 3.6 38.48 0.174 6.92 -0.15 12.55
12/27/2021 11:15:00 PM 3.59 38.462 0.174 6.91 0.21 12.55
12/27/2021 11:30:00 PM 3.59 38.462 0.174 6.91 -0.05 12.54
12/27/2021 11:45:00 PM 3.59 38.462 0.174 6.91 -0.08 12.55
12/28/2021 12:00:00 AM 3.58 38.444 0.174 6.91 -0.14 12.53
12/28/2021 12:15:00 AM 3.57 38.426 0.174 6.9 -0.2 12.55
12/28/2021 12:30:00 AM 3.57 38.426 0.174 6.9 0 12.53
12/28/2021 12:45:00 AM 3.57 38.426 0.174 6.9 0 12.51
12/28/2021 1:00:00 AM 3.57 38.426 0.174 6.91 0.01 12.53
12/28/2021 1:15:00 AM 3.57 38.426 0.174 6.91 -0.07 12.52
12/28/2021 1:30:00 AM 3.58 38.444 0.174 6.91 0 12.51
12/28/2021 1:45:00 AM 3.58 38.444 0.174 6.91 0 12.51
12/28/2021 2:00:00 AM 3.57 38.426 0.174 6.91 0 12.52
12/28/2021 2:15:00 AM 3.56 38.408 0.173 6.91 0.12 12.53
12/28/2021 2:30:00 AM 3.55 38.39 0.174 6.91 0.16 12.52
12/28/2021 2:45:00 AM 3.55 38.39 0.174 6.91 -0.28 12.52
12/28/2021 3:00:00 AM 3.53 38.354 0.174 6.9 -0.08 12.52
12/28/2021 3:15:00 AM 3.51 38.318 0.174 6.91 -0.17 12.53
12/28/2021 3:30:00 AM 3.49 38.282 0.174 6.89 0.09 12.5
12/28/2021 3:45:00 AM 3.46 38.228 0.174 6.89 -0.1 12.53
12/28/2021 4:00:00 AM 3.44 38.192 0.174 6.89 -0.07 12.53
12/28/2021 4:15:00 AM 3.41 38.138 0.174 6.89 -0.12 12.55
12/28/2021 4:30:00 AM 3.39 38.102 0.174 6.89 0 12.57
12/28/2021 4:45:00 AM 3.37 38.066 0.174 6.9 -0.11 12.57
12/28/2021 5:00:00 AM 3.35 38.03 0.175 6.9 -0.24 12.57
12/28/2021 5:15:00 AM 3.32 37.976 0.175 6.9 -0.15 12.54
12/28/2021 5:30:00 AM 3.3 37.94 0.175 6.9 -0.05 12.56
12/28/2021 5:45:00 AM 3.28 37.904 0.175 6.9 -0.05 12.58
12/28/2021 6:00:00 AM 3.26 37.868 0.175 6.9 0.46 12.58
12/28/2021 6:15:00 AM 3.24 37.832 0.175 6.9 0.1 12.6
12/28/2021 6:30:00 AM 3.21 37.778 0.175 6.89 -0.11 12.62
12/28/2021 6:45:00 AM 3.17 37.706 0.175 6.9 -0.28 12.6
12/28/2021 7:00:00 AM 3.15 37.67 0.175 6.9 -0.15 12.62
12/28/2021 7:15:00 AM 3.14 37.652 0.175 6.9 -0.22 12.64
12/28/2021 7:30:00 AM 3.11 37.598 0.175 6.89 0.54 12.65
12/28/2021 7:45:00 AM 3.12 37.616 0.175 6.9 -0.07 12.68
12/28/2021 8:00:00 AM 3.13 37.634 0.175 6.89 -0.2 12.69
12/28/2021 8:15:00 AM 3.13 37.634 0.175 6.89 -0.07 12.71
12/28/2021 8:30:00 AM 3.14 37.652 0.175 6.89 -0.17 12.75
12/28/2021 8:45:00 AM 3.15 37.67 0.175 6.88 -0.35 12.78
12/28/2021 9:00:00 AM 3.18 37.724 0.175 6.88 -0.06 12.83
12/28/2021 9:15:00 AM 3.2 37.76 0.175 6.88 -0.17 12.89
12/28/2021 9:30:00 AM 3.23 37.814 0.175 6.88 -0.22 12.93
12/28/2021 9:45:00 AM 3.28 37.904 0.175 6.89 -0.18 12.97
12/28/2021 10:00:00 AM 3.31 37.958 0.175 6.89 -0.21 13
12/28/2021 10:15:00 AM 3.35 38.03 0.175 6.9 0.13 13.03
12/28/2021 10:30:00 AM 3.39 38.102 0.175 6.9 -0.07 13.04
12/28/2021 10:45:00 AM 3.42 38.156 0.175 6.9 -0.13 13.04
12/28/2021 11:00:00 AM 3.45 38.21 0.175 6.91 -0.16 13.04
12/28/2021 11:15:00 AM 3.47 38.246 0.175 6.92 -0.05 13.02
12/28/2021 11:30:00 AM 3.49 38.282 0.175 6.93 -0.23 13.01
12/28/2021 11:45:00 AM 3.52 38.336 0.175 6.94 -0.27 13.01
12/28/2021 12:00:00 PM 3.55 38.39 0.175 6.94 -0.09 12.99
12/28/2021 12:15:00 PM 3.59 38.462 0.175 6.94 0.3 13
12/28/2021 12:30:00 PM 3.65 38.57 0.175 6.94 -0.19 13.01
12/28/2021 12:45:00 PM 3.71 38.678 0.175 6.95 -0.09 13.02
12/28/2021 1:00:00 PM 3.78 38.804 0.175 6.95 -0.15 13.03
12/28/2021 1:15:00 PM 3.85 38.93 0.175 6.94 0.15 13.03
12/28/2021 1:30:00 PM 3.94 39.092 0.175 6.94 0.41 13.05
12/28/2021 1:45:00 PM 4 39.2 0.175 6.95 -0.11 13.04
12/28/2021 2:00:00 PM 4.07 39.326 0.175 6.95 -0.06 13.02
12/28/2021 2:15:00 PM 4.12 39.416 0.175 6.96 -0.23 13.01
12/28/2021 2:30:00 PM 4.16 39.488 0.176 6.95 -0.23 12.97
12/28/2021 2:45:00 PM 4.19 39.542 0.176 6.96 -0.01 12.93
12/28/2021 3:00:00 PM 4.22 39.596 0.176 6.96 -0.2 12.91
12/28/2021 3:15:00 PM 4.25 39.65 0.176 6.97 -0.25 12.89
12/28/2021 3:30:00 PM 4.27 39.686 0.176 6.97 0.02 12.83
12/28/2021 3:45:00 PM 4.3 39.74 0.176 6.98 -0.1 12.77
12/28/2021 4:00:00 PM 4.31 39.758 0.176 6.98 0.11 12.76
12/28/2021 4:15:00 PM 4.34 39.812 0.176 6.98 0.03 12.72
12/28/2021 4:30:00 PM 4.35 39.83 0.176 6.97 0.06 12.68
12/28/2021 4:45:00 PM 4.36 39.848 0.176 6.97 -0.08 12.63
12/28/2021 5:00:00 PM 4.37 39.866 0.176 6.97 -0.11 12.6
12/28/2021 5:15:00 PM 4.38 39.884 0.176 6.97 0.79 12.54
12/28/2021 5:30:00 PM 4.39 39.902 0.176 6.96 -0.09 12.51
12/28/2021 5:45:00 PM 4.4 39.92 0.176 6.96 -0.08 12.48
12/28/2021 6:00:00 PM 4.41 39.938 0.176 6.94 -0.3 12.45
12/28/2021 6:15:00 PM 4.42 39.956 0.176 6.94 -0.11 12.43
12/28/2021 6:30:00 PM 4.43 39.974 0.176 6.95 0.21 12.42
12/28/2021 6:45:00 PM 4.44 39.992 0.176 6.95 0.09 12.38
12/28/2021 7:00:00 PM 4.45 40.01 0.176 6.95 0.26 12.35
12/28/2021 7:15:00 PM 4.46 40.028 0.176 6.94 0.48 12.34
12/28/2021 7:30:00 PM 4.47 40.046 0.176 6.94 0.29 12.32
12/28/2021 7:45:00 PM 4.47 40.046 0.176 6.93 0.37 12.31
12/28/2021 8:00:00 PM 4.48 40.064 0.176 6.93 0.65 12.3
12/28/2021 8:15:00 PM 4.48 40.064 0.176 6.93 0.11 12.27
12/28/2021 8:30:00 PM 4.49 40.082 0.176 6.93 0.19 12.28
12/28/2021 8:45:00 PM 4.49 40.082 0.176 6.93 0.48 12.26
12/28/2021 9:00:00 PM 4.5 40.1 0.176 6.91 0 12.25
12/28/2021 9:15:00 PM 4.51 40.118 0.176 6.92 0.2 12.24
12/28/2021 9:30:00 PM 4.51 40.118 0.176 6.92 0.33 12.23
12/28/2021 9:45:00 PM 4.52 40.136 0.176 6.91 0.16 12.22
12/28/2021 10:00:00 PM 4.53 40.154 0.176 6.91 0.11 12.19
12/28/2021 10:15:00 PM 4.54 40.172 0.176 6.91 0.18 12.19
12/28/2021 10:30:00 PM 4.55 40.19 0.176 6.91 0.04 12.19
12/28/2021 10:45:00 PM 4.55 40.19 0.177 6.91 0.32 12.19
12/28/2021 11:00:00 PM 4.56 40.208 0.177 6.92 -0.07 12.18
12/28/2021 11:15:00 PM 4.57 40.226 0.177 6.92 -0.16 12.17
12/28/2021 11:30:00 PM 4.58 40.244 0.177 6.92 -0.15 12.18
12/28/2021 11:45:00 PM 4.59 40.262 0.177 6.91 -0.02 12.16
12/29/2021 12:00:00 AM 4.6 40.28 0.177 6.91 0.1 12.15
12/29/2021 12:15:00 AM 4.62 40.316 0.177 6.9 -0.11 12.13
12/29/2021 12:30:00 AM 4.63 40.334 0.177 6.9 0.33 12.11
12/29/2021 12:45:00 AM 4.64 40.352 0.177 6.91 -0.17 12.09
12/29/2021 1:00:00 AM 4.65 40.37 0.177 6.9 0.02 12.1
12/29/2021 1:15:00 AM 4.67 40.406 0.177 6.9 0.7 12.1
12/29/2021 1:30:00 AM 4.68 40.424 0.177 6.91 -0.09 12.08
12/29/2021 1:45:00 AM 4.7 40.46 0.178 6.91 -0.04 12.07
12/29/2021 2:00:00 AM 4.71 40.478 0.178 6.91 0 12.06
12/29/2021 2:15:00 AM 4.73 40.514 0.178 6.91 -0.07 12.07
12/29/2021 2:30:00 AM 4.74 40.532 0.178 6.91 0.03 12.05
12/29/2021 2:45:00 AM 4.75 40.55 0.178 6.91 0 12.04
12/29/2021 3:00:00 AM 4.76 40.568 0.178 6.91 0 12.03
12/29/2021 3:15:00 AM 4.77 40.586 0.178 6.91 1.02 12.03
12/29/2021 3:30:00 AM 4.78 40.604 0.179 6.92 0.2 12.03
12/29/2021 3:45:00 AM 4.79 40.622 0.179 6.92 0.37 12.02
12/29/2021 4:00:00 AM 4.8 40.64 0.179 6.91 -0.08 12.01
12/29/2021 4:15:00 AM 4.81 40.658 0.179 6.91 -0.18 12.01
12/29/2021 4:30:00 AM 4.83 40.694 0.179 6.9 0.14 11.99
12/29/2021 4:45:00 AM 4.84 40.712 0.18 6.91 -0.13 11.99
12/29/2021 5:00:00 AM 4.86 40.748 0.18 6.91 -0.03 12
12/29/2021 5:15:00 AM 4.87 40.766 0.18 6.91 -0.17 11.96
12/29/2021 5:30:00 AM 4.88 40.784 0.18 6.91 0.04 11.98
12/29/2021 5:45:00 AM 4.9 40.82 0.181 6.91 -0.01 11.96
12/29/2021 6:00:00 AM 4.91 40.838 0.181 6.91 -0.06 11.96
12/29/2021 6:15:00 AM 4.92 40.856 0.181 6.91 -0.07 11.96
12/29/2021 6:30:00 AM 4.93 40.874 0.182 6.91 0.44 11.94
12/29/2021 6:45:00 AM 4.94 40.892 0.182 6.91 0.6 11.95
12/29/2021 7:00:00 AM 4.95 40.91 0.182 6.9 -0.1 11.94
12/29/2021 7:15:00 AM 4.96 40.928 0.182 6.9 -0.19 11.95
12/29/2021 7:30:00 AM 4.97 40.946 0.183 6.91 0 11.96
12/29/2021 7:45:00 AM 4.98 40.964 0.183 6.91 1 11.95
12/29/2021 8:00:00 AM 4.99 40.982 0.183 6.91 0.64 11.96
12/29/2021 8:15:00 AM 5 41 0.184 6.91 0.3 11.93
12/29/2021 8:30:00 AM 5.01 41.018 0.184 6.9 -0.05 11.97
12/29/2021 8:45:00 AM 5.03 41.054 0.185 6.9 0 11.99
12/29/2021 9:00:00 AM 5.06 41.108 0.185 6.91 -0.18 12.03
12/29/2021 9:15:00 AM 5.09 41.162 0.186 6.91 -0.16 12.07
12/29/2021 9:30:00 AM 5.12 41.216 0.186 6.91 -0.21 12.11
12/29/2021 9:45:00 AM 5.17 41.306 0.186 6.93 0 12.15
12/29/2021 10:00:00 AM 5.23 41.414 0.187 6.93 0 12.2
12/29/2021 10:15:00 AM 5.28 41.504 0.187 6.94 -0.14 12.25
12/29/2021 10:30:00 AM 5.35 41.63 0.188 6.95 -0.05 12.27
12/29/2021 10:45:00 AM 5.41 41.738 0.188 6.95 -0.07 12.31
12/29/2021 11:00:00 AM 5.5 41.9 0.189 6.96 0.01 12.33
12/29/2021 11:15:00 AM 5.57 42.026 0.189 6.95 0.16 12.36
12/29/2021 11:30:00 AM 5.65 42.17 0.19 6.96 0.02 12.36
12/29/2021 11:45:00 AM 5.73 42.314 0.19 6.97 0.41 12.38
12/29/2021 12:00:00 PM 5.89 42.602 0.19 6.98 0.31 12.4
12/29/2021 12:15:00 PM 5.97 42.746 0.191 6.99 0.23 12.41
12/29/2021 12:30:00 PM 6.04 42.872 0.191 6.98 -0.08 12.42
12/29/2021 12:45:00 PM 6.14 43.052 0.191 7 -0.09 12.38
12/29/2021 1:00:00 PM 6.2 43.16 0.191 7.01 -0.12 12.38
12/29/2021 1:15:00 PM 6.24 43.232 0.192 7.01 -0.03 12.35
12/29/2021 1:30:00 PM 6.34 43.412 0.192 7.02 -0.02 12.31
12/29/2021 1:45:00 PM 6.38 43.484 0.192 7.01 0.21 12.34
12/29/2021 2:00:00 PM 6.41 43.538 0.192 7.02 0 12.31
12/29/2021 2:15:00 PM 6.48 43.664 0.192 7.02 0.08 12.27
12/29/2021 2:30:00 PM 6.53 43.754 0.192 7.03 -0.01 12.25
12/29/2021 2:45:00 PM 6.59 43.862 0.192 7.03 0.01 12.24
12/29/2021 3:00:00 PM 6.66 43.988 0.192 7.04 0.89 12.22
12/29/2021 3:15:00 PM 6.69 44.042 0.192 7.04 0 12.19
12/29/2021 3:30:00 PM 6.7 44.06 0.192 7.04 0.3 12.16
12/29/2021 3:45:00 PM 6.72 44.096 0.192 7.03 -0.06 12.1
12/29/2021 4:00:00 PM 6.72 44.096 0.192 7.03 0.01 12.09
12/29/2021 4:15:00 PM 6.7 44.06 0.192 7.03 0.24 12.07
12/29/2021 4:30:00 PM 6.68 44.024 0.192 7.03 0.15 12.01
12/29/2021 4:45:00 PM 6.66 43.988 0.192 7.03 0.19 11.96
12/29/2021 5:00:00 PM 6.63 43.934 0.192 7.03 0.17 11.91
12/29/2021 5:15:00 PM 6.6 43.88 0.192 7.03 0.19 11.84
12/29/2021 5:30:00 PM 6.58 43.844 0.192 7.02 0 11.78
12/29/2021 5:45:00 PM 6.55 43.79 0.191 7.02 0.19 11.73
12/29/2021 6:00:00 PM 6.53 43.754 0.191 7.02 0.72 11.7
12/29/2021 6:15:00 PM 6.51 43.718 0.191 7.02 0.4 11.67
12/29/2021 6:30:00 PM 6.49 43.682 0.191 7.01 0.79 11.66
12/29/2021 6:45:00 PM 6.47 43.646 0.191 7 0.99 11.63
12/29/2021 7:00:00 PM 6.45 43.61 0.191 7 0.86 11.62
12/29/2021 7:15:00 PM 6.43 43.574 0.19 7 0.74 11.61
12/29/2021 7:30:00 PM 6.41 43.538 0.19 6.99 0.69 11.59
12/29/2021 7:45:00 PM 6.39 43.502 0.19 6.98 0.46 11.58
12/29/2021 8:00:00 PM 6.37 43.466 0.19 6.98 0.33 11.57
12/29/2021 8:15:00 PM 6.34 43.412 0.19 6.98 0.32 11.58
12/29/2021 8:30:00 PM 6.32 43.376 0.189 6.98 0.45 11.57
12/29/2021 8:45:00 PM 6.31 43.358 0.189 6.97 0.48 11.57
12/29/2021 9:00:00 PM 6.3 43.34 0.189 6.97 0.09 11.58
12/29/2021 9:15:00 PM 6.28 43.304 0.189 6.96 0.08 11.56
12/29/2021 9:30:00 PM 6.28 43.304 0.189 6.96 0.68 11.56
12/29/2021 9:45:00 PM 6.27 43.286 0.189 6.96 0.55 11.54
12/29/2021 10:00:00 PM 6.25 43.25 0.189 6.95 0.2 11.55
12/29/2021 10:15:00 PM 6.24 43.232 0.188 6.95 0.25 11.55
12/29/2021 10:30:00 PM 6.23 43.214 0.188 6.95 0.09 11.54
12/29/2021 10:45:00 PM 6.23 43.214 0.188 6.94 0.08 11.54
12/29/2021 11:00:00 PM 6.23 43.214 0.188 6.94 0.84 11.54
12/29/2021 11:15:00 PM 6.23 43.214 0.188 6.94 0.12 11.54
12/29/2021 11:30:00 PM 6.22 43.196 0.188 6.94 0.75 11.53
12/29/2021 11:45:00 PM 6.23 43.214 0.182 6.94 0.3 11.53
12/30/2021 12:00:00 AM 6.23 43.214 0.185 6.94 0.3 11.51
12/30/2021 12:15:00 AM 6.23 43.214 0.187 6.94 0.06 11.51
12/30/2021 12:30:00 AM 6.23 43.214 0.187 6.94 0.22 11.54
12/30/2021 12:45:00 AM 6.24 43.232 0.186 6.94 0.04 11.52
12/30/2021 1:00:00 AM 6.24 43.232 0.186 6.95 -0.07 11.5
12/30/2021 1:15:00 AM 6.25 43.25 0.186 6.94 -0.01 11.52
12/30/2021 1:30:00 AM 6.26 43.268 0.185 6.94 0.14 11.52
12/30/2021 1:45:00 AM 6.26 43.268 0.185 6.94 0 11.52
12/30/2021 2:00:00 AM 6.27 43.286 0.184 6.94 0.42 11.51
12/30/2021 2:15:00 AM 6.27 43.286 0.184 6.94 0.04 11.5
12/30/2021 2:30:00 AM 6.28 43.304 0.184 6.94 0.89 11.49
12/30/2021 2:45:00 AM 6.29 43.322 0.184 6.94 0.32 11.48
12/30/2021 3:00:00 AM 6.3 43.34 0.184 6.93 0.05 11.48
12/30/2021 3:15:00 AM 6.3 43.34 0.184 6.93 0.5 11.48
12/30/2021 3:30:00 AM 6.32 43.376 0.182 6.92 0.08 11.47
12/30/2021 3:45:00 AM 6.32 43.376 0.18 6.93 0.14 11.47
12/30/2021 4:00:00 AM 6.33 43.394 0.177 6.92 0.62 11.45
12/30/2021 4:15:00 AM 6.34 43.412 0.177 6.93 0.49 11.46
12/30/2021 4:30:00 AM 6.36 43.448 0.177 6.92 0.04 11.44
12/30/2021 4:45:00 AM 6.37 43.466 0.177 6.92 0.05 11.44
12/30/2021 5:00:00 AM 6.38 43.484 0.177 6.92 0.38 11.43
12/30/2021 5:15:00 AM 6.39 43.502 0.176 6.92 0.4 11.43
12/30/2021 5:30:00 AM 6.4 43.52 0.175 6.92 0.04 11.45
12/30/2021 5:45:00 AM 6.42 43.556 0.174 6.92 0.01 11.43
12/30/2021 6:00:00 AM 6.42 43.556 0.174 6.91 -0.06 11.42
12/30/2021 6:15:00 AM 6.44 43.592 0.174 6.92 -0.14 11.41
12/30/2021 6:30:00 AM 6.45 43.61 0.173 6.92 0.45 11.4
12/30/2021 6:45:00 AM 6.46 43.628 0.175 6.92 0.02 11.42
12/30/2021 7:00:00 AM 6.47 43.646 0.175 6.92 1.48 11.41
12/30/2021 7:15:00 AM 6.48 43.664 0.175 6.91 0.18 11.42
12/30/2021 7:30:00 AM 6.49 43.682 0.175 6.91 0.23 11.41
12/30/2021 7:45:00 AM 6.5 43.7 0.178 6.91 0.08 11.4
12/30/2021 8:00:00 AM 6.51 43.718 0.178 6.91 0.98 11.41
12/30/2021 8:15:00 AM 6.53 43.754 0.178 6.91 0.38 11.39
12/30/2021 8:30:00 AM 6.54 43.772 0.178 6.91 0.22 11.43
12/30/2021 8:45:00 AM 6.57 43.826 0.178 6.91 0.14 11.47
12/30/2021 9:00:00 AM 6.59 43.862 0.18 6.91 0.29 11.5
12/30/2021 9:15:00 AM 6.61 43.898 0.18 6.91 0.1 11.54
12/30/2021 9:30:00 AM 6.63 43.934 0.18 6.92 -0.05 11.54
12/30/2021 9:45:00 AM 6.67 44.006 0.18 6.92 0.42 11.59
12/30/2021 10:00:00 AM 6.7 44.06 0.18 6.93 0.23 11.62
12/30/2021 10:15:00 AM 6.74 44.132 0.181 6.93 0.35 11.67
12/30/2021 10:30:00 AM 6.79 44.222 0.181 6.94 0.14 11.71
12/30/2021 10:45:00 AM 6.83 44.294 0.181 6.94 0.03 11.74
12/30/2021 11:00:00 AM 6.89 44.402 0.181 6.95 0.17 11.77
12/30/2021 11:15:00 AM 6.96 44.528 0.181 6.96 0.13 11.81
12/30/2021 11:30:00 AM 7.02 44.636 0.18 6.97 0.22 11.82
12/30/2021 11:45:00 AM 7.09 44.762 0.18 6.97 0.1 11.85
12/30/2021 12:00:00 PM 7.15 44.87 0.18 6.98 0.26 11.86
12/30/2021 12:15:00 PM 7.25 45.05 0.18 6.98 0.04 11.87
12/30/2021 12:30:00 PM 7.33 45.194 0.18 6.99 0.49 11.9
12/30/2021 12:45:00 PM 7.4 45.32 0.18 7 0.67 11.89
12/30/2021 1:00:00 PM 7.46 45.428 0.18 7 0.19 11.88
12/30/2021 1:15:00 PM 7.51 45.518 0.18 7.01 0.32 11.85
12/30/2021 1:30:00 PM 7.56 45.608 0.18 7.02 0.58 11.82
12/30/2021 1:45:00 PM 7.61 45.698 0.18 7.03 0.18 11.82
12/30/2021 2:00:00 PM 7.64 45.752 0.18 7.03 0.45 11.79
12/30/2021 2:15:00 PM 7.67 45.806 0.18 7.03 0.32 11.75
12/30/2021 2:30:00 PM 7.71 45.878 0.18 7.03 0.61 11.72
12/30/2021 2:45:00 PM 7.73 45.914 0.18 7.04 0.29 11.69
12/30/2021 3:00:00 PM 7.75 45.95 0.18 7.04 0.2 11.63
12/30/2021 3:15:00 PM 7.78 46.004 0.18 7.04 0.31 11.6
12/30/2021 3:30:00 PM 7.8 46.04 0.18 7.04 0.16 11.56
12/30/2021 3:45:00 PM 7.81 46.058 0.181 7.04 0.27 11.49
12/30/2021 4:00:00 PM 7.83 46.094 0.181 7.03 0.27 11.46
12/30/2021 4:15:00 PM 7.83 46.094 0.18 7.03 0.01 11.44
12/30/2021 4:30:00 PM 7.84 46.112 0.181 7.04 0.07 11.4
12/30/2021 4:45:00 PM 7.84 46.112 0.18 7.03 0.2 11.37
12/30/2021 5:00:00 PM 7.83 46.094 0.181 7.03 0.23 11.31
12/30/2021 5:15:00 PM 7.83 46.094 0.18 7.02 0.32 11.29
12/30/2021 5:30:00 PM 7.81 46.058 0.18 7.02 0.16 11.26
12/30/2021 5:45:00 PM 7.8 46.04 0.179 7.01 0.13 11.2
12/30/2021 6:00:00 PM 7.79 46.022 0.179 7.01 0.23 11.18
12/30/2021 6:15:00 PM 7.78 46.004 0.18 7 0.25 11.16
12/30/2021 6:30:00 PM 7.77 45.986 0.18 6.99 0.78 11.16
12/30/2021 6:45:00 PM 7.76 45.968 0.18 6.98 0.21 11.15
12/30/2021 7:00:00 PM 7.75 45.95 0.18 6.98 1.02 11.11
12/30/2021 7:15:00 PM 7.75 45.95 0.18 6.98 0.95 11.09
12/30/2021 7:30:00 PM 7.74 45.932 0.18 6.97 0.44 11.07
12/30/2021 7:45:00 PM 7.74 45.932 0.18 6.97 0.46 11.07
12/30/2021 8:00:00 PM 7.73 45.914 0.18 6.96 1.09 11.05
12/30/2021 8:15:00 PM 7.73 45.914 0.179 6.96 0.33 11.06
12/30/2021 8:30:00 PM 7.72 45.896 0.177 6.96 0.91 11.06
12/30/2021 8:45:00 PM 7.71 45.878 0.18 6.95 0.56 11.04
12/30/2021 9:00:00 PM 7.71 45.878 0.173 6.95 2.8 11.04
12/30/2021 9:15:00 PM 7.71 45.878 0.175 6.94 1.32 11.04
12/30/2021 9:30:00 PM 7.71 45.878 0.172 6.94 0.6 11.01
12/30/2021 9:45:00 PM 7.71 45.878 0.17 6.95 1.15 11.03
12/30/2021 10:00:00 PM 7.71 45.878 0.17 6.95 0.3 10.99
12/30/2021 10:15:00 PM 7.71 45.878 0.17 6.94 0.54 11.01
12/30/2021 10:30:00 PM 7.71 45.878 0.17 6.94 0.67 11
12/30/2021 10:45:00 PM 7.72 45.896 0.169 6.94 0.89 11.02
12/30/2021 11:00:00 PM 7.73 45.914 0.174 6.94 0.57 11.01
12/30/2021 11:15:00 PM 7.73 45.914 0.174 6.93 0.5 10.98
12/30/2021 11:30:00 PM 7.73 45.914 0.174 6.93 0.16 10.98
12/30/2021 11:45:00 PM 7.74 45.932 0.174 6.93 0.64 10.99
12/31/2021 12:00:00 AM 7.74 45.932 0.174 6.93 1.04 10.96
12/31/2021 12:15:00 AM 7.75 45.95 0.174 6.92 0.31 10.98
12/31/2021 12:30:00 AM 7.75 45.95 0.179 6.92 0.97 10.95
12/31/2021 12:45:00 AM 7.76 45.968 0.181 6.92 0.37 10.93
12/31/2021 1:00:00 AM 7.77 45.986 0.18 6.92 0.75 10.95
12/31/2021 1:15:00 AM 7.77 45.986 0.181 6.92 0.43 10.95
12/31/2021 1:30:00 AM 7.78 46.004 0.175 6.92 2.77 10.93
12/31/2021 1:45:00 AM 7.79 46.022 0.181 6.92 0.92 10.91
12/31/2021 2:00:00 AM 7.79 46.022 0.181 6.92 0.64 10.94
12/31/2021 2:15:00 AM 7.8 46.04 0.181 6.92 0.86 10.94
12/31/2021 2:30:00 AM 7.8 46.04 0.181 6.92 0.32 10.89
12/31/2021 2:45:00 AM 7.8 46.04 0.181 6.92 0.27 10.93
12/31/2021 3:00:00 AM 7.8 46.04 0.181 6.92 0.91 10.92
12/31/2021 3:15:00 AM 7.81 46.058 0.181 6.92 0.86 10.92
12/31/2021 3:30:00 AM 7.81 46.058 0.181 6.92 0.12 10.92
12/31/2021 3:45:00 AM 7.82 46.076 0.181 6.92 0.58 10.89
12/31/2021 4:00:00 AM 7.82 46.076 0.181 6.92 0.1 10.73
12/31/2021 4:15:00 AM 7.83 46.094 0.181 6.92 0.45 10.92
12/31/2021 4:30:00 AM 7.82 46.076 0.181 6.92 1.25 10.92
12/31/2021 4:45:00 AM 7.81 46.058 0.181 6.92 0.37 10.93
12/31/2021 5:00:00 AM 7.83 46.094 0.181 6.92 0.43 10.94
12/31/2021 5:15:00 AM 7.82 46.076 0.181 6.92 1.14 10.92
12/31/2021 5:30:00 AM 7.82 46.076 0.181 6.92 0.61 10.93
12/31/2021 5:45:00 AM 7.82 46.076 0.181 6.93 0.54 10.93
12/31/2021 6:00:00 AM 7.82 46.076 0.18 6.93 0.16 10.92
12/31/2021 6:15:00 AM 7.82 46.076 0.18 6.93 0.78 10.93
12/31/2021 6:30:00 AM 7.82 46.076 0.18 6.93 0.82 10.94
12/31/2021 6:45:00 AM 7.82 46.076 0.18 6.93 0.44 10.93
12/31/2021 7:00:00 AM 7.83 46.094 0.181 6.93 0.64 10.94
12/31/2021 7:15:00 AM 7.83 46.094 0.181 6.93 0.32 10.93
12/31/2021 7:30:00 AM 7.82 46.076 0.181 6.93 0.03 10.95
12/31/2021 7:45:00 AM 7.83 46.094 0.181 6.93 0.67 10.96
12/31/2021 8:00:00 AM 7.83 46.094 0.181 6.93 0.71 10.95
12/31/2021 8:15:00 AM 7.83 46.094 0.181 6.93 0.13 10.95
12/31/2021 8:30:00 AM 7.83 46.094 0.181 6.94 0.26 10.99
12/31/2021 8:45:00 AM 7.84 46.112 0.181 6.94 0.09 11
12/31/2021 9:00:00 AM 7.85 46.13 0.181 6.94 0.31 11.04
12/31/2021 9:15:00 AM 7.87 46.166 0.181 6.94 0.34 11.04
12/31/2021 9:30:00 AM 7.9 46.22 0.181 6.95 1.03 11.1
12/31/2021 9:45:00 AM 7.92 46.256 0.181 6.95 0.76 11.13
12/31/2021 10:00:00 AM 7.95 46.31 0.181 6.95 0.03 11.17
12/31/2021 10:15:00 AM 7.99 46.382 0.181 6.96 0.7 11.24
12/31/2021 10:30:00 AM 8.03 46.454 0.181 6.96 0.07 11.28
12/31/2021 10:45:00 AM 8.06 46.508 0.181 6.97 0.16 11.31
12/31/2021 11:00:00 AM 8.08 46.544 0.181 6.98 0.03 11.31
12/31/2021 11:15:00 AM 8.11 46.598 0.182 6.98 0.21 11.31
12/31/2021 11:30:00 AM 8.13 46.634 0.182 6.99 0.1 11.33
12/31/2021 11:45:00 AM 8.17 46.706 0.182 6.99 0.11 11.33
12/31/2021 12:00:00 PM 8.2 46.76 0.182 6.99 0.22 11.35
12/31/2021 12:15:00 PM 8.25 46.85 0.182 7 0.23 11.35
12/31/2021 12:30:00 PM 8.3 46.94 0.181 7.01 0.12 11.4
12/31/2021 12:45:00 PM 8.34 47.012 0.181 7.01 0 11.41
12/31/2021 1:00:00 PM 8.4 47.12 0.181 7.02 0.2 11.44
12/31/2021 1:15:00 PM 8.45 47.21 0.181 7.02 0.3 11.45
12/31/2021 1:30:00 PM 8.49 47.282 0.181 7.02 0.16 11.46
12/31/2021 1:45:00 PM 8.56 47.408 0.181 7.04 0.32 11.43
12/31/2021 2:00:00 PM 8.62 47.516 0.181 7.04 0.3 11.48
12/31/2021 2:15:00 PM 8.65 47.57 0.181 7.04 0.29 11.47
12/31/2021 2:30:00 PM 8.71 47.678 0.181 7.05 0.47 11.46
12/31/2021 2:45:00 PM 8.73 47.714 0.181 7.05 0.1 11.45
12/31/2021 3:00:00 PM 8.76 47.768 0.181 7.05 0.72 11.42
12/31/2021 3:15:00 PM 8.78 47.804 0.181 7.06 0.33 11.39
12/31/2021 3:30:00 PM 8.8 47.84 0.181 7.06 0.18 11.36
12/31/2021 3:45:00 PM 8.82 47.876 0.181 7.06 0.24 11.34
12/31/2021 4:00:00 PM 8.84 47.912 0.181 7.06 0.11 11.32
12/31/2021 4:15:00 PM 8.84 47.912 0.181 7.07 0.27 11.3
12/31/2021 4:30:00 PM 8.85 47.93 0.181 7.06 0.18 11.25
12/31/2021 4:45:00 PM 8.85 47.93 0.181 7.06 0.16 11.18
12/31/2021 5:00:00 PM 8.85 47.93 0.181 7.06 0.34 11.1
12/31/2021 5:15:00 PM 8.85 47.93 0.181 7.06 0.71 11.03
12/31/2021 5:30:00 PM 8.84 47.912 0.181 7.05 0.45 10.98
12/31/2021 5:45:00 PM 8.84 47.912 0.181 7.05 0.11 10.94
12/31/2021 6:00:00 PM 8.84 47.912 0.181 7.04 0.1 10.92
12/31/2021 6:15:00 PM 8.84 47.912 0.181 7.03 0.56 10.86
12/31/2021 6:30:00 PM 8.83 47.894 0.181 7.03 0.03 10.85
12/31/2021 6:45:00 PM 8.82 47.876 0.181 7.02 0.29 10.83
12/31/2021 7:00:00 PM 8.82 47.876 0.181 7.02 0.26 10.82
12/31/2021 7:15:00 PM 8.81 47.858 0.181 7.01 0.34 10.79
12/31/2021 7:30:00 PM 8.81 47.858 0.181 7.01 0.52 10.78
12/31/2021 7:45:00 PM 8.8 47.84 0.181 7.01 0.22 10.74
12/31/2021 8:00:00 PM 8.79 47.822 0.181 7 0.73 10.76
12/31/2021 8:15:00 PM 8.78 47.804 0.181 7 0.17 10.74
12/31/2021 8:30:00 PM 8.77 47.786 0.181 6.99 0.39 10.72
12/31/2021 8:45:00 PM 8.77 47.786 0.18 6.99 0.53 10.69
12/31/2021 9:00:00 PM 8.76 47.768 0.18 6.99 0.31 10.7
12/31/2021 9:15:00 PM 8.75 47.75 0.167 6.99 0.49 10.71
12/31/2021 9:30:00 PM 8.75 47.75 0.174 6.99 0.57 10.67
12/31/2021 9:45:00 PM 8.74 47.732 0.18 6.98 0.45 10.69
12/31/2021 10:00:00 PM 8.73 47.714 0.17 6.98 0.66 10.68
12/31/2021 10:15:00 PM 8.73 47.714 0.181 6.98 0.92 10.68
12/31/2021 10:30:00 PM 8.72 47.696 0.174 6.98 2.08 10.67
12/31/2021 10:45:00 PM 8.72 47.696 0.172 6.97 0.7 10.66
12/31/2021 11:00:00 PM 8.72 47.696 0.169 6.97 1.41 10.66
12/31/2021 11:15:00 PM 8.71 47.678 0.178 6.97 0.78 10.67
12/31/2021 11:30:00 PM 8.71 47.678 0.178 6.97 1.95 10.67
12/31/2021 11:45:00 PM 8.71 47.678 0.178 6.97 0.14 10.68
1/1/2022 12:00:00 AM 8.71 47.678 0.178 6.96 0.42 10.66
1/1/2022 12:15:00 AM 8.71 47.678 0.178 6.97 0.29 10.67
1/1/2022 12:30:00 AM 8.71 47.678 0.178 6.97 0.82 10.66
1/1/2022 12:45:00 AM 8.71 47.678 0.178 6.97 0.44 10.64
1/1/2022 1:00:00 AM 8.71 47.678 0.178 6.97 0.32 10.66
1/1/2022 1:15:00 AM 8.71 47.678 0.178 6.96 0.16 10.65
1/1/2022 1:30:00 AM 8.71 47.678 0.178 6.96 0.16 10.65
1/1/2022 1:45:00 AM 8.71 47.678 0.177 6.96 0.43 10.65
1/1/2022 2:00:00 AM 8.71 47.678 0.177 6.96 0.68 10.64
1/1/2022 2:15:00 AM 8.71 47.678 0.177 6.96 1.83 10.62
1/1/2022 2:30:00 AM 8.72 47.696 0.178 6.96 0.23 10.62
1/1/2022 2:45:00 AM 8.72 47.696 0.178 6.96 0.93 10.61
1/1/2022 3:00:00 AM 8.72 47.696 0.178 6.96 1.17 10.61
1/1/2022 3:15:00 AM 8.72 47.696 0.178 6.96 1.5 10.62
1/1/2022 3:30:00 AM 8.72 47.696 0.178 6.96 2.09 10.62
1/1/2022 3:45:00 AM 8.73 47.714 0.178 6.96 1.11 10.63
1/1/2022 4:00:00 AM 8.73 47.714 0.178 6.96 0.87 10.63
1/1/2022 4:15:00 AM 8.73 47.714 0.178 6.96 0.35 10.62
1/1/2022 4:30:00 AM 8.73 47.714 0.178 6.96 0.36 10.63
1/1/2022 4:45:00 AM 8.74 47.732 0.178 6.95 0.65 10.6
1/1/2022 5:00:00 AM 8.74 47.732 0.178 6.96 0.17 10.61
1/1/2022 5:15:00 AM 8.74 47.732 0.178 6.95 0.38 10.59
1/1/2022 5:30:00 AM 8.74 47.732 0.178 6.95 2.8 10.6
1/1/2022 5:45:00 AM 8.75 47.75 0.178 6.95 1.93 10.6
1/1/2022 6:00:00 AM 8.75 47.75 0.178 6.95 1.34 10.6
1/1/2022 6:15:00 AM 8.75 47.75 0.178 6.95 0.4 10.6
1/1/2022 6:30:00 AM 8.75 47.75 0.178 6.94 0.98 10.58
1/1/2022 6:45:00 AM 8.76 47.768 0.178 6.94 0.83 10.6
1/1/2022 7:00:00 AM 8.76 47.768 0.178 6.94 0.26 10.58
1/1/2022 7:15:00 AM 8.76 47.768 0.179 6.94 0.15 10.59
1/1/2022 7:30:00 AM 8.77 47.786 0.179 6.94 0.4 10.6
1/1/2022 7:45:00 AM 8.77 47.786 0.179 6.94 0.26 10.59
1/1/2022 8:00:00 AM 8.78 47.804 0.176 6.94 0.15 10.59
1/1/2022 8:15:00 AM 8.78 47.804 0.175 6.94 0.15 10.6
1/1/2022 8:30:00 AM 8.79 47.822 0.175 6.94 0.96 10.61
1/1/2022 8:45:00 AM 8.8 47.84 0.176 6.94 0.71 10.63
1/1/2022 9:00:00 AM 8.82 47.876 0.179 6.94 0.15 10.66
1/1/2022 9:15:00 AM 8.83 47.894 0.179 6.95 0.26 10.69
1/1/2022 9:30:00 AM 8.85 47.93 0.179 6.95 0.58 10.71
1/1/2022 9:45:00 AM 8.86 47.948 0.179 6.95 0.2 10.75
1/1/2022 10:00:00 AM 8.88 47.984 0.179 6.95 0.53 10.76
1/1/2022 10:15:00 AM 8.9 48.02 0.178 6.95 0.3 10.77
1/1/2022 10:30:00 AM 8.93 48.074 0.178 6.96 0.17 10.82
1/1/2022 10:45:00 AM 8.95 48.11 0.178 6.96 0.24 10.85
1/1/2022 11:00:00 AM 8.97 48.146 0.178 6.97 0.6 10.89
1/1/2022 11:15:00 AM 8.99 48.182 0.177 6.97 0.3 10.9
1/1/2022 11:30:00 AM 9.01 48.218 0.177 6.98 0.95 10.87
1/1/2022 11:45:00 AM 9.03 48.254 0.176 6.98 0.74 10.85
1/1/2022 12:00:00 PM 9.05 48.29 0.176 6.98 0.31 10.85
1/1/2022 12:15:00 PM 9.1 48.38 0.175 6.98 0.13 10.88
1/1/2022 12:30:00 PM 9.14 48.452 0.175 6.98 1.41 10.92
1/1/2022 12:45:00 PM 9.17 48.506 0.175 6.99 1.07 10.96
1/1/2022 1:00:00 PM 9.2 48.56 0.175 6.99 0.41 10.98
1/1/2022 1:15:00 PM 9.23 48.614 0.175 6.99 0.4 11
1/1/2022 1:30:00 PM 9.25 48.65 0.176 7 0.24 10.96
1/1/2022 1:45:00 PM 9.26 48.668 0.176 7.01 1.12 10.94
1/1/2022 2:00:00 PM 9.28 48.704 0.176 7.01 0.57 10.93
1/1/2022 2:15:00 PM 9.29 48.722 0.176 7.01 0.38 10.91
1/1/2022 2:30:00 PM 9.31 48.758 0.175 7.01 0.19 10.88
1/1/2022 2:45:00 PM 9.32 48.776 0.175 7.01 0.52 10.84
1/1/2022 3:00:00 PM 9.34 48.812 0.175 7 0.36 10.84
1/1/2022 3:15:00 PM 9.36 48.848 0.174 7 0.77 10.82
1/1/2022 3:30:00 PM 9.38 48.884 0.174 7.01 1.08 10.83
1/1/2022 3:45:00 PM 9.39 48.902 0.174 7.01 0.55 10.8
1/1/2022 4:00:00 PM 9.4 48.92 0.174 7.01 0.83 10.76
1/1/2022 4:15:00 PM 9.4 48.92 0.174 7.01 0.57 10.73
1/1/2022 4:30:00 PM 9.41 48.938 0.174 7 0.63 10.68
1/1/2022 4:45:00 PM 9.41 48.938 0.174 7 0.95 10.65
1/1/2022 5:00:00 PM 9.41 48.938 0.173 7.01 0.53 10.62
1/1/2022 5:15:00 PM 9.41 48.938 0.166 7.01 1.16 10.6
1/1/2022 5:30:00 PM 9.42 48.956 0.168 7.01 1.12 10.58
1/1/2022 5:45:00 PM 9.42 48.956 0.165 7 0.92 10.57
1/1/2022 6:00:00 PM 9.43 48.974 0.164 7 1.28 10.53
1/1/2022 6:15:00 PM 9.44 48.992 0.16 7 1.94 10.53
1/1/2022 6:30:00 PM 9.45 49.01 0.171 7 1.01 10.51
1/1/2022 6:45:00 PM 9.45 49.01 0.171 6.99 1.17 10.49
1/1/2022 7:00:00 PM 9.45 49.01 0.171 6.99 1.2 10.48
1/1/2022 7:15:00 PM 9.45 49.01 0.172 6.99 1.93 10.46
1/1/2022 7:30:00 PM 9.45 49.01 0.172 6.98 1.23 10.47
1/1/2022 7:45:00 PM 9.46 49.028 0.172 6.98 2.07 10.44
1/1/2022 8:00:00 PM 9.47 49.046 0.172 6.98 2.29 10.43
1/1/2022 8:15:00 PM 9.48 49.064 0.171 6.98 1.46 10.43
1/1/2022 8:30:00 PM 9.57 49.226 0.166 6.98 5.17 10.41
1/1/2022 8:45:00 PM 9.61 49.298 0.163 6.98 7.9 10.45
1/1/2022 9:00:00 PM 9.63 49.334 0.162 6.98 7.47 10.42
1/1/2022 9:15:00 PM 9.64 49.352 0.163 6.98 7.27 10.4
1/1/2022 9:30:00 PM 9.64 49.352 0.163 6.98 17.17 10.39
1/1/2022 9:45:00 PM 9.64 49.352 0.164 6.97 20.5 10.37
1/1/2022 10:00:00 PM 9.64 49.352 0.164 6.98 23.27 10.35
1/1/2022 10:15:00 PM 9.65 49.37 0.164 6.98 17.26 10.36
1/1/2022 10:30:00 PM 9.65 49.37 0.163 6.97 25.83 10.36
1/1/2022 10:45:00 PM 9.67 49.406 0.161 6.98 15.49 10.36
1/1/2022 11:00:00 PM 9.69 49.442 0.156 6.97 109.8 10.35
1/1/2022 11:15:00 PM 9.72 49.496 0.153 6.96 255.8 10.34
1/1/2022 11:30:00 PM 9.75 49.55 0.154 6.95 285.3 10.33
1/1/2022 11:45:00 PM 9.76 49.568 0.156 6.95 202.8 10.31
1/2/2022 12:00:00 AM 9.78 49.604 0.157 6.95 211.9 10.31
1/2/2022 12:15:00 AM 9.83 49.694 0.157 6.95 184.3 10.32
1/2/2022 12:30:00 AM 9.87 49.766 0.158 6.95 177.5 10.33
1/2/2022 12:45:00 AM 9.9 49.82 0.161 6.96 125.2 10.35
1/2/2022 1:00:00 AM 9.9 49.82 0.163 6.97 145.1 10.35
1/2/2022 1:15:00 AM 9.91 49.838 0.164 6.98 169.5 10.35
1/2/2022 1:30:00 AM 9.93 49.874 0.165 7 173 10.33
1/2/2022 1:45:00 AM 9.95 49.91 0.164 7 236.9 10.3
1/2/2022 2:00:00 AM 9.98 49.964 0.161 7.01 335.9 10.26
1/2/2022 2:15:00 AM 10 50 0.157 7.02 380.8 10.25
1/2/2022 2:30:00 AM 10.02 50.036 0.153 7.02 481 10.24
1/2/2022 2:45:00 AM 10.03 50.054 0.151 7.02 473.6 10.22
1/2/2022 3:00:00 AM 10.04 50.072 0.149 7.02 613 10.22
1/2/2022 3:15:00 AM 10.04 50.072 0.148 7.02 415.9 10.21
1/2/2022 3:30:00 AM 10.05 50.09 0.147 7.02 401.3 10.2
1/2/2022 3:45:00 AM 10.04 50.072 0.146 7.02 430.2 10.19
1/2/2022 4:00:00 AM 10.04 50.072 0.145 7.02 367 10.19
1/2/2022 4:15:00 AM 10.03 50.054 0.144 7.03 338.4 10.19
1/2/2022 4:30:00 AM 10.02 50.036 0.144 7.02 392.3 10.2
1/2/2022 4:45:00 AM 10.02 50.036 0.144 7.02 258.7 10.19
1/2/2022 5:00:00 AM 10.01 50.018 0.145 7.03 259 10.2
1/2/2022 5:15:00 AM 10 50 0.145 7.03 291.2 10.2
1/2/2022 5:30:00 AM 10 50 0.145 7.03 216.4 10.19
1/2/2022 5:45:00 AM 9.99 49.982 0.146 7.03 258.3 10.2
1/2/2022 6:00:00 AM 9.97 49.946 0.146 7.03 198 10.19
1/2/2022 6:15:00 AM 9.96 49.928 0.145 7.02 219.4 10.2
1/2/2022 6:30:00 AM 9.95 49.91 0.145 7.02 195.3 10.19
1/2/2022 6:45:00 AM 9.94 49.892 0.144 7.02 224.9 10.19
1/2/2022 7:00:00 AM 9.93 49.874 0.144 7.02 147.4 10.21
1/2/2022 7:15:00 AM 9.91 49.838 0.143 7.01 196.6 10.21
1/2/2022 7:30:00 AM 9.9 49.82 0.143 7.02 153.1 10.2
1/2/2022 7:45:00 AM 9.89 49.802 0.143 7.01 153.8 10.22
1/2/2022 8:00:00 AM 9.88 49.784 0.143 7.01 119.4 10.2
1/2/2022 8:15:00 AM 9.88 49.784 0.143 7.02 133 10.2
1/2/2022 8:30:00 AM 9.87 49.766 0.143 7.01 121.1 10.22
1/2/2022 8:45:00 AM 9.87 49.766 0.143 7.01 143.2 10.23
1/2/2022 9:00:00 AM 9.86 49.748 0.143 7.01 82.38 10.24
1/2/2022 9:15:00 AM 9.86 49.748 0.143 7.01 108 10.26
1/2/2022 9:30:00 AM 9.87 49.766 0.143 7.01 101.1 10.27
1/2/2022 9:45:00 AM 9.88 49.784 0.143 7.01 76.37 10.28
1/2/2022 10:00:00 AM 9.9 49.82 0.143 7.01 104.3 10.28
1/2/2022 10:15:00 AM 9.94 49.892 0.143 7.01 84.36 10.31
1/2/2022 10:30:00 AM 9.96 49.928 0.143 7.01 67.89 10.32
1/2/2022 10:45:00 AM 9.98 49.964 0.144 7.02 71.69 10.33
1/2/2022 11:00:00 AM 10.01 50.018 0.144 7.02 64.01 10.33
1/2/2022 11:15:00 AM 10.05 50.09 0.144 7.02 73.83 10.35
1/2/2022 11:30:00 AM 10.1 50.18 0.144 7.02 60.02 10.38
1/2/2022 11:45:00 AM 10.13 50.234 0.145 7.03 86.96 10.38
1/2/2022 12:00:00 PM 10.17 50.306 0.145 7.03 58.13 10.39
1/2/2022 12:15:00 PM 10.23 50.414 0.146 7.03 55.45 10.4
1/2/2022 12:30:00 PM 10.29 50.522 0.146 7.03 46.44 10.42
1/2/2022 12:45:00 PM 10.36 50.648 0.147 7.03 55.09 10.45
1/2/2022 1:00:00 PM 10.41 50.738 0.148 7.04 50.72 10.46
1/2/2022 1:15:00 PM 10.47 50.846 0.148 7.04 47.08 10.45
1/2/2022 1:30:00 PM 10.53 50.954 0.149 7.05 37.73 10.46
1/2/2022 1:45:00 PM 10.58 51.044 0.149 7.05 43.37 10.46
1/2/2022 2:00:00 PM 10.62 51.116 0.15 7.06 43.33 10.46
1/2/2022 2:15:00 PM 10.65 51.17 0.151 7.06 41.18 10.45
1/2/2022 2:30:00 PM 10.67 51.206 0.151 7.06 35.13 10.45
1/2/2022 2:45:00 PM 10.69 51.242 0.152 7.06 34.78 10.45
1/2/2022 3:00:00 PM 10.71 51.278 0.152 7.07 30.96 10.43
1/2/2022 3:15:00 PM 10.72 51.296 0.153 7.07 28.8 10.42
1/2/2022 3:30:00 PM 10.72 51.296 0.154 7.07 30.2 10.41
1/2/2022 3:45:00 PM 10.72 51.296 0.154 7.07 40.1 10.38
1/2/2022 4:00:00 PM 10.72 51.296 0.155 7.07 28.53 10.33
1/2/2022 4:15:00 PM 10.71 51.278 0.155 7.07 23.44 10.32
1/2/2022 4:30:00 PM 10.7 51.26 0.156 7.07 24.01 10.33
1/2/2022 4:45:00 PM 10.69 51.242 0.156 7.07 24.15 10.29
1/2/2022 5:00:00 PM 10.66 51.188 0.157 7.07 21.55 10.26
1/2/2022 5:15:00 PM 10.62 51.116 0.157 7.07 90.97 10.25
1/2/2022 5:30:00 PM 10.58 51.044 0.158 7.06 18.91 10.24
1/2/2022 5:45:00 PM 10.54 50.972 0.158 7.06 21.79 10.22
1/2/2022 6:00:00 PM 10.51 50.918 0.158 7.06 13.71 10.22
1/2/2022 6:15:00 PM 10.46 50.828 0.159 7.06 26.8 10.21
1/2/2022 6:30:00 PM 10.42 50.756 0.159 7.06 20.02 10.22
1/2/2022 6:45:00 PM 10.38 50.684 0.16 7.05 17.82 10.2
1/2/2022 7:00:00 PM 10.34 50.612 0.16 7.05 15.53 10.2
1/2/2022 7:15:00 PM 10.3 50.54 0.16 7.05 15.97 10.22
1/2/2022 7:30:00 PM 10.26 50.468 0.161 7.05 11.41 10.21
1/2/2022 7:45:00 PM 10.22 50.396 0.161 7.04 16.17 10.21
1/2/2022 8:00:00 PM 10.17 50.306 0.161 7.04 15.62 10.22
1/2/2022 8:15:00 PM 10.11 50.198 0.161 7.04 12.07 10.21
1/2/2022 8:30:00 PM 10.06 50.108 0.159 7.04 10.3 10.24
1/2/2022 8:45:00 PM 10 50 0.161 7.04 14.16 10.23
1/2/2022 9:00:00 PM 9.93 49.874 0.159 7.04 9.21 10.24
1/2/2022 9:15:00 PM 9.87 49.766 0.163 7.03 12.58 10.26
1/2/2022 9:30:00 PM 9.82 49.676 0.162 7.03 12.86 10.27
1/2/2022 9:45:00 PM 9.76 49.568 0.162 7.03 12.63 10.29
1/2/2022 10:00:00 PM 9.71 49.478 0.164 7.03 11.05 10.3
1/2/2022 10:15:00 PM 9.64 49.352 0.164 7.03 10.76 10.34
1/2/2022 10:30:00 PM 9.58 49.244 0.164 7.02 10.91 10.34
1/2/2022 10:45:00 PM 9.52 49.136 0.165 7.03 11.32 10.36
1/2/2022 11:00:00 PM 9.45 49.01 0.162 7.02 10.61 10.39
1/2/2022 11:15:00 PM 9.38 48.884 0.165 7.02 10.62 10.41
1/2/2022 11:30:00 PM 9.31 48.758 0.164 7.02 9.72 10.4
1/2/2022 11:45:00 PM 9.24 48.632 0.166 7.02 9.14 10.42
1/3/2022 12:00:00 AM 9.17 48.506 0.162 7.02 8.1 10.43
1/3/2022 12:15:00 AM 9.11 48.398 0.166 7.01 9.09 10.48
1/3/2022 12:30:00 AM 9.05 48.29 0.166 6.99 9.42 10.49
1/3/2022 12:45:00 AM 8.99 48.182 0.167 6.99 8.62 10.52
1/3/2022 1:00:00 AM 8.93 48.074 0.163 7.01 6.42 10.55
1/3/2022 1:15:00 AM 8.87 47.966 0.164 7.01 11.68 10.56
1/3/2022 1:30:00 AM 8.82 47.876 0.167 7.02 11.88 10.6
1/3/2022 1:45:00 AM 8.76 47.768 0.166 7.02 8.81 10.59
1/3/2022 2:00:00 AM 8.71 47.678 0.168 7.01 7.79 10.64
1/3/2022 2:15:00 AM 8.65 47.57 0.168 7.02 7.87 10.64
1/3/2022 2:30:00 AM 8.58 47.444 0.168 7.01 5.7 10.66
1/3/2022 2:45:00 AM 8.52 47.336 0.163 7.02 8.49 10.67
1/3/2022 3:00:00 AM 8.46 47.228 0.168 7.01 7.74 10.72
1/3/2022 3:15:00 AM 8.39 47.102 0.168 7.01 5.87 10.73
1/3/2022 3:30:00 AM 8.33 46.994 0.169 7.01 7.23 10.74
1/3/2022 3:45:00 AM 8.26 46.868 0.169 7.01 8.2 10.77
1/3/2022 4:00:00 AM 8.19 46.742 0.169 7.01 6.94 10.81
1/3/2022 4:15:00 AM 8.13 46.634 0.169 7.01 5.56 10.82
1/3/2022 4:30:00 AM 8.07 46.526 0.169 7.01 6.83 10.83
1/3/2022 4:45:00 AM 8.01 46.418 0.169 7.01 6.29 10.86
1/3/2022 5:00:00 AM 7.96 46.328 0.169 7.01 6.49 10.86
1/3/2022 5:15:00 AM 7.89 46.202 0.168 7.01 5.69 10.9
1/3/2022 5:30:00 AM 7.83 46.094 0.169 7.01 6.27 10.93
1/3/2022 5:45:00 AM 7.75 45.95 0.169 7 6.45 10.94
1/3/2022 6:00:00 AM 7.7 45.86 0.169 7 9.13 10.95
1/3/2022 6:15:00 AM 7.64 45.752 0.167 7 6.32 10.99
1/3/2022 6:30:00 AM 7.58 45.644 0.166 7 7.38 11.03
1/3/2022 6:45:00 AM 7.52 45.536 0.168 6.99 7.14 11.04
1/3/2022 7:00:00 AM 7.46 45.428 0.17 7 5.2 11.04
1/3/2022 7:15:00 AM 7.4 45.32 0.169 6.99 15.71 11.04
1/3/2022 7:30:00 AM 7.33 45.194 0.169 6.99 7.79 11.1
1/3/2022 7:45:00 AM 7.26 45.068 0.17 6.99 12.64 11.04
1/3/2022 8:00:00 AM 7.2 44.96 0.17 6.99 7.92 11.16
1/3/2022 8:15:00 AM 7.15 44.87 0.17 6.99 9.34 11.16
1/3/2022 8:30:00 AM 7.08 44.744 0.171 6.99 3.5 11.2
1/3/2022 8:45:00 AM 7.01 44.618 0.17 6.99 3.86 11.24
1/3/2022 9:00:00 AM 6.96 44.528 0.172 6.99 7.29 11.28
1/3/2022 9:15:00 AM 6.88 44.384 0.172 6.99 18.42 11.3
1/3/2022 9:30:00 AM 6.81 44.258 0.172 6.99 4.1 11.33
1/3/2022 9:45:00 AM 6.76 44.168 0.171 6.99 4.61 11.37
1/3/2022 10:00:00 AM 6.69 44.042 0.172 6.99 2.66 11.4
1/3/2022 10:15:00 AM 6.64 43.952 0.172 6.99 5.08 11.45
1/3/2022 10:30:00 AM 6.56 43.808 0.171 6.99 3.67 11.54
1/3/2022 10:45:00 AM 6.5 43.7 0.172 6.99 3.97 11.57
1/3/2022 11:00:00 AM 6.42 43.556 0.172 6.99 329.4 11.59
1/3/2022 11:15:00 AM 6.39 43.502 0.172 7 187.8 11.65
1/3/2022 11:30:00 AM 6.34 43.412 0.172 7.01 4.33 11.65
1/3/2022 11:45:00 AM 6.28 43.304 0.172 7 14.78 11.7
1/3/2022 12:00:00 PM 6.23 43.214 0.173 7.01 1567 11.76
1/3/2022 12:15:00 PM 6.17 43.106 0.173 7.01 1566 11.82
1/3/2022 12:30:00 PM 6.12 43.016 0.173 7.01 1188 11.89
1/3/2022 12:45:00 PM 6.08 42.944 0.173 7.02 1080 11.94
1/3/2022 1:00:00 PM 6.04 42.872 0.173 7.02 1056 11.98
1/3/2022 1:15:00 PM 6 42.8 0.173 7.02 1033 12
1/3/2022 1:30:00 PM 5.95 42.71 0.173 7.02 1029 12.03
1/3/2022 1:45:00 PM 5.89 42.602 0.173 7.02 1032 12.05
1/3/2022 2:00:00 PM 5.85 42.53 0.173 7.03 1043 12.1
1/3/2022 2:15:00 PM 5.8 42.44 0.173 7.03 1035 12.14
1/3/2022 2:30:00 PM 5.77 42.386 0.173 7.03 1037 12.18
1/3/2022 2:45:00 PM 5.76 42.368 0.173 7.04 1041 12.23
1/3/2022 3:00:00 PM 5.71 42.278 0.173 7.04 1038 12.24
1/3/2022 3:15:00 PM 5.65 42.17 0.173 7.04 1033 12.25
1/3/2022 3:30:00 PM 5.58 42.044 0.173 7.04 1027 12.27
1/3/2022 3:45:00 PM 5.52 41.936 0.173 7.04 1022 12.28
1/3/2022 4:00:00 PM 5.47 41.846 0.172 7.04 1013 12.25
1/3/2022 4:15:00 PM 5.41 41.738 0.172 7.04 1010 12.28
1/3/2022 4:30:00 PM 5.32 41.576 0.172 7.04 996.7 12.31
1/3/2022 4:45:00 PM 5.24 41.432 0.172 7.04 980.8 12.29
1/3/2022 5:00:00 PM 5.17 41.306 0.172 7.04 965.9 12.25
1/3/2022 5:15:00 PM 5.09 41.162 0.172 7.03 955.2 12.25
1/3/2022 5:30:00 PM 5.01 41.018 0.172 7.03 936.9 12.23
1/3/2022 5:45:00 PM 4.93 40.874 0.165 7.02 925.8 12.24
1/3/2022 6:00:00 PM 4.84 40.712 0.166 7.02 907.8 12.23
1/3/2022 6:15:00 PM 4.75 40.55 0.168 7.02 874.3 12.24
1/3/2022 6:30:00 PM 4.68 40.424 0.171 7.01 846.1 12.26
1/3/2022 6:45:00 PM 4.61 40.298 0.171 7 825.7 12.26
1/3/2022 7:00:00 PM 4.55 40.19 0.174 7 801.5 12.27
1/3/2022 7:15:00 PM 4.47 40.046 0.171 6.99 773.9 12.3
1/3/2022 7:30:00 PM 4.4 39.92 0.171 6.98 743 12.31
1/3/2022 7:45:00 PM 4.33 39.794 0.167 6.99 702.7 12.3
1/3/2022 8:00:00 PM 4.27 39.686 0.172 6.98 672.3 12.34
1/3/2022 8:15:00 PM 4.19 39.542 0.171 6.97 631.5 12.36
1/3/2022 8:30:00 PM 4.11 39.398 0.171 6.98 576.9 12.39
1/3/2022 8:45:00 PM 4.04 39.272 0.171 6.97 522.5 12.4
1/3/2022 9:00:00 PM 3.96 39.128 0.162 6.97 11.88 12.41
1/3/2022 9:15:00 PM 3.9 39.02 0.164 6.96 2.29 12.38
1/3/2022 9:30:00 PM 3.84 38.912 0.168 6.96 46.04 12.42
1/3/2022 9:45:00 PM 3.76 38.768 0.168 6.96 1.81 12.47
1/3/2022 10:00:00 PM 3.71 38.678 0.168 6.96 1568 12.47
1/3/2022 10:15:00 PM 3.64 38.552 0.167 6.96 3.45 12.5
1/3/2022 10:30:00 PM 3.6 38.48 0.173 6.95 6.36 12.53
1/3/2022 10:45:00 PM 3.56 38.408 0.172 6.95 4.18 12.54
1/3/2022 11:00:00 PM 3.48 38.264 0.173 6.95 2.1 12.59
1/3/2022 11:15:00 PM 3.42 38.156 0.173 6.95 2.95 12.59
1/3/2022 11:30:00 PM 3.36 38.048 0.171 6.94 2.19 12.62
1/3/2022 11:45:00 PM 3.31 37.958 0.172 6.94 2.29 12.62
1/4/2022 12:00:00 AM 3.26 37.868 0.173 6.94 1.05 12.66
1/4/2022 12:15:00 AM 3.23 37.814 0.171 6.94 2.9 12.66
1/4/2022 12:30:00 AM 3.15 37.67 0.171 6.94 2.42 12.71
1/4/2022 12:45:00 AM 3.09 37.562 0.171 6.94 1.95 12.74
1/4/2022 1:00:00 AM 3.04 37.472 0.166 6.94 1.96 12.77
1/4/2022 1:15:00 AM 2.98 37.364 0.173 6.93 1.97 12.81
1/4/2022 1:30:00 AM 2.93 37.274 0.173 6.93 1.94 12.79
1/4/2022 1:45:00 AM 2.89 37.202 0.173 6.93 1.9 12.85
1/4/2022 2:00:00 AM 2.84 37.112 0.173 6.93 1.98 12.86
1/4/2022 2:15:00 AM 2.78 37.004 0.173 6.93 1.93 12.89
1/4/2022 2:30:00 AM 2.73 36.914 0.175 6.93 3.56 12.91
1/4/2022 2:45:00 AM 2.69 36.842 0.173 6.93 2.02 12.96
1/4/2022 3:00:00 AM 2.64 36.752 0.174 6.92 1.88 12.98
1/4/2022 3:15:00 AM 2.59 36.662 0.173 6.92 2.77 12.99
1/4/2022 3:30:00 AM 2.53 36.554 0.173 6.93 1.64 13.03
1/4/2022 3:45:00 AM 2.48 36.464 0.173 6.93 2.3 13.06
1/4/2022 4:00:00 AM 2.43 36.374 0.173 6.93 2.24 13.08
1/4/2022 4:15:00 AM 2.4 36.32 0.173 6.93 1.59 13.12
1/4/2022 4:30:00 AM 2.35 36.23 0.173 6.93 1.6 13.11
1/4/2022 4:45:00 AM 2.32 36.176 0.173 6.92 1.99 13.15
1/4/2022 5:00:00 AM 2.27 36.086 0.174 6.92 2.1 13.18
1/4/2022 5:15:00 AM 2.22 35.996 0.172 6.91 1.75 13.19
1/4/2022 5:30:00 AM 2.18 35.924 0.173 6.9 3 13.21
1/4/2022 5:45:00 AM 2.14 35.852 0.174 6.91 2.54 13.22
1/4/2022 6:00:00 AM 2.09 35.762 0.173 6.92 2.09 13.26
1/4/2022 6:15:00 AM 2.03 35.654 0.174 6.92 1.92 13.27
1/4/2022 6:30:00 AM 1.99 35.582 0.174 6.92 1.89 13.31
1/4/2022 6:45:00 AM 1.94 35.492 0.174 6.91 1.82 13.32
1/4/2022 7:00:00 AM 1.89 35.402 0.174 6.91 2.04 13.34
1/4/2022 7:15:00 AM 1.84 35.312 0.174 6.91 1.68 13.37
1/4/2022 7:30:00 AM 1.79 35.222 0.174 6.92 2.2 13.4
1/4/2022 7:45:00 AM 1.76 35.168 0.174 6.92 1.47 13.41
1/4/2022 8:00:00 AM 1.7 35.06 0.175 6.92 2.37 13.47
1/4/2022 8:15:00 AM 1.66 34.988 0.175 6.92 9.88 13.52
1/4/2022 8:30:00 AM 1.64 34.952 0.175 6.92 1.52 13.55
1/4/2022 8:45:00 AM 1.61 34.898 0.175 6.92 2.14 13.62